<?xml version='1.0' encoding='UTF-8'?><gpx version="1.1" creator="JPX - https://github.com/jenetics/jpx" xmlns="http://www.topografix.com/GPX/1/1"><trk><trkseg><trkpt lat="44.8226082" lon="7.9444708"><ele>294.0</ele><time>2026-04-18T13:09:36.919Z</time></trkpt><trkpt lat="44.8225503" lon="7.9445572"><ele>294.0</ele><time>2026-04-18T13:09:37.919Z</time></trkpt><trkpt lat="44.8224898" lon="7.9446531"><ele>294.0</ele><time>2026-04-18T13:09:38.918Z</time></trkpt><trkpt lat="44.8224279" lon="7.9447521"><ele>294.0</ele><time>2026-04-18T13:09:39.919Z</time></trkpt><trkpt lat="44.8223584" lon="7.9448517"><ele>294.0</ele><time>2026-04-18T13:09:40.919Z</time></trkpt><trkpt lat="44.822215" lon="7.9450478"><ele>294.0</ele><time>2026-04-18T13:09:42.919Z</time></trkpt><trkpt lat="44.8221392" lon="7.9451546"><ele>294.0</ele><time>2026-04-18T13:09:43.918Z</time></trkpt><trkpt lat="44.8220629" lon="7.9452718"><ele>294.0</ele><time>2026-04-18T13:09:44.918Z</time></trkpt><trkpt lat="44.8219901" lon="7.945392"><ele>294.0</ele><time>2026-04-18T13:09:45.918Z</time></trkpt><trkpt lat="44.8219173" lon="7.9455049"><ele>294.0</ele><time>2026-04-18T13:09:46.918Z</time></trkpt><trkpt lat="44.8218464" lon="7.9456141"><ele>294.59999999999997</ele><time>2026-04-18T13:09:47.918Z</time></trkpt><trkpt lat="44.8217735" lon="7.945725"><ele>295.2</ele><time>2026-04-18T13:09:48.919Z</time></trkpt><trkpt lat="44.8216962" lon="7.945839"><ele>295.79999999999995</ele><time>2026-04-18T13:09:49.918Z</time></trkpt><trkpt lat="44.8216193" lon="7.9459514"><ele>296.4</ele><time>2026-04-18T13:09:50.919Z</time></trkpt><trkpt lat="44.8215452" lon="7.9460623"><ele>297.0</ele><time>2026-04-18T13:09:51.919Z</time></trkpt><trkpt lat="44.8214668" lon="7.946175"><ele>297.0</ele><time>2026-04-18T13:09:52.919Z</time></trkpt><trkpt lat="44.8214" lon="7.946289"><ele>297.0</ele><time>2026-04-18T13:09:53.918Z</time></trkpt><trkpt lat="44.8213347" lon="7.946398"><ele>297.0</ele><time>2026-04-18T13:09:54.918Z</time></trkpt><trkpt lat="44.8212756" lon="7.9465085"><ele>297.0</ele><time>2026-04-18T13:09:55.919Z</time></trkpt><trkpt lat="44.821221" lon="7.9466283"><ele>297.0</ele><time>2026-04-18T13:09:56.919Z</time></trkpt><trkpt lat="44.8211887" lon="7.9467583"><ele>296.6666666666667</ele><time>2026-04-18T13:09:57.918Z</time></trkpt><trkpt lat="44.8211723" lon="7.946885"><ele>296.3333333333333</ele><time>2026-04-18T13:09:58.918Z</time></trkpt><trkpt lat="44.821172" lon="7.9470086"><ele>296.0</ele><time>2026-04-18T13:09:59.919Z</time></trkpt><trkpt lat="44.8211773" lon="7.9471224"><ele>295.66666666666663</ele><time>2026-04-18T13:10:00.919Z</time></trkpt><trkpt lat="44.8211821" lon="7.9472305"><ele>295.3333333333333</ele><time>2026-04-18T13:10:01.919Z</time></trkpt><trkpt lat="44.8211768" lon="7.9473376"><ele>295.0</ele><time>2026-04-18T13:10:02.919Z</time></trkpt><trkpt lat="44.8211569" lon="7.9474511"><ele>295.2</ele><time>2026-04-18T13:10:03.918Z</time></trkpt><trkpt lat="44.8211192" lon="7.947581"><ele>295.4</ele><time>2026-04-18T13:10:04.918Z</time></trkpt><trkpt lat="44.8210605" lon="7.9477"><ele>295.6</ele><time>2026-04-18T13:10:05.919Z</time></trkpt><trkpt lat="44.8209837" lon="7.9478026"><ele>295.8</ele><time>2026-04-18T13:10:06.919Z</time></trkpt><trkpt lat="44.8208786" lon="7.9478908"><ele>296.0</ele><time>2026-04-18T13:10:07.919Z</time></trkpt><trkpt lat="44.820748" lon="7.9479592"><ele>296.75</ele><time>2026-04-18T13:10:08.918Z</time></trkpt><trkpt lat="44.8206137" lon="7.9479996"><ele>297.5</ele><time>2026-04-18T13:10:09.919Z</time></trkpt><trkpt lat="44.8204745" lon="7.9480427"><ele>298.25</ele><time>2026-04-18T13:10:10.919Z</time></trkpt><trkpt lat="44.8203362" lon="7.9480879"><ele>299.0</ele><time>2026-04-18T13:10:11.918Z</time></trkpt><trkpt lat="44.8201995" lon="7.9481299"><ele>298.0</ele><time>2026-04-18T13:10:12.919Z</time></trkpt><trkpt lat="44.8200677" lon="7.9481711"><ele>297.0</ele><time>2026-04-18T13:10:13.919Z</time></trkpt><trkpt lat="44.8199359" lon="7.948205"><ele>296.0</ele><time>2026-04-18T13:10:14.918Z</time></trkpt><trkpt lat="44.8197968" lon="7.9482252"><ele>295.0</ele><time>2026-04-18T13:10:15.918Z</time></trkpt><trkpt lat="44.8196577" lon="7.9482379"><ele>295.0</ele><time>2026-04-18T13:10:16.918Z</time></trkpt><trkpt lat="44.8195162" lon="7.9482411"><ele>295.0</ele><time>2026-04-18T13:10:17.919Z</time></trkpt><trkpt lat="44.8193733" lon="7.9482394"><ele>295.0</ele><time>2026-04-18T13:10:18.918Z</time></trkpt><trkpt lat="44.8192272" lon="7.9482334"><ele>295.0</ele><time>2026-04-18T13:10:19.919Z</time></trkpt><trkpt lat="44.819079" lon="7.9482139"><ele>295.5</ele><time>2026-04-18T13:10:20.919Z</time></trkpt><trkpt lat="44.8189339" lon="7.9481926"><ele>296.0</ele><time>2026-04-18T13:10:21.919Z</time></trkpt><trkpt lat="44.8187942" lon="7.9481655"><ele>296.5</ele><time>2026-04-18T13:10:22.919Z</time></trkpt><trkpt lat="44.8186609" lon="7.9481291"><ele>297.0</ele><time>2026-04-18T13:10:23.919Z</time></trkpt><trkpt lat="44.8185227" lon="7.9480807"><ele>297.0</ele><time>2026-04-18T13:10:24.919Z</time></trkpt><trkpt lat="44.8183835" lon="7.9480292"><ele>297.0</ele><time>2026-04-18T13:10:25.918Z</time></trkpt><trkpt lat="44.8182491" lon="7.9479768"><ele>297.0</ele><time>2026-04-18T13:10:26.919Z</time></trkpt><trkpt lat="44.8181111" lon="7.9479203"><ele>297.0</ele><time>2026-04-18T13:10:27.918Z</time></trkpt><trkpt lat="44.8179793" lon="7.947856"><ele>297.0</ele><time>2026-04-18T13:10:28.919Z</time></trkpt><trkpt lat="44.8178557" lon="7.9477932"><ele>297.0</ele><time>2026-04-18T13:10:29.919Z</time></trkpt><trkpt lat="44.8177433" lon="7.9477317"><ele>297.0</ele><time>2026-04-18T13:10:30.919Z</time></trkpt><trkpt lat="44.817635" lon="7.94767"><ele>297.0</ele><time>2026-04-18T13:10:31.918Z</time></trkpt><trkpt lat="44.817525" lon="7.9476067"><ele>297.4</ele><time>2026-04-18T13:10:32.919Z</time></trkpt><trkpt lat="44.8174217" lon="7.94754"><ele>297.79999999999995</ele><time>2026-04-18T13:10:33.918Z</time></trkpt><trkpt lat="44.817315" lon="7.947475"><ele>298.2</ele><time>2026-04-18T13:10:34.919Z</time></trkpt><trkpt lat="44.8172167" lon="7.9473967"><ele>298.59999999999997</ele><time>2026-04-18T13:10:35.919Z</time></trkpt><trkpt lat="44.8171267" lon="7.9473183"><ele>299.0</ele><time>2026-04-18T13:10:36.919Z</time></trkpt><trkpt lat="44.8170533" lon="7.947225"><ele>299.0</ele><time>2026-04-18T13:10:37.919Z</time></trkpt><trkpt lat="44.81699" lon="7.947115"><ele>299.0</ele><time>2026-04-18T13:10:38.919Z</time></trkpt><trkpt lat="44.8169417" lon="7.9469833"><ele>299.0</ele><time>2026-04-18T13:10:39.918Z</time></trkpt><trkpt lat="44.8169033" lon="7.94684"><ele>299.0</ele><time>2026-04-18T13:10:40.919Z</time></trkpt><trkpt lat="44.816875" lon="7.9466933"><ele>299.0</ele><time>2026-04-18T13:10:41.918Z</time></trkpt><trkpt lat="44.8168567" lon="7.9465583"><ele>299.0</ele><time>2026-04-18T13:10:42.919Z</time></trkpt><trkpt lat="44.81684" lon="7.9464283"><ele>299.0</ele><time>2026-04-18T13:10:43.919Z</time></trkpt><trkpt lat="44.8168083" lon="7.9463017"><ele>299.0</ele><time>2026-04-18T13:10:44.919Z</time></trkpt><trkpt lat="44.816755" lon="7.946195"><ele>299.0</ele><time>2026-04-18T13:10:45.919Z</time></trkpt><trkpt lat="44.816685" lon="7.946115"><ele>299.0</ele><time>2026-04-18T13:10:46.918Z</time></trkpt><trkpt lat="44.81661" lon="7.9460567"><ele>299.0</ele><time>2026-04-18T13:10:47.919Z</time></trkpt><trkpt lat="44.8165283" lon="7.9460217"><ele>299.0</ele><time>2026-04-18T13:10:48.918Z</time></trkpt><trkpt lat="44.8164417" lon="7.9460183"><ele>299.0</ele><time>2026-04-18T13:10:49.919Z</time></trkpt><trkpt lat="44.8163633" lon="7.946025"><ele>299.0</ele><time>2026-04-18T13:10:50.918Z</time></trkpt><trkpt lat="44.816295" lon="7.9460417"><ele>299.0</ele><time>2026-04-18T13:10:51.919Z</time></trkpt><trkpt lat="44.8162317" lon="7.9460667"><ele>299.0</ele><time>2026-04-18T13:10:52.919Z</time></trkpt><trkpt lat="44.8161233" lon="7.94608"><ele>299.0</ele><time>2026-04-18T13:10:54.919Z</time></trkpt><trkpt lat="44.816035" lon="7.94604"><ele>299.0</ele><time>2026-04-18T13:10:56.919Z</time></trkpt><trkpt lat="44.8159517" lon="7.9459983"><ele>299.0</ele><time>2026-04-18T13:10:58.919Z</time></trkpt><trkpt lat="44.8160167" lon="7.946025"><ele>299.0</ele><time>2026-04-18T13:13:05.918Z</time></trkpt><trkpt lat="44.8160867" lon="7.945955"><ele>299.0</ele><time>2026-04-18T13:13:07.918Z</time></trkpt><trkpt lat="44.8161167" lon="7.9458167"><ele>299.0</ele><time>2026-04-18T13:13:09.918Z</time></trkpt><trkpt lat="44.8161617" lon="7.94569"><ele>299.4</ele><time>2026-04-18T13:13:11.917Z</time></trkpt><trkpt lat="44.81621" lon="7.945545"><ele>299.79999999999995</ele><time>2026-04-18T13:13:13.918Z</time></trkpt><trkpt lat="44.8162467" lon="7.9453767"><ele>300.20000000000005</ele><time>2026-04-18T13:13:15.918Z</time></trkpt><trkpt lat="44.8162633" lon="7.9452883"><ele>300.6</ele><time>2026-04-18T13:13:16.918Z</time></trkpt><trkpt lat="44.816295" lon="7.94515"><ele>301.0</ele><time>2026-04-18T13:13:18.918Z</time></trkpt><trkpt lat="44.8163367" lon="7.94502"><ele>301.3333333333333</ele><time>2026-04-18T13:13:20.917Z</time></trkpt><trkpt lat="44.8163667" lon="7.9449383"><ele>301.66666666666663</ele><time>2026-04-18T13:13:21.918Z</time></trkpt><trkpt lat="44.8164" lon="7.94484"><ele>302.0</ele><time>2026-04-18T13:13:22.918Z</time></trkpt><trkpt lat="44.8164367" lon="7.9447267"><ele>302.3333333333333</ele><time>2026-04-18T13:13:23.918Z</time></trkpt><trkpt lat="44.8164683" lon="7.9446217"><ele>302.6666666666667</ele><time>2026-04-18T13:13:24.917Z</time></trkpt><trkpt lat="44.816495" lon="7.9445083"><ele>303.0</ele><time>2026-04-18T13:13:25.918Z</time></trkpt><trkpt lat="44.8165317" lon="7.9443817"><ele>303.0</ele><time>2026-04-18T13:13:26.918Z</time></trkpt><trkpt lat="44.81657" lon="7.9442467"><ele>303.0</ele><time>2026-04-18T13:13:27.918Z</time></trkpt><trkpt lat="44.8166067" lon="7.9441033"><ele>303.0</ele><time>2026-04-18T13:13:28.917Z</time></trkpt><trkpt lat="44.816645" lon="7.943965"><ele>303.0</ele><time>2026-04-18T13:13:29.918Z</time></trkpt><trkpt lat="44.816685" lon="7.9438333"><ele>303.0</ele><time>2026-04-18T13:13:30.918Z</time></trkpt><trkpt lat="44.816715" lon="7.9436983"><ele>303.4</ele><time>2026-04-18T13:13:31.918Z</time></trkpt><trkpt lat="44.8167567" lon="7.943565"><ele>303.8</ele><time>2026-04-18T13:13:32.918Z</time></trkpt><trkpt lat="44.8168083" lon="7.9434483"><ele>304.2</ele><time>2026-04-18T13:13:33.918Z</time></trkpt><trkpt lat="44.81687" lon="7.9433567"><ele>304.6</ele><time>2026-04-18T13:13:34.917Z</time></trkpt><trkpt lat="44.816935" lon="7.94328"><ele>305.0</ele><time>2026-04-18T13:13:35.918Z</time></trkpt><trkpt lat="44.81701" lon="7.9432217"><ele>305.4</ele><time>2026-04-18T13:13:36.917Z</time></trkpt><trkpt lat="44.8171017" lon="7.9431967"><ele>305.8</ele><time>2026-04-18T13:13:37.917Z</time></trkpt><trkpt lat="44.817215" lon="7.9431833"><ele>306.2</ele><time>2026-04-18T13:13:38.918Z</time></trkpt><trkpt lat="44.81733" lon="7.943175"><ele>306.6</ele><time>2026-04-18T13:13:39.918Z</time></trkpt><trkpt lat="44.81743" lon="7.9431567"><ele>307.0</ele><time>2026-04-18T13:13:40.917Z</time></trkpt><trkpt lat="44.8175135" lon="7.94312"><ele>307.0</ele><time>2026-04-18T13:13:41.917Z</time></trkpt><trkpt lat="44.8175886" lon="7.9430601"><ele>307.0</ele><time>2026-04-18T13:13:42.918Z</time></trkpt><trkpt lat="44.8176583" lon="7.9429661"><ele>307.0</ele><time>2026-04-18T13:13:43.918Z</time></trkpt><trkpt lat="44.8177156" lon="7.9428386"><ele>307.0</ele><time>2026-04-18T13:13:44.918Z</time></trkpt><trkpt lat="44.8177626" lon="7.9426737"><ele>307.0</ele><time>2026-04-18T13:13:45.918Z</time></trkpt><trkpt lat="44.8178108" lon="7.9424923"><ele>307.25</ele><time>2026-04-18T13:13:46.917Z</time></trkpt><trkpt lat="44.8178732" lon="7.9423188"><ele>307.5</ele><time>2026-04-18T13:13:47.917Z</time></trkpt><trkpt lat="44.8179341" lon="7.942153"><ele>307.75</ele><time>2026-04-18T13:13:48.917Z</time></trkpt><trkpt lat="44.8179924" lon="7.9420115"><ele>308.0</ele><time>2026-04-18T13:13:49.918Z</time></trkpt><trkpt lat="44.818042" lon="7.941881"><ele>308.0</ele><time>2026-04-18T13:13:50.918Z</time></trkpt><trkpt lat="44.8181069" lon="7.941759"><ele>308.0</ele><time>2026-04-18T13:13:51.918Z</time></trkpt><trkpt lat="44.8181993" lon="7.9416346"><ele>308.0</ele><time>2026-04-18T13:13:52.918Z</time></trkpt><trkpt lat="44.8183059" lon="7.9415067"><ele>308.0</ele><time>2026-04-18T13:13:53.918Z</time></trkpt><trkpt lat="44.8184067" lon="7.9413679"><ele>308.0</ele><time>2026-04-18T13:13:54.918Z</time></trkpt><trkpt lat="44.818496" lon="7.9412001"><ele>308.0</ele><time>2026-04-18T13:13:55.917Z</time></trkpt><trkpt lat="44.8185712" lon="7.9410243"><ele>308.0</ele><time>2026-04-18T13:13:56.917Z</time></trkpt><trkpt lat="44.8186314" lon="7.9408614"><ele>308.0</ele><time>2026-04-18T13:13:57.918Z</time></trkpt><trkpt lat="44.8186787" lon="7.9407105"><ele>307.2</ele><time>2026-04-18T13:13:58.918Z</time></trkpt><trkpt lat="44.818699" lon="7.9405714"><ele>306.4</ele><time>2026-04-18T13:13:59.918Z</time></trkpt><trkpt lat="44.8187059" lon="7.9404349"><ele>305.59999999999997</ele><time>2026-04-18T13:14:00.918Z</time></trkpt><trkpt lat="44.8186932" lon="7.9403124"><ele>304.8</ele><time>2026-04-18T13:14:01.918Z</time></trkpt><trkpt lat="44.8186556" lon="7.9401953"><ele>304.0</ele><time>2026-04-18T13:14:02.917Z</time></trkpt><trkpt lat="44.8185961" lon="7.9400676"><ele>303.66666666666663</ele><time>2026-04-18T13:14:03.918Z</time></trkpt><trkpt lat="44.8185313" lon="7.9399398"><ele>303.3333333333333</ele><time>2026-04-18T13:14:04.918Z</time></trkpt><trkpt lat="44.818478" lon="7.9398263"><ele>303.0</ele><time>2026-04-18T13:14:05.918Z</time></trkpt><trkpt lat="44.8184399" lon="7.9397275"><ele>302.6666666666667</ele><time>2026-04-18T13:14:06.917Z</time></trkpt><trkpt lat="44.8184229" lon="7.9396268"><ele>302.33333333333337</ele><time>2026-04-18T13:14:07.917Z</time></trkpt><trkpt lat="44.818423" lon="7.9395264"><ele>302.0</ele><time>2026-04-18T13:14:08.918Z</time></trkpt><trkpt lat="44.8184486" lon="7.9394234"><ele>301.83333333333337</ele><time>2026-04-18T13:14:09.918Z</time></trkpt><trkpt lat="44.8184935" lon="7.9393211"><ele>301.6666666666667</ele><time>2026-04-18T13:14:10.918Z</time></trkpt><trkpt lat="44.8185472" lon="7.9392255"><ele>301.5</ele><time>2026-04-18T13:14:11.918Z</time></trkpt><trkpt lat="44.8186003" lon="7.9391351"><ele>301.3333333333333</ele><time>2026-04-18T13:14:12.918Z</time></trkpt><trkpt lat="44.8186525" lon="7.9390388"><ele>301.16666666666663</ele><time>2026-04-18T13:14:13.918Z</time></trkpt><trkpt lat="44.8187113" lon="7.9389207"><ele>301.0</ele><time>2026-04-18T13:14:14.917Z</time></trkpt><trkpt lat="44.8187854" lon="7.9387796"><ele>300.40000000000003</ele><time>2026-04-18T13:14:15.918Z</time></trkpt><trkpt lat="44.8188649" lon="7.9386342"><ele>299.8</ele><time>2026-04-18T13:14:16.918Z</time></trkpt><trkpt lat="44.8189357" lon="7.9385106"><ele>299.20000000000005</ele><time>2026-04-18T13:14:17.918Z</time></trkpt><trkpt lat="44.8189927" lon="7.9384084"><ele>298.6</ele><time>2026-04-18T13:14:18.918Z</time></trkpt><trkpt lat="44.8190277" lon="7.9383219"><ele>298.0</ele><time>2026-04-18T13:14:19.918Z</time></trkpt><trkpt lat="44.8190012" lon="7.9381351"><ele>297.6</ele><time>2026-04-18T13:14:21.918Z</time></trkpt><trkpt lat="44.8189443" lon="7.9380241"><ele>297.20000000000005</ele><time>2026-04-18T13:14:22.918Z</time></trkpt><trkpt lat="44.81889" lon="7.9378936"><ele>296.8</ele><time>2026-04-18T13:14:23.917Z</time></trkpt><trkpt lat="44.8188534" lon="7.9377454"><ele>296.40000000000003</ele><time>2026-04-18T13:14:24.918Z</time></trkpt><trkpt lat="44.8188168" lon="7.9375814"><ele>296.0</ele><time>2026-04-18T13:14:25.918Z</time></trkpt><trkpt lat="44.8187682" lon="7.9374026"><ele>296.0</ele><time>2026-04-18T13:14:26.918Z</time></trkpt><trkpt lat="44.8187131" lon="7.9372032"><ele>296.0</ele><time>2026-04-18T13:14:27.918Z</time></trkpt><trkpt lat="44.8186582" lon="7.9370073"><ele>296.0</ele><time>2026-04-18T13:14:28.918Z</time></trkpt><trkpt lat="44.8186133" lon="7.9368367"><ele>296.0</ele><time>2026-04-18T13:14:29.918Z</time></trkpt><trkpt lat="44.8185817" lon="7.9366983"><ele>296.1666666666667</ele><time>2026-04-18T13:14:30.918Z</time></trkpt><trkpt lat="44.81855" lon="7.9365867"><ele>296.33333333333337</ele><time>2026-04-18T13:14:31.918Z</time></trkpt><trkpt lat="44.8185333" lon="7.9364867"><ele>296.5</ele><time>2026-04-18T13:14:32.918Z</time></trkpt><trkpt lat="44.8185517" lon="7.9363183"><ele>296.6666666666667</ele><time>2026-04-18T13:14:34.918Z</time></trkpt><trkpt lat="44.81859" lon="7.9361917"><ele>296.8333333333333</ele><time>2026-04-18T13:14:36.918Z</time></trkpt><trkpt lat="44.81854" lon="7.9362467"><ele>297.0</ele><time>2026-04-18T13:14:52.918Z</time></trkpt><trkpt lat="44.8184983" lon="7.9363767"><ele>297.5</ele><time>2026-04-18T13:14:54.918Z</time></trkpt><trkpt lat="44.8184633" lon="7.9364917"><ele>298.0</ele><time>2026-04-18T13:14:56.917Z</time></trkpt><trkpt lat="44.8184" lon="7.936555"><ele>298.5</ele><time>2026-04-18T13:14:59.918Z</time></trkpt><trkpt lat="44.8183317" lon="7.9365083"><ele>299.0</ele><time>2026-04-18T13:15:04.918Z</time></trkpt><trkpt lat="44.8182483" lon="7.9364267"><ele>299.5</ele><time>2026-04-18T13:15:06.918Z</time></trkpt><trkpt lat="44.818155" lon="7.9363633"><ele>300.0</ele><time>2026-04-18T13:15:08.917Z</time></trkpt><trkpt lat="44.81809" lon="7.9363333"><ele>300.0</ele><time>2026-04-18T13:15:09.918Z</time></trkpt><trkpt lat="44.8180117" lon="7.9362917"><ele>300.0</ele><time>2026-04-18T13:15:10.917Z</time></trkpt><trkpt lat="44.8179333" lon="7.9362367"><ele>300.0</ele><time>2026-04-18T13:15:11.918Z</time></trkpt><trkpt lat="44.8178617" lon="7.9361833"><ele>300.0</ele><time>2026-04-18T13:15:12.917Z</time></trkpt><trkpt lat="44.8177967" lon="7.936135"><ele>300.0</ele><time>2026-04-18T13:15:13.917Z</time></trkpt><trkpt lat="44.8177233" lon="7.9360967"><ele>300.0</ele><time>2026-04-18T13:15:14.918Z</time></trkpt><trkpt lat="44.8176483" lon="7.9360767"><ele>300.3333333333333</ele><time>2026-04-18T13:15:15.918Z</time></trkpt><trkpt lat="44.8175667" lon="7.93607"><ele>300.6666666666667</ele><time>2026-04-18T13:15:16.917Z</time></trkpt><trkpt lat="44.8174783" lon="7.9360817"><ele>301.0</ele><time>2026-04-18T13:15:17.917Z</time></trkpt><trkpt lat="44.8173917" lon="7.9360983"><ele>301.33333333333337</ele><time>2026-04-18T13:15:18.918Z</time></trkpt><trkpt lat="44.8173117" lon="7.93611"><ele>301.6666666666667</ele><time>2026-04-18T13:15:19.917Z</time></trkpt><trkpt lat="44.8172333" lon="7.936105"><ele>302.0</ele><time>2026-04-18T13:15:20.918Z</time></trkpt><trkpt lat="44.8171533" lon="7.9361083"><ele>302.0</ele><time>2026-04-18T13:15:21.918Z</time></trkpt><trkpt lat="44.8170717" lon="7.9361183"><ele>302.0</ele><time>2026-04-18T13:15:22.918Z</time></trkpt><trkpt lat="44.8169967" lon="7.9361383"><ele>302.0</ele><time>2026-04-18T13:15:23.917Z</time></trkpt><trkpt lat="44.8169233" lon="7.9361467"><ele>302.0</ele><time>2026-04-18T13:15:24.918Z</time></trkpt><trkpt lat="44.8168583" lon="7.9361417"><ele>302.0</ele><time>2026-04-18T13:15:25.917Z</time></trkpt><trkpt lat="44.8167783" lon="7.936115"><ele>302.0</ele><time>2026-04-18T13:15:26.917Z</time></trkpt><trkpt lat="44.8167033" lon="7.9360833"><ele>303.0</ele><time>2026-04-18T13:15:27.918Z</time></trkpt><trkpt lat="44.816615" lon="7.9360683"><ele>304.0</ele><time>2026-04-18T13:15:28.917Z</time></trkpt><trkpt lat="44.8165183" lon="7.9360633"><ele>305.0</ele><time>2026-04-18T13:15:29.917Z</time></trkpt><trkpt lat="44.8164333" lon="7.9360633"><ele>306.0</ele><time>2026-04-18T13:15:30.918Z</time></trkpt><trkpt lat="44.8163517" lon="7.9360567"><ele>307.0</ele><time>2026-04-18T13:15:31.917Z</time></trkpt><trkpt lat="44.8162833" lon="7.936045"><ele>308.0</ele><time>2026-04-18T13:15:32.918Z</time></trkpt><trkpt lat="44.8161983" lon="7.9360283"><ele>308.0</ele><time>2026-04-18T13:15:34.917Z</time></trkpt><trkpt lat="44.81612" lon="7.9359633"><ele>308.0</ele><time>2026-04-18T13:15:38.918Z</time></trkpt><trkpt lat="44.8160483" lon="7.9358633"><ele>308.0</ele><time>2026-04-18T13:15:40.918Z</time></trkpt><trkpt lat="44.8160033" lon="7.9357933"><ele>308.0</ele><time>2026-04-18T13:15:41.917Z</time></trkpt><trkpt lat="44.815955" lon="7.935705"><ele>308.0</ele><time>2026-04-18T13:15:42.918Z</time></trkpt><trkpt lat="44.8159" lon="7.9355883"><ele>308.0</ele><time>2026-04-18T13:15:43.918Z</time></trkpt><trkpt lat="44.815855" lon="7.9354783"><ele>307.33333333333337</ele><time>2026-04-18T13:15:44.917Z</time></trkpt><trkpt lat="44.8158283" lon="7.93537"><ele>306.6666666666667</ele><time>2026-04-18T13:15:45.918Z</time></trkpt><trkpt lat="44.8158033" lon="7.9352767"><ele>306.0</ele><time>2026-04-18T13:15:46.918Z</time></trkpt><trkpt lat="44.8157633" lon="7.9351983"><ele>305.3333333333333</ele><time>2026-04-18T13:15:47.917Z</time></trkpt><trkpt lat="44.8156533" lon="7.93513"><ele>304.66666666666663</ele><time>2026-04-18T13:15:49.917Z</time></trkpt><trkpt lat="44.81558" lon="7.9350983"><ele>304.0</ele><time>2026-04-18T13:15:50.918Z</time></trkpt><trkpt lat="44.815505" lon="7.9350633"><ele>304.59999999999997</ele><time>2026-04-18T13:15:51.918Z</time></trkpt><trkpt lat="44.8154317" lon="7.9350167"><ele>305.2</ele><time>2026-04-18T13:15:52.918Z</time></trkpt><trkpt lat="44.8153517" lon="7.9349583"><ele>305.79999999999995</ele><time>2026-04-18T13:15:53.917Z</time></trkpt><trkpt lat="44.8152617" lon="7.9348783"><ele>306.4</ele><time>2026-04-18T13:15:54.918Z</time></trkpt><trkpt lat="44.815165" lon="7.9348033"><ele>307.0</ele><time>2026-04-18T13:15:55.918Z</time></trkpt><trkpt lat="44.8150733" lon="7.93474"><ele>307.0</ele><time>2026-04-18T13:15:56.917Z</time></trkpt><trkpt lat="44.81499" lon="7.9346883"><ele>307.0</ele><time>2026-04-18T13:15:57.918Z</time></trkpt><trkpt lat="44.8149183" lon="7.93464"><ele>307.0</ele><time>2026-04-18T13:15:58.917Z</time></trkpt><trkpt lat="44.8148517" lon="7.9346033"><ele>307.0</ele><time>2026-04-18T13:15:59.918Z</time></trkpt><trkpt lat="44.8147833" lon="7.9345567"><ele>307.0</ele><time>2026-04-18T13:16:00.918Z</time></trkpt><trkpt lat="44.8147217" lon="7.9345183"><ele>307.0</ele><time>2026-04-18T13:16:01.918Z</time></trkpt><trkpt lat="44.81468" lon="7.9344467"><ele>307.0</ele><time>2026-04-18T13:16:02.918Z</time></trkpt><trkpt lat="44.814575" lon="7.9343917"><ele>307.0</ele><time>2026-04-18T13:16:04.918Z</time></trkpt><trkpt lat="44.8144967" lon="7.9343867"><ele>307.0</ele><time>2026-04-18T13:16:05.918Z</time></trkpt><trkpt lat="44.8144117" lon="7.9343683"><ele>307.0</ele><time>2026-04-18T13:16:06.917Z</time></trkpt><trkpt lat="44.814315" lon="7.9343417"><ele>307.0</ele><time>2026-04-18T13:16:07.918Z</time></trkpt><trkpt lat="44.8142033" lon="7.9343167"><ele>307.66666666666663</ele><time>2026-04-18T13:16:08.918Z</time></trkpt><trkpt lat="44.8140917" lon="7.9342983"><ele>308.3333333333333</ele><time>2026-04-18T13:16:09.917Z</time></trkpt><trkpt lat="44.8139917" lon="7.93428"><ele>309.0</ele><time>2026-04-18T13:16:10.918Z</time></trkpt><trkpt lat="44.813905" lon="7.9342567"><ele>309.6666666666667</ele><time>2026-04-18T13:16:11.918Z</time></trkpt><trkpt lat="44.813835" lon="7.9342333"><ele>310.33333333333337</ele><time>2026-04-18T13:16:12.918Z</time></trkpt><trkpt lat="44.813775" lon="7.9341917"><ele>311.0</ele><time>2026-04-18T13:16:13.918Z</time></trkpt><trkpt lat="44.8137" lon="7.934055"><ele>311.0</ele><time>2026-04-18T13:16:15.918Z</time></trkpt><trkpt lat="44.8136833" lon="7.93395"><ele>311.0</ele><time>2026-04-18T13:16:16.917Z</time></trkpt><trkpt lat="44.813675" lon="7.9338217"><ele>311.0</ele><time>2026-04-18T13:16:17.918Z</time></trkpt><trkpt lat="44.81367" lon="7.93366"><ele>311.0</ele><time>2026-04-18T13:16:18.918Z</time></trkpt><trkpt lat="44.8136617" lon="7.9334817"><ele>311.0</ele><time>2026-04-18T13:16:19.918Z</time></trkpt><trkpt lat="44.81365" lon="7.9332967"><ele>311.8</ele><time>2026-04-18T13:16:20.918Z</time></trkpt><trkpt lat="44.813635" lon="7.9331267"><ele>312.6</ele><time>2026-04-18T13:16:21.917Z</time></trkpt><trkpt lat="44.8136233" lon="7.9329733"><ele>313.4</ele><time>2026-04-18T13:16:22.918Z</time></trkpt><trkpt lat="44.8136133" lon="7.9328417"><ele>314.2</ele><time>2026-04-18T13:16:23.918Z</time></trkpt><trkpt lat="44.8136" lon="7.9327283"><ele>315.0</ele><time>2026-04-18T13:16:24.918Z</time></trkpt><trkpt lat="44.8135783" lon="7.932635"><ele>315.0</ele><time>2026-04-18T13:16:25.918Z</time></trkpt><trkpt lat="44.8135067" lon="7.932515"><ele>315.0</ele><time>2026-04-18T13:16:27.917Z</time></trkpt><trkpt lat="44.8134417" lon="7.93251"><ele>315.0</ele><time>2026-04-18T13:16:29.918Z</time></trkpt><trkpt lat="44.8133733" lon="7.9325917"><ele>315.0</ele><time>2026-04-18T13:16:31.917Z</time></trkpt><trkpt lat="44.81331" lon="7.9326367"><ele>315.0</ele><time>2026-04-18T13:16:32.918Z</time></trkpt><trkpt lat="44.8132167" lon="7.9326833"><ele>315.0</ele><time>2026-04-18T13:16:33.918Z</time></trkpt><trkpt lat="44.8131133" lon="7.9327267"><ele>314.75</ele><time>2026-04-18T13:16:34.918Z</time></trkpt><trkpt lat="44.813" lon="7.9327817"><ele>314.5</ele><time>2026-04-18T13:16:35.917Z</time></trkpt><trkpt lat="44.8128783" lon="7.93285"><ele>314.25</ele><time>2026-04-18T13:16:36.918Z</time></trkpt><trkpt lat="44.8127417" lon="7.9329133"><ele>314.0</ele><time>2026-04-18T13:16:37.918Z</time></trkpt><trkpt lat="44.8126233" lon="7.9329633"><ele>314.33333333333337</ele><time>2026-04-18T13:16:38.918Z</time></trkpt><trkpt lat="44.8125233" lon="7.932995"><ele>314.6666666666667</ele><time>2026-04-18T13:16:39.917Z</time></trkpt><trkpt lat="44.8124367" lon="7.9330117"><ele>315.0</ele><time>2026-04-18T13:16:40.918Z</time></trkpt><trkpt lat="44.812365" lon="7.9330183"><ele>315.3333333333333</ele><time>2026-04-18T13:16:41.918Z</time></trkpt><trkpt lat="44.8122933" lon="7.9329967"><ele>315.66666666666663</ele><time>2026-04-18T13:16:42.917Z</time></trkpt><trkpt lat="44.81221" lon="7.9329533"><ele>316.0</ele><time>2026-04-18T13:16:43.918Z</time></trkpt><trkpt lat="44.8121167" lon="7.9329"><ele>316.0</ele><time>2026-04-18T13:16:44.918Z</time></trkpt><trkpt lat="44.8120133" lon="7.9328517"><ele>316.0</ele><time>2026-04-18T13:16:45.918Z</time></trkpt><trkpt lat="44.8119217" lon="7.9328017"><ele>316.0</ele><time>2026-04-18T13:16:46.918Z</time></trkpt><trkpt lat="44.8118483" lon="7.9327517"><ele>316.0</ele><time>2026-04-18T13:16:47.918Z</time></trkpt><trkpt lat="44.81178" lon="7.932695"><ele>316.0</ele><time>2026-04-18T13:16:48.918Z</time></trkpt><trkpt lat="44.8117267" lon="7.9326267"><ele>316.0</ele><time>2026-04-18T13:16:49.917Z</time></trkpt><trkpt lat="44.8116933" lon="7.93255"><ele>316.6</ele><time>2026-04-18T13:16:50.918Z</time></trkpt><trkpt lat="44.8116017" lon="7.9324467"><ele>317.20000000000005</ele><time>2026-04-18T13:16:52.918Z</time></trkpt><trkpt lat="44.8115217" lon="7.9324233"><ele>317.79999999999995</ele><time>2026-04-18T13:16:53.918Z</time></trkpt><trkpt lat="44.8114283" lon="7.9324067"><ele>318.4</ele><time>2026-04-18T13:16:54.918Z</time></trkpt><trkpt lat="44.8113317" lon="7.932385"><ele>319.0</ele><time>2026-04-18T13:16:55.918Z</time></trkpt><trkpt lat="44.8112367" lon="7.932355"><ele>319.0</ele><time>2026-04-18T13:16:56.918Z</time></trkpt><trkpt lat="44.8111467" lon="7.9323283"><ele>319.0</ele><time>2026-04-18T13:16:57.918Z</time></trkpt><trkpt lat="44.8110667" lon="7.9322933"><ele>319.0</ele><time>2026-04-18T13:16:58.918Z</time></trkpt><trkpt lat="44.8109933" lon="7.932265"><ele>319.0</ele><time>2026-04-18T13:16:59.917Z</time></trkpt><trkpt lat="44.81092" lon="7.93225"><ele>319.0</ele><time>2026-04-18T13:17:00.918Z</time></trkpt><trkpt lat="44.8108567" lon="7.9322567"><ele>319.0</ele><time>2026-04-18T13:17:01.918Z</time></trkpt><trkpt lat="44.8107967" lon="7.9323"><ele>318.8</ele><time>2026-04-18T13:17:02.918Z</time></trkpt><trkpt lat="44.8107383" lon="7.9323883"><ele>318.59999999999997</ele><time>2026-04-18T13:17:03.917Z</time></trkpt><trkpt lat="44.81068" lon="7.9324917"><ele>318.4</ele><time>2026-04-18T13:17:04.918Z</time></trkpt><trkpt lat="44.81062" lon="7.9325633"><ele>318.2</ele><time>2026-04-18T13:17:05.918Z</time></trkpt><trkpt lat="44.8105433" lon="7.93261"><ele>318.0</ele><time>2026-04-18T13:17:06.917Z</time></trkpt><trkpt lat="44.81044" lon="7.932655"><ele>317.75</ele><time>2026-04-18T13:17:07.918Z</time></trkpt><trkpt lat="44.8103183" lon="7.9326917"><ele>317.5</ele><time>2026-04-18T13:17:08.918Z</time></trkpt><trkpt lat="44.8102017" lon="7.9327217"><ele>317.25</ele><time>2026-04-18T13:17:09.917Z</time></trkpt><trkpt lat="44.810095" lon="7.9327517"><ele>317.0</ele><time>2026-04-18T13:17:10.918Z</time></trkpt><trkpt lat="44.80999" lon="7.9327867"><ele>317.0</ele><time>2026-04-18T13:17:11.917Z</time></trkpt><trkpt lat="44.8098733" lon="7.9328283"><ele>317.0</ele><time>2026-04-18T13:17:12.918Z</time></trkpt><trkpt lat="44.809745" lon="7.9328783"><ele>317.0</ele><time>2026-04-18T13:17:13.917Z</time></trkpt><trkpt lat="44.8096167" lon="7.9329367"><ele>317.0</ele><time>2026-04-18T13:17:14.918Z</time></trkpt><trkpt lat="44.809495" lon="7.9329917"><ele>317.0</ele><time>2026-04-18T13:17:15.918Z</time></trkpt><trkpt lat="44.8093883" lon="7.933025"><ele>317.0</ele><time>2026-04-18T13:17:16.917Z</time></trkpt><trkpt lat="44.809285" lon="7.9330467"><ele>317.0</ele><time>2026-04-18T13:17:17.917Z</time></trkpt><trkpt lat="44.8091783" lon="7.93307"><ele>317.0</ele><time>2026-04-18T13:17:18.918Z</time></trkpt><trkpt lat="44.8090733" lon="7.9330983"><ele>317.0</ele><time>2026-04-18T13:17:19.917Z</time></trkpt><trkpt lat="44.8089817" lon="7.9331283"><ele>318.0</ele><time>2026-04-18T13:17:20.918Z</time></trkpt><trkpt lat="44.8088983" lon="7.933175"><ele>319.0</ele><time>2026-04-18T13:17:21.918Z</time></trkpt><trkpt lat="44.8088217" lon="7.9332333"><ele>320.0</ele><time>2026-04-18T13:17:22.918Z</time></trkpt><trkpt lat="44.808745" lon="7.93331"><ele>321.0</ele><time>2026-04-18T13:17:23.918Z</time></trkpt><trkpt lat="44.8086733" lon="7.93342"><ele>322.0</ele><time>2026-04-18T13:17:24.918Z</time></trkpt><trkpt lat="44.808615" lon="7.9335383"><ele>322.8</ele><time>2026-04-18T13:17:25.918Z</time></trkpt><trkpt lat="44.8085617" lon="7.933635"><ele>323.6</ele><time>2026-04-18T13:17:26.918Z</time></trkpt><trkpt lat="44.8085033" lon="7.9337267"><ele>324.40000000000003</ele><time>2026-04-18T13:17:27.918Z</time></trkpt><trkpt lat="44.8084183" lon="7.9338133"><ele>325.20000000000005</ele><time>2026-04-18T13:17:28.918Z</time></trkpt><trkpt lat="44.8083417" lon="7.9338767"><ele>326.0</ele><time>2026-04-18T13:17:29.918Z</time></trkpt><trkpt lat="44.808265" lon="7.933935"><ele>326.20000000000005</ele><time>2026-04-18T13:17:30.918Z</time></trkpt><trkpt lat="44.8081967" lon="7.9339967"><ele>326.40000000000003</ele><time>2026-04-18T13:17:31.918Z</time></trkpt><trkpt lat="44.8081317" lon="7.934085"><ele>326.6</ele><time>2026-04-18T13:17:32.918Z</time></trkpt><trkpt lat="44.80806" lon="7.9341883"><ele>326.8</ele><time>2026-04-18T13:17:33.918Z</time></trkpt><trkpt lat="44.8079867" lon="7.934285"><ele>327.0</ele><time>2026-04-18T13:17:34.918Z</time></trkpt><trkpt lat="44.8079233" lon="7.9343617"><ele>327.1666666666667</ele><time>2026-04-18T13:17:35.918Z</time></trkpt><trkpt lat="44.8078667" lon="7.93444"><ele>327.3333333333333</ele><time>2026-04-18T13:17:36.918Z</time></trkpt><trkpt lat="44.8078067" lon="7.9345117"><ele>327.5</ele><time>2026-04-18T13:17:37.917Z</time></trkpt><trkpt lat="44.8077383" lon="7.93459"><ele>327.66666666666663</ele><time>2026-04-18T13:17:38.918Z</time></trkpt><trkpt lat="44.8076717" lon="7.93468"><ele>327.8333333333333</ele><time>2026-04-18T13:17:39.918Z</time></trkpt><trkpt lat="44.8075983" lon="7.93476"><ele>328.0</ele><time>2026-04-18T13:17:40.918Z</time></trkpt><trkpt lat="44.8075233" lon="7.9348383"><ele>328.16666666666663</ele><time>2026-04-18T13:17:41.918Z</time></trkpt><trkpt lat="44.80745" lon="7.9349117"><ele>328.3333333333333</ele><time>2026-04-18T13:17:42.918Z</time></trkpt><trkpt lat="44.8073783" lon="7.9349867"><ele>328.5</ele><time>2026-04-18T13:17:43.917Z</time></trkpt><trkpt lat="44.80731" lon="7.93505"><ele>328.6666666666667</ele><time>2026-04-18T13:17:44.918Z</time></trkpt><trkpt lat="44.8072417" lon="7.9351217"><ele>328.83333333333337</ele><time>2026-04-18T13:17:45.917Z</time></trkpt><trkpt lat="44.80717" lon="7.9351917"><ele>329.0</ele><time>2026-04-18T13:17:46.918Z</time></trkpt><trkpt lat="44.8070967" lon="7.935265"><ele>329.0</ele><time>2026-04-18T13:17:47.917Z</time></trkpt><trkpt lat="44.80703" lon="7.9353283"><ele>329.0</ele><time>2026-04-18T13:17:48.917Z</time></trkpt><trkpt lat="44.80697" lon="7.9353883"><ele>329.0</ele><time>2026-04-18T13:17:49.918Z</time></trkpt><trkpt lat="44.80688" lon="7.9354733"><ele>329.0</ele><time>2026-04-18T13:17:51.918Z</time></trkpt><trkpt lat="44.8068167" lon="7.9354717"><ele>329.0</ele><time>2026-04-18T13:17:53.918Z</time></trkpt><trkpt lat="44.80676" lon="7.935355"><ele>329.0</ele><time>2026-04-18T13:17:55.917Z</time></trkpt><trkpt lat="44.8067283" lon="7.935245"><ele>329.0</ele><time>2026-04-18T13:17:56.918Z</time></trkpt><trkpt lat="44.80669" lon="7.9351117"><ele>329.0</ele><time>2026-04-18T13:17:57.918Z</time></trkpt><trkpt lat="44.8066383" lon="7.9349933"><ele>329.0</ele><time>2026-04-18T13:17:58.918Z</time></trkpt><trkpt lat="44.8065783" lon="7.9348567"><ele>329.0</ele><time>2026-04-18T13:17:59.918Z</time></trkpt><trkpt lat="44.8065067" lon="7.9347217"><ele>329.0</ele><time>2026-04-18T13:18:00.918Z</time></trkpt><trkpt lat="44.8064267" lon="7.9345867"><ele>330.0</ele><time>2026-04-18T13:18:01.917Z</time></trkpt><trkpt lat="44.8063333" lon="7.9344667"><ele>331.0</ele><time>2026-04-18T13:18:02.918Z</time></trkpt><trkpt lat="44.8062367" lon="7.9343433"><ele>332.0</ele><time>2026-04-18T13:18:03.918Z</time></trkpt><trkpt lat="44.80614" lon="7.934215"><ele>333.0</ele><time>2026-04-18T13:18:04.918Z</time></trkpt><trkpt lat="44.8060533" lon="7.93407"><ele>336.5</ele><time>2026-04-18T13:18:05.917Z</time></trkpt><trkpt lat="44.8059817" lon="7.9339133"><ele>340.0</ele><time>2026-04-18T13:18:06.917Z</time></trkpt><trkpt lat="44.8059333" lon="7.9337367"><ele>343.5</ele><time>2026-04-18T13:18:07.918Z</time></trkpt><trkpt lat="44.8059017" lon="7.9335417"><ele>347.0</ele><time>2026-04-18T13:18:08.918Z</time></trkpt><trkpt lat="44.80589" lon="7.9333417"><ele>347.0</ele><time>2026-04-18T13:18:09.917Z</time></trkpt><trkpt lat="44.8059" lon="7.9331517"><ele>347.0</ele><time>2026-04-18T13:18:10.918Z</time></trkpt><trkpt lat="44.8059167" lon="7.9329617"><ele>347.0</ele><time>2026-04-18T13:18:11.918Z</time></trkpt><trkpt lat="44.8059717" lon="7.9327667"><ele>347.0</ele><time>2026-04-18T13:18:12.918Z</time></trkpt><trkpt lat="44.8060467" lon="7.9325917"><ele>346.20000000000005</ele><time>2026-04-18T13:18:13.918Z</time></trkpt><trkpt lat="44.806125" lon="7.932435"><ele>345.4</ele><time>2026-04-18T13:18:14.918Z</time></trkpt><trkpt lat="44.80619" lon="7.9323033"><ele>344.6</ele><time>2026-04-18T13:18:15.917Z</time></trkpt><trkpt lat="44.8062433" lon="7.9321783"><ele>343.79999999999995</ele><time>2026-04-18T13:18:16.918Z</time></trkpt><trkpt lat="44.8062633" lon="7.9320683"><ele>343.0</ele><time>2026-04-18T13:18:17.918Z</time></trkpt><trkpt lat="44.8062583" lon="7.931965"><ele>343.0</ele><time>2026-04-18T13:18:18.918Z</time></trkpt><trkpt lat="44.8062317" lon="7.93186"><ele>343.0</ele><time>2026-04-18T13:18:19.918Z</time></trkpt><trkpt lat="44.8061695" lon="7.9317786"><ele>343.0</ele><time>2026-04-18T13:18:20.918Z</time></trkpt><trkpt lat="44.8060785" lon="7.9317219"><ele>343.0</ele><time>2026-04-18T13:18:21.918Z</time></trkpt><trkpt lat="44.8059788" lon="7.9316838"><ele>343.0</ele><time>2026-04-18T13:18:22.918Z</time></trkpt><trkpt lat="44.8058813" lon="7.931656"><ele>345.0</ele><time>2026-04-18T13:18:23.918Z</time></trkpt><trkpt lat="44.8057794" lon="7.9316456"><ele>347.0</ele><time>2026-04-18T13:18:24.918Z</time></trkpt><trkpt lat="44.8056813" lon="7.9316451"><ele>349.0</ele><time>2026-04-18T13:18:25.918Z</time></trkpt><trkpt lat="44.8055965" lon="7.9316396"><ele>351.0</ele><time>2026-04-18T13:18:26.918Z</time></trkpt><trkpt lat="44.8055267" lon="7.9316295"><ele>353.0</ele><time>2026-04-18T13:18:27.918Z</time></trkpt><trkpt lat="44.805416" lon="7.931599"><ele>353.0</ele><time>2026-04-18T13:18:29.918Z</time></trkpt><trkpt lat="44.8053445" lon="7.931588"><ele>353.0</ele><time>2026-04-18T13:18:31.917Z</time></trkpt><trkpt lat="44.8052927" lon="7.9316394"><ele>353.0</ele><time>2026-04-18T13:18:34.918Z</time></trkpt><trkpt lat="44.8053829" lon="7.9316319"><ele>353.0</ele><time>2026-04-18T13:18:39.918Z</time></trkpt><trkpt lat="44.8055057" lon="7.93165"><ele>353.0</ele><time>2026-04-18T13:18:41.918Z</time></trkpt><trkpt lat="44.8055942" lon="7.9316623"><ele>353.0</ele><time>2026-04-18T13:18:42.918Z</time></trkpt><trkpt lat="44.8056933" lon="7.9316704"><ele>353.0</ele><time>2026-04-18T13:18:43.918Z</time></trkpt><trkpt lat="44.8057901" lon="7.9316786"><ele>353.0</ele><time>2026-04-18T13:18:44.917Z</time></trkpt><trkpt lat="44.8058842" lon="7.9316921"><ele>353.0</ele><time>2026-04-18T13:18:45.918Z</time></trkpt><trkpt lat="44.8059749" lon="7.9317172"><ele>353.0</ele><time>2026-04-18T13:18:46.918Z</time></trkpt><trkpt lat="44.8060636" lon="7.931758"><ele>353.0</ele><time>2026-04-18T13:18:47.918Z</time></trkpt><trkpt lat="44.8061437" lon="7.9318117"><ele>351.33333333333337</ele><time>2026-04-18T13:18:48.918Z</time></trkpt><trkpt lat="44.80621" lon="7.931882"><ele>349.6666666666667</ele><time>2026-04-18T13:18:49.918Z</time></trkpt><trkpt lat="44.8062505" lon="7.9319739"><ele>348.0</ele><time>2026-04-18T13:18:50.917Z</time></trkpt><trkpt lat="44.8062637" lon="7.9320767"><ele>346.3333333333333</ele><time>2026-04-18T13:18:51.918Z</time></trkpt><trkpt lat="44.8062483" lon="7.9321834"><ele>344.66666666666663</ele><time>2026-04-18T13:18:52.918Z</time></trkpt><trkpt lat="44.8062085" lon="7.9322906"><ele>343.0</ele><time>2026-04-18T13:18:53.917Z</time></trkpt><trkpt lat="44.8061575" lon="7.9323994"><ele>343.0</ele><time>2026-04-18T13:18:54.918Z</time></trkpt><trkpt lat="44.8060968" lon="7.9324985"><ele>343.0</ele><time>2026-04-18T13:18:55.918Z</time></trkpt><trkpt lat="44.8060363" lon="7.9325987"><ele>343.0</ele><time>2026-04-18T13:18:56.918Z</time></trkpt><trkpt lat="44.8059898" lon="7.9326988"><ele>343.0</ele><time>2026-04-18T13:18:57.917Z</time></trkpt><trkpt lat="44.8059511" lon="7.932798"><ele>343.0</ele><time>2026-04-18T13:18:58.918Z</time></trkpt><trkpt lat="44.8059179" lon="7.9329133"><ele>343.0</ele><time>2026-04-18T13:18:59.918Z</time></trkpt><trkpt lat="44.8058936" lon="7.9330412"><ele>343.66666666666663</ele><time>2026-04-18T13:19:00.918Z</time></trkpt><trkpt lat="44.8058828" lon="7.9331637"><ele>344.3333333333333</ele><time>2026-04-18T13:19:01.917Z</time></trkpt><trkpt lat="44.8058823" lon="7.9332848"><ele>345.0</ele><time>2026-04-18T13:19:02.918Z</time></trkpt><trkpt lat="44.805883" lon="7.9334008"><ele>345.6666666666667</ele><time>2026-04-18T13:19:03.918Z</time></trkpt><trkpt lat="44.8058863" lon="7.9335113"><ele>346.33333333333337</ele><time>2026-04-18T13:19:04.918Z</time></trkpt><trkpt lat="44.8058899" lon="7.9336188"><ele>347.0</ele><time>2026-04-18T13:19:05.918Z</time></trkpt><trkpt lat="44.8059025" lon="7.9337272"><ele>347.0</ele><time>2026-04-18T13:19:06.918Z</time></trkpt><trkpt lat="44.8059246" lon="7.9338344"><ele>347.0</ele><time>2026-04-18T13:19:07.917Z</time></trkpt><trkpt lat="44.8059506" lon="7.9339393"><ele>347.0</ele><time>2026-04-18T13:19:08.918Z</time></trkpt><trkpt lat="44.8059863" lon="7.9340331"><ele>347.0</ele><time>2026-04-18T13:19:09.918Z</time></trkpt><trkpt lat="44.8060248" lon="7.9341202"><ele>347.0</ele><time>2026-04-18T13:19:10.918Z</time></trkpt><trkpt lat="44.8060749" lon="7.9342031"><ele>347.0</ele><time>2026-04-18T13:19:11.918Z</time></trkpt><trkpt lat="44.806125" lon="7.9342748"><ele>344.6666666666667</ele><time>2026-04-18T13:19:12.917Z</time></trkpt><trkpt lat="44.8061791" lon="7.9343398"><ele>342.33333333333337</ele><time>2026-04-18T13:19:13.917Z</time></trkpt><trkpt lat="44.8062352" lon="7.9343953"><ele>340.0</ele><time>2026-04-18T13:19:14.918Z</time></trkpt><trkpt lat="44.8063213" lon="7.9344856"><ele>337.6666666666667</ele><time>2026-04-18T13:19:16.918Z</time></trkpt><trkpt lat="44.8063769" lon="7.9345325"><ele>335.3333333333333</ele><time>2026-04-18T13:19:18.918Z</time></trkpt><trkpt lat="44.8064382" lon="7.9344304"><ele>333.0</ele><time>2026-04-18T13:19:21.918Z</time></trkpt><trkpt lat="44.8064507" lon="7.9343418"><ele>333.0</ele><time>2026-04-18T13:19:22.918Z</time></trkpt><trkpt lat="44.80647" lon="7.9342451"><ele>333.0</ele><time>2026-04-18T13:19:23.918Z</time></trkpt><trkpt lat="44.8064905" lon="7.9341481"><ele>333.0</ele><time>2026-04-18T13:19:24.918Z</time></trkpt><trkpt lat="44.8065057" lon="7.9340555"><ele>333.0</ele><time>2026-04-18T13:19:25.917Z</time></trkpt><trkpt lat="44.8065159" lon="7.9339596"><ele>333.0</ele><time>2026-04-18T13:19:26.917Z</time></trkpt><trkpt lat="44.8065211" lon="7.9338571"><ele>333.0</ele><time>2026-04-18T13:19:27.918Z</time></trkpt><trkpt lat="44.8065167" lon="7.9337533"><ele>333.0</ele><time>2026-04-18T13:19:28.918Z</time></trkpt><trkpt lat="44.8065115" lon="7.9336516"><ele>333.42857142857144</ele><time>2026-04-18T13:19:29.917Z</time></trkpt><trkpt lat="44.8065081" lon="7.9335579"><ele>333.85714285714283</ele><time>2026-04-18T13:19:30.917Z</time></trkpt><trkpt lat="44.8065112" lon="7.9334645"><ele>334.2857142857143</ele><time>2026-04-18T13:19:31.918Z</time></trkpt><trkpt lat="44.806523" lon="7.9333749"><ele>334.7142857142857</ele><time>2026-04-18T13:19:32.918Z</time></trkpt><trkpt lat="44.8065479" lon="7.9332878"><ele>335.1428571428571</ele><time>2026-04-18T13:19:33.917Z</time></trkpt><trkpt lat="44.8065789" lon="7.9332054"><ele>335.57142857142856</ele><time>2026-04-18T13:19:34.918Z</time></trkpt><trkpt lat="44.8066299" lon="7.9331231"><ele>336.0</ele><time>2026-04-18T13:19:35.917Z</time></trkpt><trkpt lat="44.8066962" lon="7.9330379"><ele>336.20000000000005</ele><time>2026-04-18T13:19:36.918Z</time></trkpt><trkpt lat="44.8067642" lon="7.9329447"><ele>336.40000000000003</ele><time>2026-04-18T13:19:37.918Z</time></trkpt><trkpt lat="44.8068258" lon="7.9328594"><ele>336.6</ele><time>2026-04-18T13:19:38.918Z</time></trkpt><trkpt lat="44.8068765" lon="7.9327874"><ele>336.8</ele><time>2026-04-18T13:19:39.918Z</time></trkpt><trkpt lat="44.8069638" lon="7.9326924"><ele>337.0</ele><time>2026-04-18T13:19:41.918Z</time></trkpt><trkpt lat="44.807034" lon="7.932583"><ele>335.0</ele><time>2026-04-18T13:19:43.918Z</time></trkpt><trkpt lat="44.8070686" lon="7.9324363"><ele>333.0</ele><time>2026-04-18T13:19:45.917Z</time></trkpt><trkpt lat="44.8070535" lon="7.9323394"><ele>331.0</ele><time>2026-04-18T13:19:46.918Z</time></trkpt><trkpt lat="44.8070317" lon="7.93223"><ele>329.0</ele><time>2026-04-18T13:19:47.918Z</time></trkpt><trkpt lat="44.8070164" lon="7.9321131"><ele>327.0</ele><time>2026-04-18T13:19:48.917Z</time></trkpt><trkpt lat="44.8070063" lon="7.9319967"><ele>325.0</ele><time>2026-04-18T13:19:49.918Z</time></trkpt><trkpt lat="44.8070012" lon="7.9318825"><ele>325.0</ele><time>2026-04-18T13:19:50.917Z</time></trkpt><trkpt lat="44.8069983" lon="7.9317745"><ele>325.0</ele><time>2026-04-18T13:19:51.918Z</time></trkpt><trkpt lat="44.8069932" lon="7.9316807"><ele>325.0</ele><time>2026-04-18T13:19:52.918Z</time></trkpt><trkpt lat="44.8069856" lon="7.9315895"><ele>325.0</ele><time>2026-04-18T13:19:53.918Z</time></trkpt><trkpt lat="44.8069901" lon="7.9314272"><ele>325.0</ele><time>2026-04-18T13:19:55.918Z</time></trkpt><trkpt lat="44.8070736" lon="7.93131"><ele>325.0</ele><time>2026-04-18T13:19:57.918Z</time></trkpt><trkpt lat="44.8071533" lon="7.931255"><ele>325.6</ele><time>2026-04-18T13:19:58.917Z</time></trkpt><trkpt lat="44.8072183" lon="7.9311717"><ele>326.2</ele><time>2026-04-18T13:19:59.917Z</time></trkpt><trkpt lat="44.8072733" lon="7.9310717"><ele>326.79999999999995</ele><time>2026-04-18T13:20:00.918Z</time></trkpt><trkpt lat="44.8073267" lon="7.93094"><ele>327.4</ele><time>2026-04-18T13:20:01.917Z</time></trkpt><trkpt lat="44.8073833" lon="7.9307917"><ele>328.0</ele><time>2026-04-18T13:20:02.917Z</time></trkpt><trkpt lat="44.8074383" lon="7.93063"><ele>328.25</ele><time>2026-04-18T13:20:03.917Z</time></trkpt><trkpt lat="44.8075067" lon="7.9304733"><ele>328.5</ele><time>2026-04-18T13:20:04.917Z</time></trkpt><trkpt lat="44.8075633" lon="7.9303367"><ele>328.75</ele><time>2026-04-18T13:20:05.918Z</time></trkpt><trkpt lat="44.8076183" lon="7.9302"><ele>329.0</ele><time>2026-04-18T13:20:06.918Z</time></trkpt><trkpt lat="44.8076517" lon="7.930065"><ele>327.6</ele><time>2026-04-18T13:20:07.918Z</time></trkpt><trkpt lat="44.8076917" lon="7.929925"><ele>326.2</ele><time>2026-04-18T13:20:08.917Z</time></trkpt><trkpt lat="44.8077217" lon="7.9297933"><ele>324.8</ele><time>2026-04-18T13:20:09.918Z</time></trkpt><trkpt lat="44.807765" lon="7.9296833"><ele>323.40000000000003</ele><time>2026-04-18T13:20:10.918Z</time></trkpt><trkpt lat="44.8078233" lon="7.9295883"><ele>322.0</ele><time>2026-04-18T13:20:11.918Z</time></trkpt><trkpt lat="44.8078867" lon="7.929505"><ele>322.0</ele><time>2026-04-18T13:20:12.918Z</time></trkpt><trkpt lat="44.8079433" lon="7.9294433"><ele>322.0</ele><time>2026-04-18T13:20:13.918Z</time></trkpt><trkpt lat="44.8080383" lon="7.9293517"><ele>322.0</ele><time>2026-04-18T13:20:15.917Z</time></trkpt><trkpt lat="44.8081483" lon="7.9292783"><ele>322.0</ele><time>2026-04-18T13:20:17.917Z</time></trkpt><trkpt lat="44.8082083" lon="7.929235"><ele>322.0</ele><time>2026-04-18T13:20:18.917Z</time></trkpt><trkpt lat="44.808275" lon="7.9292"><ele>322.0</ele><time>2026-04-18T13:20:19.918Z</time></trkpt><trkpt lat="44.8083383" lon="7.92918"><ele>322.5</ele><time>2026-04-18T13:20:20.918Z</time></trkpt><trkpt lat="44.80841" lon="7.929165"><ele>323.0</ele><time>2026-04-18T13:20:22.918Z</time></trkpt><trkpt lat="44.8084733" lon="7.9291367"><ele>323.5</ele><time>2026-04-18T13:20:24.918Z</time></trkpt><trkpt lat="44.80855" lon="7.929035"><ele>324.0</ele><time>2026-04-18T13:20:26.918Z</time></trkpt><trkpt lat="44.80859" lon="7.9289433"><ele>324.5</ele><time>2026-04-18T13:20:27.918Z</time></trkpt><trkpt lat="44.80863" lon="7.92884"><ele>325.0</ele><time>2026-04-18T13:20:28.918Z</time></trkpt><trkpt lat="44.8086683" lon="7.92875"><ele>325.2</ele><time>2026-04-18T13:20:29.918Z</time></trkpt><trkpt lat="44.8087117" lon="7.9286683"><ele>325.4</ele><time>2026-04-18T13:20:30.918Z</time></trkpt><trkpt lat="44.8087617" lon="7.9285133"><ele>325.6</ele><time>2026-04-18T13:20:32.917Z</time></trkpt><trkpt lat="44.8087533" lon="7.9283683"><ele>325.8</ele><time>2026-04-18T13:20:34.917Z</time></trkpt><trkpt lat="44.80873" lon="7.928265"><ele>326.0</ele><time>2026-04-18T13:20:44.918Z</time></trkpt><trkpt lat="44.8086617" lon="7.9281133"><ele>325.6666666666667</ele><time>2026-04-18T13:20:46.918Z</time></trkpt><trkpt lat="44.808615" lon="7.928035"><ele>325.33333333333337</ele><time>2026-04-18T13:20:47.918Z</time></trkpt><trkpt lat="44.808565" lon="7.92796"><ele>325.0</ele><time>2026-04-18T13:20:48.918Z</time></trkpt><trkpt lat="44.8085067" lon="7.9278983"><ele>324.6666666666667</ele><time>2026-04-18T13:20:49.918Z</time></trkpt><trkpt lat="44.8084467" lon="7.9278517"><ele>324.3333333333333</ele><time>2026-04-18T13:20:50.918Z</time></trkpt><trkpt lat="44.8083867" lon="7.927805"><ele>324.0</ele><time>2026-04-18T13:20:51.918Z</time></trkpt><trkpt lat="44.808295" lon="7.927745"><ele>324.0</ele><time>2026-04-18T13:20:53.918Z</time></trkpt><trkpt lat="44.8082533" lon="7.9276717"><ele>324.0</ele><time>2026-04-18T13:20:55.918Z</time></trkpt><trkpt lat="44.8083083" lon="7.9275533"><ele>324.0</ele><time>2026-04-18T13:20:58.918Z</time></trkpt><trkpt lat="44.8084117" lon="7.9275367"><ele>324.0</ele><time>2026-04-18T13:21:00.918Z</time></trkpt><trkpt lat="44.8084867" lon="7.9275517"><ele>324.0</ele><time>2026-04-18T13:21:01.918Z</time></trkpt><trkpt lat="44.808575" lon="7.92758"><ele>324.0</ele><time>2026-04-18T13:21:02.917Z</time></trkpt><trkpt lat="44.8086883" lon="7.927615"><ele>324.0</ele><time>2026-04-18T13:21:03.918Z</time></trkpt><trkpt lat="44.8088217" lon="7.9276417"><ele>324.0</ele><time>2026-04-18T13:21:04.917Z</time></trkpt><trkpt lat="44.80897" lon="7.927665"><ele>324.0</ele><time>2026-04-18T13:21:05.918Z</time></trkpt><trkpt lat="44.8091333" lon="7.927695"><ele>324.0</ele><time>2026-04-18T13:21:06.918Z</time></trkpt><trkpt lat="44.809315" lon="7.92774"><ele>322.0</ele><time>2026-04-18T13:21:07.917Z</time></trkpt><trkpt lat="44.8094967" lon="7.927795"><ele>320.0</ele><time>2026-04-18T13:21:08.917Z</time></trkpt><trkpt lat="44.8096733" lon="7.9278417"><ele>318.0</ele><time>2026-04-18T13:21:09.918Z</time></trkpt><trkpt lat="44.80985" lon="7.92789"><ele>318.0</ele><time>2026-04-18T13:21:10.918Z</time></trkpt><trkpt lat="44.810015" lon="7.9279283"><ele>318.0</ele><time>2026-04-18T13:21:11.918Z</time></trkpt><trkpt lat="44.8101367" lon="7.9279667"><ele>318.0</ele><time>2026-04-18T13:21:12.918Z</time></trkpt><trkpt lat="44.81024" lon="7.928005"><ele>318.0</ele><time>2026-04-18T13:21:13.918Z</time></trkpt><trkpt lat="44.8103317" lon="7.928025"><ele>318.1666666666667</ele><time>2026-04-18T13:21:14.918Z</time></trkpt><trkpt lat="44.81042" lon="7.9280333"><ele>318.3333333333333</ele><time>2026-04-18T13:21:15.918Z</time></trkpt><trkpt lat="44.810515" lon="7.92803"><ele>318.5</ele><time>2026-04-18T13:21:16.918Z</time></trkpt><trkpt lat="44.8106133" lon="7.9280117"><ele>318.66666666666663</ele><time>2026-04-18T13:21:17.918Z</time></trkpt><trkpt lat="44.8106917" lon="7.9280017"><ele>318.8333333333333</ele><time>2026-04-18T13:21:18.918Z</time></trkpt><trkpt lat="44.8107583" lon="7.9280033"><ele>319.0</ele><time>2026-04-18T13:21:19.918Z</time></trkpt><trkpt lat="44.8108183" lon="7.9280433"><ele>319.0</ele><time>2026-04-18T13:21:20.917Z</time></trkpt><trkpt lat="44.810875" lon="7.928135"><ele>319.0</ele><time>2026-04-18T13:21:21.917Z</time></trkpt><trkpt lat="44.8109267" lon="7.9282633"><ele>319.0</ele><time>2026-04-18T13:21:22.918Z</time></trkpt><trkpt lat="44.8109833" lon="7.9283933"><ele>319.0</ele><time>2026-04-18T13:21:23.918Z</time></trkpt><trkpt lat="44.81104" lon="7.9284967"><ele>319.0</ele><time>2026-04-18T13:21:24.918Z</time></trkpt><trkpt lat="44.8110917" lon="7.928585"><ele>318.2</ele><time>2026-04-18T13:21:25.918Z</time></trkpt><trkpt lat="44.8111517" lon="7.9286633"><ele>317.4</ele><time>2026-04-18T13:21:26.918Z</time></trkpt><trkpt lat="44.8112233" lon="7.9287183"><ele>316.6</ele><time>2026-04-18T13:21:27.917Z</time></trkpt><trkpt lat="44.811315" lon="7.928745"><ele>315.8</ele><time>2026-04-18T13:21:28.917Z</time></trkpt><trkpt lat="44.8114317" lon="7.928775"><ele>315.0</ele><time>2026-04-18T13:21:29.917Z</time></trkpt><trkpt lat="44.8115717" lon="7.9288033"><ele>315.0</ele><time>2026-04-18T13:21:30.918Z</time></trkpt><trkpt lat="44.81171" lon="7.928835"><ele>315.0</ele><time>2026-04-18T13:21:31.918Z</time></trkpt><trkpt lat="44.81184" lon="7.928845"><ele>315.0</ele><time>2026-04-18T13:21:32.918Z</time></trkpt><trkpt lat="44.811975" lon="7.928845"><ele>315.0</ele><time>2026-04-18T13:21:33.917Z</time></trkpt><trkpt lat="44.8121083" lon="7.9288417"><ele>315.0</ele><time>2026-04-18T13:21:34.918Z</time></trkpt><trkpt lat="44.8122383" lon="7.9288367"><ele>315.0</ele><time>2026-04-18T13:21:35.918Z</time></trkpt><trkpt lat="44.8123667" lon="7.9288267"><ele>315.0</ele><time>2026-04-18T13:21:36.918Z</time></trkpt><trkpt lat="44.8125067" lon="7.928805"><ele>315.0</ele><time>2026-04-18T13:21:37.918Z</time></trkpt><trkpt lat="44.8126517" lon="7.9287717"><ele>314.75</ele><time>2026-04-18T13:21:38.917Z</time></trkpt><trkpt lat="44.8127933" lon="7.9287317"><ele>314.5</ele><time>2026-04-18T13:21:39.917Z</time></trkpt><trkpt lat="44.81292" lon="7.9287067"><ele>314.25</ele><time>2026-04-18T13:21:40.918Z</time></trkpt><trkpt lat="44.8130317" lon="7.92869"><ele>314.0</ele><time>2026-04-18T13:21:41.918Z</time></trkpt><trkpt lat="44.81315" lon="7.9287167"><ele>314.0</ele><time>2026-04-18T13:21:42.918Z</time></trkpt><trkpt lat="44.81326" lon="7.9287817"><ele>314.0</ele><time>2026-04-18T13:21:43.918Z</time></trkpt><trkpt lat="44.8133717" lon="7.9288933"><ele>314.0</ele><time>2026-04-18T13:21:44.918Z</time></trkpt><trkpt lat="44.8134917" lon="7.9290283"><ele>314.0</ele><time>2026-04-18T13:21:45.917Z</time></trkpt><trkpt lat="44.8136117" lon="7.929155"><ele>313.8</ele><time>2026-04-18T13:21:46.918Z</time></trkpt><trkpt lat="44.81372" lon="7.9292717"><ele>313.59999999999997</ele><time>2026-04-18T13:21:47.918Z</time></trkpt><trkpt lat="44.8138117" lon="7.9293783"><ele>313.4</ele><time>2026-04-18T13:21:48.918Z</time></trkpt><trkpt lat="44.813885" lon="7.9294583"><ele>313.2</ele><time>2026-04-18T13:21:49.918Z</time></trkpt><trkpt lat="44.8139583" lon="7.929505"><ele>313.0</ele><time>2026-04-18T13:21:50.918Z</time></trkpt><trkpt lat="44.8140483" lon="7.9295117"><ele>313.0</ele><time>2026-04-18T13:21:51.918Z</time></trkpt><trkpt lat="44.8141533" lon="7.9294767"><ele>313.0</ele><time>2026-04-18T13:21:52.918Z</time></trkpt><trkpt lat="44.8142717" lon="7.9294417"><ele>313.0</ele><time>2026-04-18T13:21:53.918Z</time></trkpt><trkpt lat="44.81441" lon="7.9294283"><ele>313.0</ele><time>2026-04-18T13:21:54.918Z</time></trkpt><trkpt lat="44.8145567" lon="7.9294233"><ele>313.0</ele><time>2026-04-18T13:21:55.918Z</time></trkpt><trkpt lat="44.8147117" lon="7.9294167"><ele>313.0</ele><time>2026-04-18T13:21:56.917Z</time></trkpt><trkpt lat="44.81486" lon="7.929415"><ele>313.0</ele><time>2026-04-18T13:21:57.918Z</time></trkpt><trkpt lat="44.815" lon="7.9294017"><ele>313.0</ele><time>2026-04-18T13:21:58.917Z</time></trkpt><trkpt lat="44.8151417" lon="7.92937"><ele>313.25</ele><time>2026-04-18T13:21:59.918Z</time></trkpt><trkpt lat="44.8152817" lon="7.9293333"><ele>313.5</ele><time>2026-04-18T13:22:00.917Z</time></trkpt><trkpt lat="44.8154033" lon="7.9292933"><ele>313.75</ele><time>2026-04-18T13:22:01.918Z</time></trkpt><trkpt lat="44.8155083" lon="7.92923"><ele>314.0</ele><time>2026-04-18T13:22:02.918Z</time></trkpt><trkpt lat="44.8156017" lon="7.9291383"><ele>314.0</ele><time>2026-04-18T13:22:03.918Z</time></trkpt><trkpt lat="44.8156833" lon="7.92905"><ele>314.0</ele><time>2026-04-18T13:22:04.918Z</time></trkpt><trkpt lat="44.8157517" lon="7.9289967"><ele>314.0</ele><time>2026-04-18T13:22:05.918Z</time></trkpt><trkpt lat="44.81583" lon="7.9289867"><ele>314.0</ele><time>2026-04-18T13:22:06.918Z</time></trkpt><trkpt lat="44.815925" lon="7.929"><ele>314.0</ele><time>2026-04-18T13:22:07.918Z</time></trkpt><trkpt lat="44.816035" lon="7.92903"><ele>313.5</ele><time>2026-04-18T13:22:08.918Z</time></trkpt><trkpt lat="44.8161733" lon="7.9290633"><ele>313.0</ele><time>2026-04-18T13:22:09.918Z</time></trkpt><trkpt lat="44.8163183" lon="7.9290783"><ele>312.5</ele><time>2026-04-18T13:22:10.918Z</time></trkpt><trkpt lat="44.8164683" lon="7.9290867"><ele>312.0</ele><time>2026-04-18T13:22:11.918Z</time></trkpt><trkpt lat="44.81663" lon="7.92909"><ele>312.0</ele><time>2026-04-18T13:22:12.918Z</time></trkpt><trkpt lat="44.8167933" lon="7.929085"><ele>312.0</ele><time>2026-04-18T13:22:13.918Z</time></trkpt><trkpt lat="44.8169333" lon="7.9290467"><ele>312.0</ele><time>2026-04-18T13:22:14.917Z</time></trkpt><trkpt lat="44.817055" lon="7.928985"><ele>312.0</ele><time>2026-04-18T13:22:15.918Z</time></trkpt><trkpt lat="44.817145" lon="7.9288867"><ele>311.6</ele><time>2026-04-18T13:22:16.918Z</time></trkpt><trkpt lat="44.817215" lon="7.9287483"><ele>311.2</ele><time>2026-04-18T13:22:17.918Z</time></trkpt><trkpt lat="44.817275" lon="7.9286217"><ele>310.8</ele><time>2026-04-18T13:22:18.917Z</time></trkpt><trkpt lat="44.8173217" lon="7.9285317"><ele>310.4</ele><time>2026-04-18T13:22:19.918Z</time></trkpt><trkpt lat="44.8173733" lon="7.9284733"><ele>310.0</ele><time>2026-04-18T13:22:20.917Z</time></trkpt><trkpt lat="44.817495" lon="7.9284183"><ele>310.0</ele><time>2026-04-18T13:22:22.918Z</time></trkpt><trkpt lat="44.8175933" lon="7.9284317"><ele>310.0</ele><time>2026-04-18T13:22:23.918Z</time></trkpt><trkpt lat="44.8177133" lon="7.9284567"><ele>310.0</ele><time>2026-04-18T13:22:24.917Z</time></trkpt><trkpt lat="44.8178483" lon="7.9284667"><ele>310.0</ele><time>2026-04-18T13:22:25.918Z</time></trkpt><trkpt lat="44.8179883" lon="7.928425"><ele>310.0</ele><time>2026-04-18T13:22:26.918Z</time></trkpt><trkpt lat="44.818135" lon="7.9283283"><ele>310.0</ele><time>2026-04-18T13:22:27.917Z</time></trkpt><trkpt lat="44.81829" lon="7.9282067"><ele>310.0</ele><time>2026-04-18T13:22:28.917Z</time></trkpt><trkpt lat="44.8184333" lon="7.9280767"><ele>310.3333333333333</ele><time>2026-04-18T13:22:29.917Z</time></trkpt><trkpt lat="44.818585" lon="7.9279567"><ele>310.6666666666667</ele><time>2026-04-18T13:22:30.918Z</time></trkpt><trkpt lat="44.8187433" lon="7.9278433"><ele>311.0</ele><time>2026-04-18T13:22:31.918Z</time></trkpt><trkpt lat="44.818895" lon="7.9277383"><ele>311.0</ele><time>2026-04-18T13:22:32.918Z</time></trkpt><trkpt lat="44.819035" lon="7.92764"><ele>311.0</ele><time>2026-04-18T13:22:33.918Z</time></trkpt><trkpt lat="44.8191683" lon="7.9275017"><ele>311.0</ele><time>2026-04-18T13:22:34.918Z</time></trkpt><trkpt lat="44.819285" lon="7.9273617"><ele>310.5</ele><time>2026-04-18T13:22:35.918Z</time></trkpt><trkpt lat="44.8193917" lon="7.92723"><ele>310.0</ele><time>2026-04-18T13:22:36.918Z</time></trkpt><trkpt lat="44.81947" lon="7.9271317"><ele>309.5</ele><time>2026-04-18T13:22:37.918Z</time></trkpt><trkpt lat="44.8195433" lon="7.9270717"><ele>309.0</ele><time>2026-04-18T13:22:38.918Z</time></trkpt><trkpt lat="44.8196683" lon="7.927075"><ele>309.0</ele><time>2026-04-18T13:22:40.918Z</time></trkpt><trkpt lat="44.8197533" lon="7.9271367"><ele>309.0</ele><time>2026-04-18T13:22:41.918Z</time></trkpt><trkpt lat="44.8198367" lon="7.9272117"><ele>309.0</ele><time>2026-04-18T13:22:42.918Z</time></trkpt><trkpt lat="44.819905" lon="7.92727"><ele>309.0</ele><time>2026-04-18T13:22:43.917Z</time></trkpt><trkpt lat="44.8199883" lon="7.9273417"><ele>309.0</ele><time>2026-04-18T13:22:45.918Z</time></trkpt><trkpt lat="44.8199883" lon="7.927435"><ele>309.0</ele><time>2026-04-18T13:22:47.918Z</time></trkpt><trkpt lat="44.8199317" lon="7.9275233"><ele>308.75</ele><time>2026-04-18T13:22:49.917Z</time></trkpt><trkpt lat="44.8198483" lon="7.9276317"><ele>308.5</ele><time>2026-04-18T13:22:51.918Z</time></trkpt><trkpt lat="44.819775" lon="7.92772"><ele>308.25</ele><time>2026-04-18T13:22:52.917Z</time></trkpt><trkpt lat="44.8196717" lon="7.9278317"><ele>308.0</ele><time>2026-04-18T13:22:53.918Z</time></trkpt><trkpt lat="44.8195783" lon="7.9279317"><ele>308.0</ele><time>2026-04-18T13:22:54.918Z</time></trkpt><trkpt lat="44.8195083" lon="7.9280133"><ele>308.0</ele><time>2026-04-18T13:22:55.917Z</time></trkpt><trkpt lat="44.8194567" lon="7.9280983"><ele>308.0</ele><time>2026-04-18T13:22:56.917Z</time></trkpt><trkpt lat="44.81943" lon="7.928195"><ele>308.0</ele><time>2026-04-18T13:22:57.918Z</time></trkpt><trkpt lat="44.819425" lon="7.9283167"><ele>308.0</ele><time>2026-04-18T13:22:58.918Z</time></trkpt><trkpt lat="44.8194433" lon="7.9284783"><ele>308.0</ele><time>2026-04-18T13:22:59.918Z</time></trkpt><trkpt lat="44.8194667" lon="7.9286783"><ele>307.33333333333337</ele><time>2026-04-18T13:23:00.918Z</time></trkpt><trkpt lat="44.8194733" lon="7.9289017"><ele>306.6666666666667</ele><time>2026-04-18T13:23:01.917Z</time></trkpt><trkpt lat="44.8194717" lon="7.9291133"><ele>306.0</ele><time>2026-04-18T13:23:02.917Z</time></trkpt><trkpt lat="44.8194717" lon="7.929315"><ele>305.6666666666667</ele><time>2026-04-18T13:23:03.918Z</time></trkpt><trkpt lat="44.8194633" lon="7.9295317"><ele>305.33333333333337</ele><time>2026-04-18T13:23:04.918Z</time></trkpt><trkpt lat="44.81943" lon="7.9297417"><ele>305.0</ele><time>2026-04-18T13:23:05.918Z</time></trkpt><trkpt lat="44.8193983" lon="7.9299383"><ele>304.75</ele><time>2026-04-18T13:23:06.918Z</time></trkpt><trkpt lat="44.819375" lon="7.9301033"><ele>304.5</ele><time>2026-04-18T13:23:07.918Z</time></trkpt><trkpt lat="44.81936" lon="7.93026"><ele>304.25</ele><time>2026-04-18T13:23:08.918Z</time></trkpt><trkpt lat="44.8193783" lon="7.930445"><ele>304.0</ele><time>2026-04-18T13:23:09.918Z</time></trkpt><trkpt lat="44.819415" lon="7.9306567"><ele>304.0</ele><time>2026-04-18T13:23:10.918Z</time></trkpt><trkpt lat="44.8194467" lon="7.9308783"><ele>304.0</ele><time>2026-04-18T13:23:11.918Z</time></trkpt><trkpt lat="44.8194683" lon="7.9310983"><ele>304.0</ele><time>2026-04-18T13:23:12.917Z</time></trkpt><trkpt lat="44.8194767" lon="7.9313083"><ele>304.0</ele><time>2026-04-18T13:23:13.918Z</time></trkpt><trkpt lat="44.8194767" lon="7.9315"><ele>304.0</ele><time>2026-04-18T13:23:14.918Z</time></trkpt><trkpt lat="44.8194717" lon="7.9316767"><ele>304.0</ele><time>2026-04-18T13:23:15.918Z</time></trkpt><trkpt lat="44.81946" lon="7.931845"><ele>304.0</ele><time>2026-04-18T13:23:16.918Z</time></trkpt><trkpt lat="44.8194367" lon="7.9320017"><ele>303.5</ele><time>2026-04-18T13:23:17.918Z</time></trkpt><trkpt lat="44.819395" lon="7.93215"><ele>303.0</ele><time>2026-04-18T13:23:18.918Z</time></trkpt><trkpt lat="44.8193567" lon="7.9322967"><ele>302.5</ele><time>2026-04-18T13:23:19.917Z</time></trkpt><trkpt lat="44.8193133" lon="7.9324567"><ele>302.0</ele><time>2026-04-18T13:23:20.918Z</time></trkpt><trkpt lat="44.81928" lon="7.9326083"><ele>303.0</ele><time>2026-04-18T13:23:21.918Z</time></trkpt><trkpt lat="44.8192517" lon="7.932765"><ele>304.0</ele><time>2026-04-18T13:23:22.918Z</time></trkpt><trkpt lat="44.8192367" lon="7.9329467"><ele>305.0</ele><time>2026-04-18T13:23:23.918Z</time></trkpt><trkpt lat="44.8192267" lon="7.93311"><ele>306.0</ele><time>2026-04-18T13:23:24.917Z</time></trkpt><trkpt lat="44.8192217" lon="7.933245"><ele>306.0</ele><time>2026-04-18T13:23:25.917Z</time></trkpt><trkpt lat="44.8192067" lon="7.9333483"><ele>306.0</ele><time>2026-04-18T13:23:26.918Z</time></trkpt><trkpt lat="44.819185" lon="7.9334817"><ele>306.0</ele><time>2026-04-18T13:23:28.918Z</time></trkpt><trkpt lat="44.81916" lon="7.93359"><ele>306.0</ele><time>2026-04-18T13:23:30.917Z</time></trkpt><trkpt lat="44.8191333" lon="7.933695"><ele>306.0</ele><time>2026-04-18T13:23:32.918Z</time></trkpt><trkpt lat="44.8190917" lon="7.9338167"><ele>306.0</ele><time>2026-04-18T13:23:34.917Z</time></trkpt><trkpt lat="44.8190417" lon="7.933955"><ele>305.40000000000003</ele><time>2026-04-18T13:23:36.918Z</time></trkpt><trkpt lat="44.819" lon="7.9340917"><ele>304.8</ele><time>2026-04-18T13:23:38.918Z</time></trkpt><trkpt lat="44.8189667" lon="7.9341867"><ele>304.20000000000005</ele><time>2026-04-18T13:23:40.918Z</time></trkpt><trkpt lat="44.818945" lon="7.9343067"><ele>303.6</ele><time>2026-04-18T13:23:42.918Z</time></trkpt><trkpt lat="44.8189217" lon="7.934475"><ele>303.0</ele><time>2026-04-18T13:23:44.918Z</time></trkpt><trkpt lat="44.8189017" lon="7.934655"><ele>303.0</ele><time>2026-04-18T13:23:46.918Z</time></trkpt><trkpt lat="44.81887" lon="7.934775"><ele>303.0</ele><time>2026-04-18T13:23:47.918Z</time></trkpt><trkpt lat="44.8188417" lon="7.9349017"><ele>303.0</ele><time>2026-04-18T13:23:48.918Z</time></trkpt><trkpt lat="44.8188217" lon="7.9350033"><ele>303.0</ele><time>2026-04-18T13:23:49.917Z</time></trkpt><trkpt lat="44.8188033" lon="7.9350883"><ele>303.0</ele><time>2026-04-18T13:23:50.918Z</time></trkpt><trkpt lat="44.8187733" lon="7.9351817"><ele>303.0</ele><time>2026-04-18T13:23:52.917Z</time></trkpt><trkpt lat="44.8188233" lon="7.9350267"><ele>303.0</ele><time>2026-04-18T13:24:00.918Z</time></trkpt><trkpt lat="44.81885" lon="7.9349033"><ele>303.0</ele><time>2026-04-18T13:24:01.918Z</time></trkpt><trkpt lat="44.8188833" lon="7.9347533"><ele>303.0</ele><time>2026-04-18T13:24:02.918Z</time></trkpt><trkpt lat="44.8189067" lon="7.9345983"><ele>303.0</ele><time>2026-04-18T13:24:03.918Z</time></trkpt><trkpt lat="44.81893" lon="7.9344567"><ele>303.0</ele><time>2026-04-18T13:24:04.918Z</time></trkpt><trkpt lat="44.8189567" lon="7.9343267"><ele>303.0</ele><time>2026-04-18T13:24:05.918Z</time></trkpt><trkpt lat="44.8189817" lon="7.9342083"><ele>303.0</ele><time>2026-04-18T13:24:06.918Z</time></trkpt><trkpt lat="44.8190117" lon="7.9340883"><ele>303.0</ele><time>2026-04-18T13:24:07.918Z</time></trkpt><trkpt lat="44.8190517" lon="7.93398"><ele>303.0</ele><time>2026-04-18T13:24:08.917Z</time></trkpt><trkpt lat="44.8190867" lon="7.93387"><ele>303.0</ele><time>2026-04-18T13:24:09.917Z</time></trkpt><trkpt lat="44.8191217" lon="7.9337717"><ele>303.0</ele><time>2026-04-18T13:24:10.917Z</time></trkpt><trkpt lat="44.8191517" lon="7.93368"><ele>303.0</ele><time>2026-04-18T13:24:11.917Z</time></trkpt><trkpt lat="44.8191767" lon="7.9335983"><ele>303.0</ele><time>2026-04-18T13:24:12.917Z</time></trkpt><trkpt lat="44.81921" lon="7.9334567"><ele>303.0</ele><time>2026-04-18T13:24:14.917Z</time></trkpt><trkpt lat="44.81922" lon="7.9333217"><ele>303.0</ele><time>2026-04-18T13:24:16.916Z</time></trkpt><trkpt lat="44.8193117" lon="7.933335"><ele>303.0</ele><time>2026-04-18T13:24:19.917Z</time></trkpt><trkpt lat="44.8193833" lon="7.933415"><ele>303.0</ele><time>2026-04-18T13:24:20.917Z</time></trkpt><trkpt lat="44.819465" lon="7.9335217"><ele>303.0</ele><time>2026-04-18T13:24:21.917Z</time></trkpt><trkpt lat="44.8195617" lon="7.93363"><ele>303.0</ele><time>2026-04-18T13:24:22.917Z</time></trkpt><trkpt lat="44.8196517" lon="7.9337267"><ele>303.0</ele><time>2026-04-18T13:24:23.917Z</time></trkpt><trkpt lat="44.8197333" lon="7.9338183"><ele>303.0</ele><time>2026-04-18T13:24:24.917Z</time></trkpt><trkpt lat="44.8198217" lon="7.9339117"><ele>303.0</ele><time>2026-04-18T13:24:25.917Z</time></trkpt><trkpt lat="44.81992" lon="7.9340133"><ele>303.0</ele><time>2026-04-18T13:24:26.917Z</time></trkpt><trkpt lat="44.8200117" lon="7.9341183"><ele>303.0</ele><time>2026-04-18T13:24:27.917Z</time></trkpt><trkpt lat="44.8201" lon="7.9342083"><ele>303.0</ele><time>2026-04-18T13:24:28.917Z</time></trkpt><trkpt lat="44.8201767" lon="7.9342917"><ele>303.0</ele><time>2026-04-18T13:24:29.917Z</time></trkpt><trkpt lat="44.8202417" lon="7.9343633"><ele>301.6</ele><time>2026-04-18T13:24:30.917Z</time></trkpt><trkpt lat="44.8202983" lon="7.934435"><ele>300.20000000000005</ele><time>2026-04-18T13:24:31.917Z</time></trkpt><trkpt lat="44.820355" lon="7.93448"><ele>298.8</ele><time>2026-04-18T13:24:32.917Z</time></trkpt><trkpt lat="44.82048" lon="7.9345283"><ele>297.40000000000003</ele><time>2026-04-18T13:24:34.917Z</time></trkpt><trkpt lat="44.8205683" lon="7.9345983"><ele>296.0</ele><time>2026-04-18T13:24:35.917Z</time></trkpt><trkpt lat="44.8206633" lon="7.9346817"><ele>296.0</ele><time>2026-04-18T13:24:36.917Z</time></trkpt><trkpt lat="44.8207517" lon="7.9347617"><ele>296.0</ele><time>2026-04-18T13:24:37.916Z</time></trkpt><trkpt lat="44.82084" lon="7.934835"><ele>296.0</ele><time>2026-04-18T13:24:38.917Z</time></trkpt><trkpt lat="44.820925" lon="7.9349067"><ele>296.0</ele><time>2026-04-18T13:24:39.917Z</time></trkpt><trkpt lat="44.8210133" lon="7.93498"><ele>296.0</ele><time>2026-04-18T13:24:40.917Z</time></trkpt><trkpt lat="44.8210967" lon="7.935055"><ele>295.5</ele><time>2026-04-18T13:24:41.916Z</time></trkpt><trkpt lat="44.8211733" lon="7.935125"><ele>295.0</ele><time>2026-04-18T13:24:42.917Z</time></trkpt><trkpt lat="44.8212467" lon="7.9351867"><ele>294.5</ele><time>2026-04-18T13:24:43.917Z</time></trkpt><trkpt lat="44.82132" lon="7.9352433"><ele>294.0</ele><time>2026-04-18T13:24:44.917Z</time></trkpt><trkpt lat="44.8213817" lon="7.9353017"><ele>293.5</ele><time>2026-04-18T13:24:45.916Z</time></trkpt><trkpt lat="44.8214317" lon="7.9353633"><ele>293.0</ele><time>2026-04-18T13:24:46.917Z</time></trkpt><trkpt lat="44.821485" lon="7.93553"><ele>293.0</ele><time>2026-04-18T13:24:48.916Z</time></trkpt><trkpt lat="44.8214883" lon="7.9356683"><ele>293.0</ele><time>2026-04-18T13:24:49.917Z</time></trkpt><trkpt lat="44.821485" lon="7.9358183"><ele>293.0</ele><time>2026-04-18T13:24:50.917Z</time></trkpt><trkpt lat="44.8214867" lon="7.9359467"><ele>293.0</ele><time>2026-04-18T13:24:51.917Z</time></trkpt><trkpt lat="44.8214833" lon="7.9360683"><ele>293.0</ele><time>2026-04-18T13:24:52.917Z</time></trkpt><trkpt lat="44.8214783" lon="7.936195"><ele>292.8</ele><time>2026-04-18T13:24:53.916Z</time></trkpt><trkpt lat="44.8214717" lon="7.9363267"><ele>292.6</ele><time>2026-04-18T13:24:54.917Z</time></trkpt><trkpt lat="44.8214633" lon="7.9364617"><ele>292.4</ele><time>2026-04-18T13:24:55.916Z</time></trkpt><trkpt lat="44.8214533" lon="7.9365733"><ele>292.2</ele><time>2026-04-18T13:24:56.917Z</time></trkpt><trkpt lat="44.821445" lon="7.9366683"><ele>292.0</ele><time>2026-04-18T13:24:57.917Z</time></trkpt><trkpt lat="44.8214283" lon="7.9368283"><ele>292.0</ele><time>2026-04-18T13:24:59.917Z</time></trkpt><trkpt lat="44.8214383" lon="7.93692"><ele>292.0</ele><time>2026-04-18T13:25:00.917Z</time></trkpt><trkpt lat="44.8214667" lon="7.9370267"><ele>292.0</ele><time>2026-04-18T13:25:01.917Z</time></trkpt><trkpt lat="44.821515" lon="7.9371367"><ele>292.0</ele><time>2026-04-18T13:25:02.917Z</time></trkpt><trkpt lat="44.82158" lon="7.9372583"><ele>292.0</ele><time>2026-04-18T13:25:03.916Z</time></trkpt><trkpt lat="44.8216567" lon="7.9373817"><ele>292.0</ele><time>2026-04-18T13:25:04.917Z</time></trkpt><trkpt lat="44.8217233" lon="7.937495"><ele>292.0</ele><time>2026-04-18T13:25:05.917Z</time></trkpt><trkpt lat="44.8217817" lon="7.9376033"><ele>292.0</ele><time>2026-04-18T13:25:06.916Z</time></trkpt><trkpt lat="44.8218467" lon="7.937715"><ele>292.0</ele><time>2026-04-18T13:25:07.916Z</time></trkpt><trkpt lat="44.8219033" lon="7.9378117"><ele>292.0</ele><time>2026-04-18T13:25:08.917Z</time></trkpt><trkpt lat="44.8219617" lon="7.9379"><ele>292.2</ele><time>2026-04-18T13:25:09.917Z</time></trkpt><trkpt lat="44.8220117" lon="7.9379867"><ele>292.4</ele><time>2026-04-18T13:25:10.917Z</time></trkpt><trkpt lat="44.82205" lon="7.9380717"><ele>292.6</ele><time>2026-04-18T13:25:11.917Z</time></trkpt><trkpt lat="44.8220833" lon="7.9382283"><ele>292.8</ele><time>2026-04-18T13:25:13.917Z</time></trkpt><trkpt lat="44.82208" lon="7.9384267"><ele>293.0</ele><time>2026-04-18T13:25:15.917Z</time></trkpt><trkpt lat="44.8220633" lon="7.938545"><ele>293.1666666666667</ele><time>2026-04-18T13:25:16.917Z</time></trkpt><trkpt lat="44.82204" lon="7.9386767"><ele>293.33333333333337</ele><time>2026-04-18T13:25:17.917Z</time></trkpt><trkpt lat="44.82202" lon="7.9387833"><ele>293.5</ele><time>2026-04-18T13:25:18.917Z</time></trkpt><trkpt lat="44.821995" lon="7.9388717"><ele>293.6666666666667</ele><time>2026-04-18T13:25:19.917Z</time></trkpt><trkpt lat="44.821965" lon="7.938975"><ele>293.8333333333333</ele><time>2026-04-18T13:25:20.916Z</time></trkpt><trkpt lat="44.8219417" lon="7.9390917"><ele>294.0</ele><time>2026-04-18T13:25:21.917Z</time></trkpt><trkpt lat="44.82191" lon="7.9392133"><ele>294.59999999999997</ele><time>2026-04-18T13:25:22.917Z</time></trkpt><trkpt lat="44.8218717" lon="7.9393417"><ele>295.2</ele><time>2026-04-18T13:25:23.917Z</time></trkpt><trkpt lat="44.821835" lon="7.939475"><ele>295.79999999999995</ele><time>2026-04-18T13:25:24.917Z</time></trkpt><trkpt lat="44.8218" lon="7.9396133"><ele>296.4</ele><time>2026-04-18T13:25:25.917Z</time></trkpt><trkpt lat="44.8217683" lon="7.93975"><ele>297.0</ele><time>2026-04-18T13:25:26.917Z</time></trkpt><trkpt lat="44.82174" lon="7.939885"><ele>297.0</ele><time>2026-04-18T13:25:27.917Z</time></trkpt><trkpt lat="44.82172" lon="7.9400133"><ele>297.0</ele><time>2026-04-18T13:25:28.917Z</time></trkpt><trkpt lat="44.82171" lon="7.94014"><ele>297.0</ele><time>2026-04-18T13:25:29.916Z</time></trkpt><trkpt lat="44.8217133" lon="7.94027"><ele>297.0</ele><time>2026-04-18T13:25:30.917Z</time></trkpt><trkpt lat="44.8217233" lon="7.9404033"><ele>297.0</ele><time>2026-04-18T13:25:31.917Z</time></trkpt><trkpt lat="44.82174" lon="7.940535"><ele>297.3333333333333</ele><time>2026-04-18T13:25:32.917Z</time></trkpt><trkpt lat="44.8217517" lon="7.940665"><ele>297.6666666666667</ele><time>2026-04-18T13:25:33.917Z</time></trkpt><trkpt lat="44.82176" lon="7.9407967"><ele>298.0</ele><time>2026-04-18T13:25:34.917Z</time></trkpt><trkpt lat="44.8217783" lon="7.9409183"><ele>298.33333333333337</ele><time>2026-04-18T13:25:35.917Z</time></trkpt><trkpt lat="44.8217867" lon="7.9410233"><ele>298.6666666666667</ele><time>2026-04-18T13:25:36.917Z</time></trkpt><trkpt lat="44.8217933" lon="7.94112"><ele>299.0</ele><time>2026-04-18T13:25:37.917Z</time></trkpt><trkpt lat="44.8218" lon="7.9412617"><ele>299.0</ele><time>2026-04-18T13:25:39.917Z</time></trkpt><trkpt lat="44.8218067" lon="7.941395"><ele>299.0</ele><time>2026-04-18T13:25:41.916Z</time></trkpt><trkpt lat="44.8219117" lon="7.9414917"><ele>299.0</ele><time>2026-04-18T13:25:43.916Z</time></trkpt><trkpt lat="44.8219967" lon="7.941545"><ele>299.0</ele><time>2026-04-18T13:25:44.916Z</time></trkpt><trkpt lat="44.8220783" lon="7.9415967"><ele>299.0</ele><time>2026-04-18T13:25:45.917Z</time></trkpt><trkpt lat="44.8221617" lon="7.9416583"><ele>298.4</ele><time>2026-04-18T13:25:46.916Z</time></trkpt><trkpt lat="44.8222483" lon="7.9417117"><ele>297.79999999999995</ele><time>2026-04-18T13:25:47.917Z</time></trkpt><trkpt lat="44.8223333" lon="7.941765"><ele>297.20000000000005</ele><time>2026-04-18T13:25:48.917Z</time></trkpt><trkpt lat="44.8224067" lon="7.941815"><ele>296.6</ele><time>2026-04-18T13:25:49.917Z</time></trkpt><trkpt lat="44.8224933" lon="7.9418733"><ele>296.0</ele><time>2026-04-18T13:25:50.916Z</time></trkpt><trkpt lat="44.8225817" lon="7.941935"><ele>296.0</ele><time>2026-04-18T13:25:51.916Z</time></trkpt><trkpt lat="44.82268" lon="7.9420033"><ele>296.0</ele><time>2026-04-18T13:25:52.917Z</time></trkpt><trkpt lat="44.8227783" lon="7.9420667"><ele>296.0</ele><time>2026-04-18T13:25:53.916Z</time></trkpt><trkpt lat="44.82287" lon="7.9421133"><ele>296.0</ele><time>2026-04-18T13:25:54.917Z</time></trkpt><trkpt lat="44.8229517" lon="7.9421583"><ele>296.0</ele><time>2026-04-18T13:25:55.916Z</time></trkpt><trkpt lat="44.8230367" lon="7.94221"><ele>296.0</ele><time>2026-04-18T13:25:56.917Z</time></trkpt><trkpt lat="44.82312" lon="7.942265"><ele>296.0</ele><time>2026-04-18T13:25:57.917Z</time></trkpt><trkpt lat="44.8231983" lon="7.9423133"><ele>296.0</ele><time>2026-04-18T13:25:58.917Z</time></trkpt><trkpt lat="44.8232667" lon="7.9423633"><ele>296.0</ele><time>2026-04-18T13:25:59.917Z</time></trkpt><trkpt lat="44.8233333" lon="7.942405"><ele>296.0</ele><time>2026-04-18T13:26:00.916Z</time></trkpt><trkpt lat="44.8234333" lon="7.9424717"><ele>296.0</ele><time>2026-04-18T13:26:02.917Z</time></trkpt><trkpt lat="44.823505" lon="7.942515"><ele>295.6</ele><time>2026-04-18T13:26:04.917Z</time></trkpt><trkpt lat="44.82359" lon="7.94258"><ele>295.20000000000005</ele><time>2026-04-18T13:26:07.916Z</time></trkpt><trkpt lat="44.8236733" lon="7.94263"><ele>294.79999999999995</ele><time>2026-04-18T13:26:09.917Z</time></trkpt><trkpt lat="44.8237417" lon="7.94271"><ele>294.4</ele><time>2026-04-18T13:26:11.917Z</time></trkpt><trkpt lat="44.823775" lon="7.942865"><ele>294.0</ele><time>2026-04-18T13:26:13.916Z</time></trkpt><trkpt lat="44.8237767" lon="7.9430217"><ele>294.0</ele><time>2026-04-18T13:26:15.917Z</time></trkpt><trkpt lat="44.823785" lon="7.9431167"><ele>294.0</ele><time>2026-04-18T13:26:17.917Z</time></trkpt><trkpt lat="44.8238067" lon="7.9432467"><ele>294.0</ele><time>2026-04-18T13:26:28.917Z</time></trkpt><trkpt lat="44.82382" lon="7.9434083"><ele>294.0</ele><time>2026-04-18T13:26:30.917Z</time></trkpt><trkpt lat="44.8238633" lon="7.9434867"><ele>294.0</ele><time>2026-04-18T13:26:31.916Z</time></trkpt><trkpt lat="44.823925" lon="7.9435367"><ele>294.0</ele><time>2026-04-18T13:26:32.917Z</time></trkpt><trkpt lat="44.8239983" lon="7.9435567"><ele>294.59999999999997</ele><time>2026-04-18T13:26:33.916Z</time></trkpt><trkpt lat="44.8240883" lon="7.9435567"><ele>295.2</ele><time>2026-04-18T13:26:34.917Z</time></trkpt><trkpt lat="44.824185" lon="7.943565"><ele>295.79999999999995</ele><time>2026-04-18T13:26:35.917Z</time></trkpt><trkpt lat="44.8242833" lon="7.9435833"><ele>296.4</ele><time>2026-04-18T13:26:36.917Z</time></trkpt><trkpt lat="44.8243833" lon="7.94361"><ele>297.0</ele><time>2026-04-18T13:26:37.917Z</time></trkpt><trkpt lat="44.8244933" lon="7.9436467"><ele>297.25</ele><time>2026-04-18T13:26:38.917Z</time></trkpt><trkpt lat="44.8246017" lon="7.9436867"><ele>297.5</ele><time>2026-04-18T13:26:39.917Z</time></trkpt><trkpt lat="44.8247083" lon="7.9437317"><ele>297.75</ele><time>2026-04-18T13:26:40.917Z</time></trkpt><trkpt lat="44.8248217" lon="7.9437617"><ele>298.0</ele><time>2026-04-18T13:26:41.917Z</time></trkpt><trkpt lat="44.8249383" lon="7.9437917"><ele>298.0</ele><time>2026-04-18T13:26:42.917Z</time></trkpt><trkpt lat="44.8250533" lon="7.9438233"><ele>298.0</ele><time>2026-04-18T13:26:43.916Z</time></trkpt><trkpt lat="44.8251717" lon="7.9438467"><ele>298.0</ele><time>2026-04-18T13:26:44.916Z</time></trkpt><trkpt lat="44.8252867" lon="7.9438733"><ele>298.0</ele><time>2026-04-18T13:26:45.917Z</time></trkpt><trkpt lat="44.8254" lon="7.9439"><ele>298.5</ele><time>2026-04-18T13:26:46.916Z</time></trkpt><trkpt lat="44.82551" lon="7.943925"><ele>299.0</ele><time>2026-04-18T13:26:47.917Z</time></trkpt><trkpt lat="44.825625" lon="7.943965"><ele>299.5</ele><time>2026-04-18T13:26:48.916Z</time></trkpt><trkpt lat="44.825735" lon="7.94402"><ele>300.0</ele><time>2026-04-18T13:26:49.917Z</time></trkpt><trkpt lat="44.8258483" lon="7.9441"><ele>300.0</ele><time>2026-04-18T13:26:50.917Z</time></trkpt><trkpt lat="44.8259483" lon="7.9442083"><ele>300.0</ele><time>2026-04-18T13:26:51.917Z</time></trkpt><trkpt lat="44.8260517" lon="7.9443283"><ele>300.0</ele><time>2026-04-18T13:26:52.917Z</time></trkpt><trkpt lat="44.8261433" lon="7.9444717"><ele>300.0</ele><time>2026-04-18T13:26:53.917Z</time></trkpt><trkpt lat="44.8262383" lon="7.9446233"><ele>301.5</ele><time>2026-04-18T13:26:54.917Z</time></trkpt><trkpt lat="44.8263283" lon="7.9447733"><ele>303.0</ele><time>2026-04-18T13:26:55.917Z</time></trkpt><trkpt lat="44.8264117" lon="7.94491"><ele>304.5</ele><time>2026-04-18T13:26:56.917Z</time></trkpt><trkpt lat="44.8264883" lon="7.945035"><ele>306.0</ele><time>2026-04-18T13:26:57.917Z</time></trkpt><trkpt lat="44.8265617" lon="7.9451433"><ele>306.75</ele><time>2026-04-18T13:26:58.917Z</time></trkpt><trkpt lat="44.8266417" lon="7.945255"><ele>307.5</ele><time>2026-04-18T13:26:59.916Z</time></trkpt><trkpt lat="44.826725" lon="7.9453817"><ele>308.25</ele><time>2026-04-18T13:27:00.917Z</time></trkpt><trkpt lat="44.8268133" lon="7.9455017"><ele>309.0</ele><time>2026-04-18T13:27:01.917Z</time></trkpt><trkpt lat="44.8269183" lon="7.9456167"><ele>311.0</ele><time>2026-04-18T13:27:02.917Z</time></trkpt><trkpt lat="44.8270283" lon="7.94573"><ele>313.0</ele><time>2026-04-18T13:27:03.917Z</time></trkpt><trkpt lat="44.8271333" lon="7.9458383"><ele>315.0</ele><time>2026-04-18T13:27:04.916Z</time></trkpt><trkpt lat="44.8272333" lon="7.94595"><ele>317.0</ele><time>2026-04-18T13:27:05.917Z</time></trkpt><trkpt lat="44.827325" lon="7.9460783"><ele>318.0</ele><time>2026-04-18T13:27:06.917Z</time></trkpt><trkpt lat="44.827405" lon="7.9462183"><ele>319.0</ele><time>2026-04-18T13:27:07.916Z</time></trkpt><trkpt lat="44.8274717" lon="7.9463683"><ele>320.0</ele><time>2026-04-18T13:27:08.917Z</time></trkpt><trkpt lat="44.8275167" lon="7.9465367"><ele>321.0</ele><time>2026-04-18T13:27:09.917Z</time></trkpt><trkpt lat="44.8275517" lon="7.9467083"><ele>321.25</ele><time>2026-04-18T13:27:10.916Z</time></trkpt><trkpt lat="44.8275933" lon="7.9468733"><ele>321.5</ele><time>2026-04-18T13:27:11.917Z</time></trkpt><trkpt lat="44.8276517" lon="7.94704"><ele>321.75</ele><time>2026-04-18T13:27:12.917Z</time></trkpt><trkpt lat="44.8277217" lon="7.9471867"><ele>322.0</ele><time>2026-04-18T13:27:13.917Z</time></trkpt><trkpt lat="44.8278283" lon="7.9473067"><ele>323.5</ele><time>2026-04-18T13:27:14.917Z</time></trkpt><trkpt lat="44.8279417" lon="7.9473833"><ele>325.0</ele><time>2026-04-18T13:27:15.917Z</time></trkpt><trkpt lat="44.8280767" lon="7.947415"><ele>326.5</ele><time>2026-04-18T13:27:16.917Z</time></trkpt><trkpt lat="44.828215" lon="7.9474267"><ele>328.0</ele><time>2026-04-18T13:27:17.917Z</time></trkpt><trkpt lat="44.8283417" lon="7.9474233"><ele>330.0</ele><time>2026-04-18T13:27:18.917Z</time></trkpt><trkpt lat="44.8284767" lon="7.9474167"><ele>332.0</ele><time>2026-04-18T13:27:19.917Z</time></trkpt><trkpt lat="44.8286067" lon="7.9474067"><ele>334.0</ele><time>2026-04-18T13:27:20.917Z</time></trkpt><trkpt lat="44.8287417" lon="7.94739"><ele>336.0</ele><time>2026-04-18T13:27:21.916Z</time></trkpt><trkpt lat="44.82888" lon="7.947375"><ele>336.0</ele><time>2026-04-18T13:27:22.916Z</time></trkpt><trkpt lat="44.8290183" lon="7.947365"><ele>336.0</ele><time>2026-04-18T13:27:23.917Z</time></trkpt><trkpt lat="44.8291533" lon="7.94736"><ele>336.0</ele><time>2026-04-18T13:27:24.916Z</time></trkpt><trkpt lat="44.829285" lon="7.94736"><ele>336.0</ele><time>2026-04-18T13:27:25.916Z</time></trkpt><trkpt lat="44.8294167" lon="7.947375"><ele>338.0</ele><time>2026-04-18T13:27:26.917Z</time></trkpt><trkpt lat="44.8295533" lon="7.9474"><ele>340.0</ele><time>2026-04-18T13:27:27.917Z</time></trkpt><trkpt lat="44.829685" lon="7.9474417"><ele>342.0</ele><time>2026-04-18T13:27:28.917Z</time></trkpt><trkpt lat="44.82982" lon="7.9474767"><ele>344.0</ele><time>2026-04-18T13:27:29.917Z</time></trkpt><trkpt lat="44.8299483" lon="7.9475167"><ele>343.5</ele><time>2026-04-18T13:27:30.917Z</time></trkpt><trkpt lat="44.83007" lon="7.9475617"><ele>343.0</ele><time>2026-04-18T13:27:31.917Z</time></trkpt><trkpt lat="44.8301883" lon="7.9476083"><ele>342.5</ele><time>2026-04-18T13:27:32.916Z</time></trkpt><trkpt lat="44.8303033" lon="7.9476483"><ele>342.0</ele><time>2026-04-18T13:27:33.916Z</time></trkpt><trkpt lat="44.830415" lon="7.9476717"><ele>342.0</ele><time>2026-04-18T13:27:34.917Z</time></trkpt><trkpt lat="44.830515" lon="7.9476817"><ele>342.0</ele><time>2026-04-18T13:27:35.917Z</time></trkpt><trkpt lat="44.8306283" lon="7.947685"><ele>342.0</ele><time>2026-04-18T13:27:36.917Z</time></trkpt><trkpt lat="44.830745" lon="7.9476683"><ele>342.0</ele><time>2026-04-18T13:27:37.917Z</time></trkpt><trkpt lat="44.8308667" lon="7.947645"><ele>342.0</ele><time>2026-04-18T13:27:38.917Z</time></trkpt><trkpt lat="44.8309883" lon="7.9476267"><ele>342.0</ele><time>2026-04-18T13:27:39.917Z</time></trkpt><trkpt lat="44.8311054" lon="7.9476055"><ele>342.0</ele><time>2026-04-18T13:27:40.917Z</time></trkpt><trkpt lat="44.8312247" lon="7.9475886"><ele>342.0</ele><time>2026-04-18T13:27:41.917Z</time></trkpt><trkpt lat="44.8313453" lon="7.9475717"><ele>342.0</ele><time>2026-04-18T13:27:42.917Z</time></trkpt><trkpt lat="44.8314694" lon="7.94755"><ele>342.0</ele><time>2026-04-18T13:27:43.916Z</time></trkpt><trkpt lat="44.8315942" lon="7.9475264"><ele>342.0</ele><time>2026-04-18T13:27:44.917Z</time></trkpt><trkpt lat="44.8317097" lon="7.9474975"><ele>342.0</ele><time>2026-04-18T13:27:45.916Z</time></trkpt><trkpt lat="44.8318221" lon="7.9474798"><ele>345.25</ele><time>2026-04-18T13:27:46.916Z</time></trkpt><trkpt lat="44.8319413" lon="7.9474618"><ele>348.5</ele><time>2026-04-18T13:27:47.916Z</time></trkpt><trkpt lat="44.8320612" lon="7.9474505"><ele>351.75</ele><time>2026-04-18T13:27:48.917Z</time></trkpt><trkpt lat="44.8321835" lon="7.9474406"><ele>355.0</ele><time>2026-04-18T13:27:49.917Z</time></trkpt><trkpt lat="44.8323118" lon="7.9474324"><ele>355.0</ele><time>2026-04-18T13:27:50.916Z</time></trkpt><trkpt lat="44.8324396" lon="7.9474255"><ele>355.0</ele><time>2026-04-18T13:27:51.916Z</time></trkpt><trkpt lat="44.8325626" lon="7.9474145"><ele>355.0</ele><time>2026-04-18T13:27:52.916Z</time></trkpt><trkpt lat="44.8326792" lon="7.9474097"><ele>355.0</ele><time>2026-04-18T13:27:53.917Z</time></trkpt><trkpt lat="44.8327933" lon="7.947406"><ele>354.5</ele><time>2026-04-18T13:27:54.917Z</time></trkpt><trkpt lat="44.8329135" lon="7.9474015"><ele>354.0</ele><time>2026-04-18T13:27:55.916Z</time></trkpt><trkpt lat="44.8330399" lon="7.947402"><ele>353.5</ele><time>2026-04-18T13:27:56.917Z</time></trkpt><trkpt lat="44.8331669" lon="7.9474066"><ele>353.0</ele><time>2026-04-18T13:27:57.917Z</time></trkpt><trkpt lat="44.8332811" lon="7.9474274"><ele>353.0</ele><time>2026-04-18T13:27:58.917Z</time></trkpt><trkpt lat="44.8333862" lon="7.9474804"><ele>353.0</ele><time>2026-04-18T13:27:59.917Z</time></trkpt><trkpt lat="44.8334928" lon="7.9475498"><ele>353.0</ele><time>2026-04-18T13:28:00.917Z</time></trkpt><trkpt lat="44.8335887" lon="7.947642"><ele>353.0</ele><time>2026-04-18T13:28:01.917Z</time></trkpt><trkpt lat="44.8336775" lon="7.9477561"><ele>352.25</ele><time>2026-04-18T13:28:02.917Z</time></trkpt><trkpt lat="44.8337634" lon="7.9478879"><ele>351.5</ele><time>2026-04-18T13:28:03.916Z</time></trkpt><trkpt lat="44.8338443" lon="7.9480227"><ele>350.75</ele><time>2026-04-18T13:28:04.917Z</time></trkpt><trkpt lat="44.8339167" lon="7.9481494"><ele>350.0</ele><time>2026-04-18T13:28:05.917Z</time></trkpt><trkpt lat="44.8339941" lon="7.9482662"><ele>351.75</ele><time>2026-04-18T13:28:06.916Z</time></trkpt><trkpt lat="44.8340784" lon="7.9483854"><ele>353.5</ele><time>2026-04-18T13:28:07.917Z</time></trkpt><trkpt lat="44.8341538" lon="7.9485106"><ele>355.25</ele><time>2026-04-18T13:28:08.916Z</time></trkpt><trkpt lat="44.8342252" lon="7.9486426"><ele>357.0</ele><time>2026-04-18T13:28:09.916Z</time></trkpt><trkpt lat="44.8342973" lon="7.9487722"><ele>357.75</ele><time>2026-04-18T13:28:10.917Z</time></trkpt><trkpt lat="44.8343706" lon="7.9488946"><ele>358.5</ele><time>2026-04-18T13:28:11.917Z</time></trkpt><trkpt lat="44.8344456" lon="7.9490185"><ele>359.25</ele><time>2026-04-18T13:28:12.917Z</time></trkpt><trkpt lat="44.8345211" lon="7.9491473"><ele>360.0</ele><time>2026-04-18T13:28:13.917Z</time></trkpt><trkpt lat="44.8346022" lon="7.9492796"><ele>360.0</ele><time>2026-04-18T13:28:14.917Z</time></trkpt><trkpt lat="44.8346823" lon="7.9494128"><ele>360.0</ele><time>2026-04-18T13:28:15.917Z</time></trkpt><trkpt lat="44.8347614" lon="7.9495413"><ele>360.0</ele><time>2026-04-18T13:28:16.917Z</time></trkpt><trkpt lat="44.8348361" lon="7.9496737"><ele>360.0</ele><time>2026-04-18T13:28:17.916Z</time></trkpt><trkpt lat="44.8349153" lon="7.9498064"><ele>360.0</ele><time>2026-04-18T13:28:18.916Z</time></trkpt><trkpt lat="44.8349966" lon="7.9499458"><ele>360.0</ele><time>2026-04-18T13:28:19.917Z</time></trkpt><trkpt lat="44.8350661" lon="7.9500837"><ele>360.0</ele><time>2026-04-18T13:28:20.917Z</time></trkpt><trkpt lat="44.8351289" lon="7.9502163"><ele>360.0</ele><time>2026-04-18T13:28:21.917Z</time></trkpt><trkpt lat="44.8351933" lon="7.9503602"><ele>359.25</ele><time>2026-04-18T13:28:22.917Z</time></trkpt><trkpt lat="44.8352553" lon="7.9505025"><ele>358.5</ele><time>2026-04-18T13:28:23.917Z</time></trkpt><trkpt lat="44.8353138" lon="7.9506405"><ele>357.75</ele><time>2026-04-18T13:28:24.916Z</time></trkpt><trkpt lat="44.8353726" lon="7.9507778"><ele>357.0</ele><time>2026-04-18T13:28:25.917Z</time></trkpt><trkpt lat="44.8354353" lon="7.9509173"><ele>358.5</ele><time>2026-04-18T13:28:26.917Z</time></trkpt><trkpt lat="44.8354921" lon="7.9510594"><ele>360.0</ele><time>2026-04-18T13:28:27.916Z</time></trkpt><trkpt lat="44.83555" lon="7.9512131"><ele>361.5</ele><time>2026-04-18T13:28:28.917Z</time></trkpt><trkpt lat="44.8356187" lon="7.9513728"><ele>363.0</ele><time>2026-04-18T13:28:29.917Z</time></trkpt><trkpt lat="44.8356881" lon="7.9515332"><ele>363.0</ele><time>2026-04-18T13:28:30.917Z</time></trkpt><trkpt lat="44.835758" lon="7.9516838"><ele>363.0</ele><time>2026-04-18T13:28:31.917Z</time></trkpt><trkpt lat="44.8358241" lon="7.9518315"><ele>363.0</ele><time>2026-04-18T13:28:32.917Z</time></trkpt><trkpt lat="44.8358901" lon="7.9519774"><ele>363.0</ele><time>2026-04-18T13:28:33.916Z</time></trkpt><trkpt lat="44.8359525" lon="7.9521294"><ele>361.5</ele><time>2026-04-18T13:28:34.917Z</time></trkpt><trkpt lat="44.8360145" lon="7.9522844"><ele>360.0</ele><time>2026-04-18T13:28:35.917Z</time></trkpt><trkpt lat="44.8360752" lon="7.9524283"><ele>358.5</ele><time>2026-04-18T13:28:36.917Z</time></trkpt><trkpt lat="44.836125" lon="7.9525819"><ele>357.0</ele><time>2026-04-18T13:28:37.917Z</time></trkpt><trkpt lat="44.83619" lon="7.9527204"><ele>356.75</ele><time>2026-04-18T13:28:38.917Z</time></trkpt><trkpt lat="44.8362513" lon="7.9528704"><ele>356.5</ele><time>2026-04-18T13:28:39.916Z</time></trkpt><trkpt lat="44.8363158" lon="7.9530265"><ele>356.25</ele><time>2026-04-18T13:28:40.917Z</time></trkpt><trkpt lat="44.8363802" lon="7.953183"><ele>356.0</ele><time>2026-04-18T13:28:41.917Z</time></trkpt><trkpt lat="44.8364368" lon="7.9533361"><ele>357.0</ele><time>2026-04-18T13:28:42.917Z</time></trkpt><trkpt lat="44.8364911" lon="7.9534895"><ele>358.0</ele><time>2026-04-18T13:28:43.917Z</time></trkpt><trkpt lat="44.8365402" lon="7.9536434"><ele>359.0</ele><time>2026-04-18T13:28:44.917Z</time></trkpt><trkpt lat="44.8365868" lon="7.9537967"><ele>360.0</ele><time>2026-04-18T13:28:45.917Z</time></trkpt><trkpt lat="44.8366238" lon="7.9539552"><ele>360.0</ele><time>2026-04-18T13:28:46.917Z</time></trkpt><trkpt lat="44.8366428" lon="7.9541281"><ele>360.0</ele><time>2026-04-18T13:28:47.917Z</time></trkpt><trkpt lat="44.836644" lon="7.9543109"><ele>360.0</ele><time>2026-04-18T13:28:48.917Z</time></trkpt><trkpt lat="44.8366407" lon="7.9544876"><ele>360.0</ele><time>2026-04-18T13:28:49.917Z</time></trkpt><trkpt lat="44.8366302" lon="7.9546658"><ele>360.25</ele><time>2026-04-18T13:28:50.917Z</time></trkpt><trkpt lat="44.8366164" lon="7.9548393"><ele>360.5</ele><time>2026-04-18T13:28:51.917Z</time></trkpt><trkpt lat="44.8366006" lon="7.955009"><ele>360.75</ele><time>2026-04-18T13:28:52.917Z</time></trkpt><trkpt lat="44.8365825" lon="7.9551814"><ele>361.0</ele><time>2026-04-18T13:28:53.916Z</time></trkpt><trkpt lat="44.8365703" lon="7.9553587"><ele>361.0</ele><time>2026-04-18T13:28:54.917Z</time></trkpt><trkpt lat="44.836553" lon="7.9555218"><ele>361.0</ele><time>2026-04-18T13:28:55.917Z</time></trkpt><trkpt lat="44.8365369" lon="7.9556766"><ele>361.0</ele><time>2026-04-18T13:28:56.917Z</time></trkpt><trkpt lat="44.836526" lon="7.9558194"><ele>361.0</ele><time>2026-04-18T13:28:57.917Z</time></trkpt><trkpt lat="44.8365243" lon="7.9559516"><ele>361.0</ele><time>2026-04-18T13:28:58.917Z</time></trkpt><trkpt lat="44.8365476" lon="7.9560691"><ele>361.16666666666663</ele><time>2026-04-18T13:28:59.916Z</time></trkpt><trkpt lat="44.8365929" lon="7.9561625"><ele>361.3333333333333</ele><time>2026-04-18T13:29:00.917Z</time></trkpt><trkpt lat="44.8366538" lon="7.9562284"><ele>361.5</ele><time>2026-04-18T13:29:01.917Z</time></trkpt><trkpt lat="44.8367334" lon="7.9562624"><ele>361.6666666666667</ele><time>2026-04-18T13:29:02.916Z</time></trkpt><trkpt lat="44.8368259" lon="7.9562673"><ele>361.83333333333337</ele><time>2026-04-18T13:29:03.917Z</time></trkpt><trkpt lat="44.8369296" lon="7.9562607"><ele>362.0</ele><time>2026-04-18T13:29:04.917Z</time></trkpt><trkpt lat="44.8370465" lon="7.9562565"><ele>362.0</ele><time>2026-04-18T13:29:05.917Z</time></trkpt><trkpt lat="44.8371624" lon="7.9562524"><ele>362.0</ele><time>2026-04-18T13:29:06.917Z</time></trkpt><trkpt lat="44.8372729" lon="7.9562514"><ele>362.0</ele><time>2026-04-18T13:29:07.916Z</time></trkpt><trkpt lat="44.8373792" lon="7.9562607"><ele>362.0</ele><time>2026-04-18T13:29:08.917Z</time></trkpt><trkpt lat="44.8374842" lon="7.9562706"><ele>362.0</ele><time>2026-04-18T13:29:09.917Z</time></trkpt><trkpt lat="44.8375894" lon="7.956274"><ele>361.6</ele><time>2026-04-18T13:29:10.916Z</time></trkpt><trkpt lat="44.8376915" lon="7.9562719"><ele>361.20000000000005</ele><time>2026-04-18T13:29:11.917Z</time></trkpt><trkpt lat="44.8377839" lon="7.9562542"><ele>360.8</ele><time>2026-04-18T13:29:12.917Z</time></trkpt><trkpt lat="44.8378709" lon="7.9562061"><ele>360.4</ele><time>2026-04-18T13:29:13.917Z</time></trkpt><trkpt lat="44.8379552" lon="7.9561274"><ele>360.0</ele><time>2026-04-18T13:29:14.917Z</time></trkpt><trkpt lat="44.8380376" lon="7.956029"><ele>360.0</ele><time>2026-04-18T13:29:15.917Z</time></trkpt><trkpt lat="44.8381133" lon="7.9559216"><ele>360.0</ele><time>2026-04-18T13:29:16.917Z</time></trkpt><trkpt lat="44.8381976" lon="7.9558121"><ele>360.0</ele><time>2026-04-18T13:29:17.917Z</time></trkpt><trkpt lat="44.8382789" lon="7.955702"><ele>360.0</ele><time>2026-04-18T13:29:18.916Z</time></trkpt><trkpt lat="44.838362" lon="7.9555897"><ele>360.75</ele><time>2026-04-18T13:29:19.917Z</time></trkpt><trkpt lat="44.8384452" lon="7.955482"><ele>361.5</ele><time>2026-04-18T13:29:20.916Z</time></trkpt><trkpt lat="44.8385311" lon="7.9553738"><ele>362.25</ele><time>2026-04-18T13:29:21.916Z</time></trkpt><trkpt lat="44.838614" lon="7.9552589"><ele>363.0</ele><time>2026-04-18T13:29:22.916Z</time></trkpt><trkpt lat="44.8386872" lon="7.9551379"><ele>364.0</ele><time>2026-04-18T13:29:23.916Z</time></trkpt><trkpt lat="44.8387674" lon="7.9550185"><ele>365.0</ele><time>2026-04-18T13:29:24.917Z</time></trkpt><trkpt lat="44.8388542" lon="7.9549031"><ele>366.0</ele><time>2026-04-18T13:29:25.917Z</time></trkpt><trkpt lat="44.8389394" lon="7.9547915"><ele>367.0</ele><time>2026-04-18T13:29:26.917Z</time></trkpt><trkpt lat="44.8390271" lon="7.9546904"><ele>367.0</ele><time>2026-04-18T13:29:27.917Z</time></trkpt><trkpt lat="44.8391164" lon="7.9545888"><ele>367.0</ele><time>2026-04-18T13:29:28.917Z</time></trkpt><trkpt lat="44.8392027" lon="7.9544849"><ele>367.0</ele><time>2026-04-18T13:29:29.917Z</time></trkpt><trkpt lat="44.8392919" lon="7.9543839"><ele>367.0</ele><time>2026-04-18T13:29:30.917Z</time></trkpt><trkpt lat="44.8393806" lon="7.9542866"><ele>366.8</ele><time>2026-04-18T13:29:31.916Z</time></trkpt><trkpt lat="44.8394677" lon="7.9541946"><ele>366.6</ele><time>2026-04-18T13:29:32.917Z</time></trkpt><trkpt lat="44.8395518" lon="7.9541109"><ele>366.40000000000003</ele><time>2026-04-18T13:29:33.917Z</time></trkpt><trkpt lat="44.8396333" lon="7.9540297"><ele>366.20000000000005</ele><time>2026-04-18T13:29:34.917Z</time></trkpt><trkpt lat="44.8397102" lon="7.9539552"><ele>366.0</ele><time>2026-04-18T13:29:35.917Z</time></trkpt><trkpt lat="44.8397757" lon="7.9538833"><ele>366.0</ele><time>2026-04-18T13:29:36.917Z</time></trkpt><trkpt lat="44.8398396" lon="7.9538117"><ele>366.0</ele><time>2026-04-18T13:29:37.917Z</time></trkpt><trkpt lat="44.8398946" lon="7.9537468"><ele>366.0</ele><time>2026-04-18T13:29:38.916Z</time></trkpt><trkpt lat="44.8399419" lon="7.9536776"><ele>366.0</ele><time>2026-04-18T13:29:39.917Z</time></trkpt><trkpt lat="44.8399389" lon="7.9534972"><ele>366.0</ele><time>2026-04-18T13:29:41.917Z</time></trkpt><trkpt lat="44.8398796" lon="7.9533885"><ele>366.0</ele><time>2026-04-18T13:29:42.916Z</time></trkpt><trkpt lat="44.839806" lon="7.9532765"><ele>365.8</ele><time>2026-04-18T13:29:43.917Z</time></trkpt><trkpt lat="44.83973" lon="7.953164"><ele>365.6</ele><time>2026-04-18T13:29:44.917Z</time></trkpt><trkpt lat="44.8396684" lon="7.9530436"><ele>365.4</ele><time>2026-04-18T13:29:45.917Z</time></trkpt><trkpt lat="44.8396171" lon="7.9529266"><ele>365.2</ele><time>2026-04-18T13:29:46.917Z</time></trkpt><trkpt lat="44.8395715" lon="7.9528028"><ele>365.0</ele><time>2026-04-18T13:29:47.917Z</time></trkpt><trkpt lat="44.8395342" lon="7.9526737"><ele>364.6</ele><time>2026-04-18T13:29:48.916Z</time></trkpt><trkpt lat="44.8395135" lon="7.9525366"><ele>364.2</ele><time>2026-04-18T13:29:49.916Z</time></trkpt><trkpt lat="44.8394995" lon="7.9523921"><ele>363.79999999999995</ele><time>2026-04-18T13:29:50.917Z</time></trkpt><trkpt lat="44.8394877" lon="7.9522456"><ele>363.4</ele><time>2026-04-18T13:29:51.917Z</time></trkpt><trkpt lat="44.8394846" lon="7.9521042"><ele>363.0</ele><time>2026-04-18T13:29:52.916Z</time></trkpt><trkpt lat="44.8394772" lon="7.9519718"><ele>363.0</ele><time>2026-04-18T13:29:53.916Z</time></trkpt><trkpt lat="44.8394415" lon="7.9518496"><ele>363.0</ele><time>2026-04-18T13:29:54.916Z</time></trkpt><trkpt lat="44.8393777" lon="7.9517422"><ele>363.0</ele><time>2026-04-18T13:29:55.917Z</time></trkpt><trkpt lat="44.8392985" lon="7.9516483"><ele>363.0</ele><time>2026-04-18T13:29:56.917Z</time></trkpt><trkpt lat="44.8392207" lon="7.9515558"><ele>363.0</ele><time>2026-04-18T13:29:57.917Z</time></trkpt><trkpt lat="44.8391457" lon="7.9514532"><ele>362.4</ele><time>2026-04-18T13:29:58.917Z</time></trkpt><trkpt lat="44.8390762" lon="7.9513407"><ele>361.79999999999995</ele><time>2026-04-18T13:29:59.917Z</time></trkpt><trkpt lat="44.8390249" lon="7.9512221"><ele>361.2</ele><time>2026-04-18T13:30:00.916Z</time></trkpt><trkpt lat="44.8389929" lon="7.9510912"><ele>360.6</ele><time>2026-04-18T13:30:01.917Z</time></trkpt><trkpt lat="44.838976" lon="7.9509461"><ele>360.0</ele><time>2026-04-18T13:30:02.916Z</time></trkpt><trkpt lat="44.8389717" lon="7.9507929"><ele>359.4</ele><time>2026-04-18T13:30:03.916Z</time></trkpt><trkpt lat="44.83897" lon="7.9506403"><ele>358.8</ele><time>2026-04-18T13:30:04.917Z</time></trkpt><trkpt lat="44.8389571" lon="7.9504858"><ele>358.20000000000005</ele><time>2026-04-18T13:30:05.917Z</time></trkpt><trkpt lat="44.8389319" lon="7.9503382"><ele>357.6</ele><time>2026-04-18T13:30:06.916Z</time></trkpt><trkpt lat="44.8388944" lon="7.950197"><ele>357.0</ele><time>2026-04-18T13:30:07.916Z</time></trkpt><trkpt lat="44.8388464" lon="7.9500594"><ele>357.8</ele><time>2026-04-18T13:30:08.917Z</time></trkpt><trkpt lat="44.8387939" lon="7.9499266"><ele>358.6</ele><time>2026-04-18T13:30:09.917Z</time></trkpt><trkpt lat="44.8387403" lon="7.9498036"><ele>359.40000000000003</ele><time>2026-04-18T13:30:10.917Z</time></trkpt><trkpt lat="44.8386858" lon="7.9496845"><ele>360.20000000000005</ele><time>2026-04-18T13:30:11.917Z</time></trkpt><trkpt lat="44.8386296" lon="7.9495634"><ele>361.0</ele><time>2026-04-18T13:30:12.916Z</time></trkpt><trkpt lat="44.8385724" lon="7.9494418"><ele>361.0</ele><time>2026-04-18T13:30:13.917Z</time></trkpt><trkpt lat="44.8385146" lon="7.9493209"><ele>361.0</ele><time>2026-04-18T13:30:14.916Z</time></trkpt><trkpt lat="44.8384568" lon="7.9492023"><ele>361.0</ele><time>2026-04-18T13:30:15.916Z</time></trkpt><trkpt lat="44.8384063" lon="7.9490808"><ele>361.0</ele><time>2026-04-18T13:30:16.917Z</time></trkpt><trkpt lat="44.8383584" lon="7.9489485"><ele>361.0</ele><time>2026-04-18T13:30:17.916Z</time></trkpt><trkpt lat="44.8383082" lon="7.9488093"><ele>360.6</ele><time>2026-04-18T13:30:18.917Z</time></trkpt><trkpt lat="44.8382595" lon="7.9486706"><ele>360.20000000000005</ele><time>2026-04-18T13:30:19.917Z</time></trkpt><trkpt lat="44.838214" lon="7.9485344"><ele>359.79999999999995</ele><time>2026-04-18T13:30:20.917Z</time></trkpt><trkpt lat="44.8381673" lon="7.9483959"><ele>359.4</ele><time>2026-04-18T13:30:21.917Z</time></trkpt><trkpt lat="44.838125" lon="7.9482655"><ele>359.0</ele><time>2026-04-18T13:30:22.917Z</time></trkpt><trkpt lat="44.8380806" lon="7.9481313"><ele>358.4</ele><time>2026-04-18T13:30:23.916Z</time></trkpt><trkpt lat="44.8380428" lon="7.9479955"><ele>357.79999999999995</ele><time>2026-04-18T13:30:24.916Z</time></trkpt><trkpt lat="44.8380161" lon="7.9478584"><ele>357.20000000000005</ele><time>2026-04-18T13:30:25.917Z</time></trkpt><trkpt lat="44.837999" lon="7.9477198"><ele>356.6</ele><time>2026-04-18T13:30:26.916Z</time></trkpt><trkpt lat="44.8379913" lon="7.9475775"><ele>356.0</ele><time>2026-04-18T13:30:27.917Z</time></trkpt><trkpt lat="44.8380013" lon="7.9474387"><ele>355.6</ele><time>2026-04-18T13:30:28.917Z</time></trkpt><trkpt lat="44.8380237" lon="7.9472999"><ele>355.20000000000005</ele><time>2026-04-18T13:30:29.917Z</time></trkpt><trkpt lat="44.8380547" lon="7.9471582"><ele>354.79999999999995</ele><time>2026-04-18T13:30:30.917Z</time></trkpt><trkpt lat="44.8380952" lon="7.9470224"><ele>354.4</ele><time>2026-04-18T13:30:31.916Z</time></trkpt><trkpt lat="44.8381472" lon="7.9468933"><ele>354.0</ele><time>2026-04-18T13:30:32.917Z</time></trkpt><trkpt lat="44.8382071" lon="7.946768"><ele>354.4</ele><time>2026-04-18T13:30:33.917Z</time></trkpt><trkpt lat="44.8382741" lon="7.9466519"><ele>354.79999999999995</ele><time>2026-04-18T13:30:34.917Z</time></trkpt><trkpt lat="44.8383437" lon="7.9465408"><ele>355.20000000000005</ele><time>2026-04-18T13:30:35.917Z</time></trkpt><trkpt lat="44.8384201" lon="7.9464336"><ele>355.6</ele><time>2026-04-18T13:30:36.916Z</time></trkpt><trkpt lat="44.8385076" lon="7.9463287"><ele>356.0</ele><time>2026-04-18T13:30:37.917Z</time></trkpt><trkpt lat="44.8385946" lon="7.9462258"><ele>356.0</ele><time>2026-04-18T13:30:38.917Z</time></trkpt><trkpt lat="44.8386733" lon="7.9461286"><ele>356.0</ele><time>2026-04-18T13:30:39.917Z</time></trkpt><trkpt lat="44.8387475" lon="7.9460376"><ele>356.0</ele><time>2026-04-18T13:30:40.917Z</time></trkpt><trkpt lat="44.83882" lon="7.9459497"><ele>356.0</ele><time>2026-04-18T13:30:41.917Z</time></trkpt><trkpt lat="44.8388899" lon="7.945865"><ele>356.0</ele><time>2026-04-18T13:30:42.916Z</time></trkpt><trkpt lat="44.8389559" lon="7.945784"><ele>356.0</ele><time>2026-04-18T13:30:43.916Z</time></trkpt><trkpt lat="44.8390221" lon="7.9457183"><ele>356.0</ele><time>2026-04-18T13:30:44.917Z</time></trkpt><trkpt lat="44.8390888" lon="7.9456549"><ele>356.0</ele><time>2026-04-18T13:30:45.917Z</time></trkpt><trkpt lat="44.8391578" lon="7.9455979"><ele>356.0</ele><time>2026-04-18T13:30:46.916Z</time></trkpt><trkpt lat="44.8392314" lon="7.9455616"><ele>356.0</ele><time>2026-04-18T13:30:47.917Z</time></trkpt><trkpt lat="44.8393099" lon="7.9455501"><ele>356.0</ele><time>2026-04-18T13:30:48.917Z</time></trkpt><trkpt lat="44.8393953" lon="7.9455512"><ele>355.6</ele><time>2026-04-18T13:30:49.916Z</time></trkpt><trkpt lat="44.8394801" lon="7.9455336"><ele>355.20000000000005</ele><time>2026-04-18T13:30:50.917Z</time></trkpt><trkpt lat="44.8395579" lon="7.9454885"><ele>354.79999999999995</ele><time>2026-04-18T13:30:51.916Z</time></trkpt><trkpt lat="44.8396449" lon="7.9454078"><ele>354.4</ele><time>2026-04-18T13:30:52.917Z</time></trkpt><trkpt lat="44.8397308" lon="7.9452812"><ele>354.0</ele><time>2026-04-18T13:30:53.917Z</time></trkpt><trkpt lat="44.8398189" lon="7.9451238"><ele>354.0</ele><time>2026-04-18T13:30:54.917Z</time></trkpt><trkpt lat="44.839914" lon="7.944944"><ele>354.0</ele><time>2026-04-18T13:30:55.916Z</time></trkpt><trkpt lat="44.8400109" lon="7.9447619"><ele>354.0</ele><time>2026-04-18T13:30:56.917Z</time></trkpt><trkpt lat="44.8401125" lon="7.9445813"><ele>352.6666666666667</ele><time>2026-04-18T13:30:57.917Z</time></trkpt><trkpt lat="44.8402144" lon="7.9443901"><ele>351.33333333333337</ele><time>2026-04-18T13:30:58.917Z</time></trkpt><trkpt lat="44.8403125" lon="7.94419"><ele>350.0</ele><time>2026-04-18T13:30:59.917Z</time></trkpt><trkpt lat="44.8403959" lon="7.9439906"><ele>349.5</ele><time>2026-04-18T13:31:00.917Z</time></trkpt><trkpt lat="44.8404679" lon="7.9438161"><ele>349.0</ele><time>2026-04-18T13:31:01.916Z</time></trkpt><trkpt lat="44.8405398" lon="7.9436768"><ele>348.5</ele><time>2026-04-18T13:31:02.917Z</time></trkpt><trkpt lat="44.840628" lon="7.943571"><ele>348.0</ele><time>2026-04-18T13:31:03.916Z</time></trkpt><trkpt lat="44.8407505" lon="7.9434793"><ele>348.0</ele><time>2026-04-18T13:31:04.917Z</time></trkpt><trkpt lat="44.840889" lon="7.9433964"><ele>348.0</ele><time>2026-04-18T13:31:05.917Z</time></trkpt><trkpt lat="44.841037" lon="7.9433239"><ele>348.0</ele><time>2026-04-18T13:31:06.916Z</time></trkpt><trkpt lat="44.8411845" lon="7.9432651"><ele>348.0</ele><time>2026-04-18T13:31:07.917Z</time></trkpt><trkpt lat="44.8413125" lon="7.9431903"><ele>348.0</ele><time>2026-04-18T13:31:08.917Z</time></trkpt><trkpt lat="44.8414039" lon="7.9430891"><ele>348.0</ele><time>2026-04-18T13:31:09.917Z</time></trkpt><trkpt lat="44.8414779" lon="7.9429585"><ele>348.0</ele><time>2026-04-18T13:31:10.916Z</time></trkpt><trkpt lat="44.8415286" lon="7.9427893"><ele>348.0</ele><time>2026-04-18T13:31:11.916Z</time></trkpt><trkpt lat="44.8415726" lon="7.9426075"><ele>348.0</ele><time>2026-04-18T13:31:12.917Z</time></trkpt><trkpt lat="44.8416274" lon="7.9424531"><ele>348.0</ele><time>2026-04-18T13:31:13.916Z</time></trkpt><trkpt lat="44.8416988" lon="7.9423405"><ele>348.0</ele><time>2026-04-18T13:31:14.917Z</time></trkpt><trkpt lat="44.8417966" lon="7.9422566"><ele>347.5</ele><time>2026-04-18T13:31:15.917Z</time></trkpt><trkpt lat="44.841924" lon="7.9421938"><ele>347.0</ele><time>2026-04-18T13:31:16.916Z</time></trkpt><trkpt lat="44.8420674" lon="7.9421388"><ele>346.5</ele><time>2026-04-18T13:31:17.916Z</time></trkpt><trkpt lat="44.8422135" lon="7.9420598"><ele>346.0</ele><time>2026-04-18T13:31:18.916Z</time></trkpt><trkpt lat="44.842354" lon="7.9419556"><ele>346.0</ele><time>2026-04-18T13:31:19.917Z</time></trkpt><trkpt lat="44.8424936" lon="7.941814"><ele>346.0</ele><time>2026-04-18T13:31:20.917Z</time></trkpt><trkpt lat="44.8426222" lon="7.9416615"><ele>346.0</ele><time>2026-04-18T13:31:21.917Z</time></trkpt><trkpt lat="44.8427506" lon="7.9415136"><ele>347.3333333333333</ele><time>2026-04-18T13:31:22.917Z</time></trkpt><trkpt lat="44.8428866" lon="7.9413787"><ele>348.6666666666667</ele><time>2026-04-18T13:31:23.917Z</time></trkpt><trkpt lat="44.8430259" lon="7.9412647"><ele>350.0</ele><time>2026-04-18T13:31:24.917Z</time></trkpt><trkpt lat="44.8431542" lon="7.9411739"><ele>350.0</ele><time>2026-04-18T13:31:25.917Z</time></trkpt><trkpt lat="44.8432703" lon="7.9410979"><ele>350.0</ele><time>2026-04-18T13:31:26.916Z</time></trkpt><trkpt lat="44.843368" lon="7.9410181"><ele>350.0</ele><time>2026-04-18T13:31:27.917Z</time></trkpt><trkpt lat="44.8434474" lon="7.9409226"><ele>350.0</ele><time>2026-04-18T13:31:28.917Z</time></trkpt><trkpt lat="44.8435117" lon="7.9408013"><ele>349.8</ele><time>2026-04-18T13:31:29.917Z</time></trkpt><trkpt lat="44.8435483" lon="7.9406667"><ele>349.6</ele><time>2026-04-18T13:31:30.917Z</time></trkpt><trkpt lat="44.8435517" lon="7.9405383"><ele>349.4</ele><time>2026-04-18T13:31:31.917Z</time></trkpt><trkpt lat="44.843525" lon="7.94042"><ele>349.2</ele><time>2026-04-18T13:31:32.917Z</time></trkpt><trkpt lat="44.8434467" lon="7.9403083"><ele>349.0</ele><time>2026-04-18T13:31:33.917Z</time></trkpt><trkpt lat="44.8433567" lon="7.9401983"><ele>348.75</ele><time>2026-04-18T13:31:34.917Z</time></trkpt><trkpt lat="44.8432867" lon="7.9400917"><ele>348.5</ele><time>2026-04-18T13:31:35.916Z</time></trkpt><trkpt lat="44.8432367" lon="7.93997"><ele>348.25</ele><time>2026-04-18T13:31:36.916Z</time></trkpt><trkpt lat="44.843215" lon="7.9398133"><ele>348.0</ele><time>2026-04-18T13:31:37.916Z</time></trkpt><trkpt lat="44.8432067" lon="7.9396167"><ele>347.6666666666667</ele><time>2026-04-18T13:31:38.917Z</time></trkpt><trkpt lat="44.8431983" lon="7.9394067"><ele>347.33333333333337</ele><time>2026-04-18T13:31:39.917Z</time></trkpt><trkpt lat="44.8431783" lon="7.9391933"><ele>347.0</ele><time>2026-04-18T13:31:40.917Z</time></trkpt><trkpt lat="44.8431283" lon="7.9389767"><ele>347.0</ele><time>2026-04-18T13:31:41.916Z</time></trkpt><trkpt lat="44.8430583" lon="7.9387633"><ele>347.0</ele><time>2026-04-18T13:31:42.917Z</time></trkpt><trkpt lat="44.842985" lon="7.9385583"><ele>347.0</ele><time>2026-04-18T13:31:43.917Z</time></trkpt><trkpt lat="44.8429233" lon="7.9383533"><ele>347.75</ele><time>2026-04-18T13:31:44.917Z</time></trkpt><trkpt lat="44.84287" lon="7.9381533"><ele>348.5</ele><time>2026-04-18T13:31:45.917Z</time></trkpt><trkpt lat="44.842825" lon="7.937965"><ele>349.25</ele><time>2026-04-18T13:31:46.917Z</time></trkpt><trkpt lat="44.8428033" lon="7.93778"><ele>350.0</ele><time>2026-04-18T13:31:47.917Z</time></trkpt><trkpt lat="44.8428" lon="7.937595"><ele>349.0</ele><time>2026-04-18T13:31:48.917Z</time></trkpt><trkpt lat="44.8428283" lon="7.93741"><ele>348.0</ele><time>2026-04-18T13:31:49.916Z</time></trkpt><trkpt lat="44.8428667" lon="7.9372083"><ele>347.0</ele><time>2026-04-18T13:31:50.917Z</time></trkpt><trkpt lat="44.84288" lon="7.9369767"><ele>346.0</ele><time>2026-04-18T13:31:51.917Z</time></trkpt><trkpt lat="44.8428783" lon="7.93673"><ele>346.3333333333333</ele><time>2026-04-18T13:31:52.916Z</time></trkpt><trkpt lat="44.8428667" lon="7.936495"><ele>346.6666666666667</ele><time>2026-04-18T13:31:53.917Z</time></trkpt><trkpt lat="44.8428633" lon="7.936275"><ele>347.0</ele><time>2026-04-18T13:31:54.917Z</time></trkpt><trkpt lat="44.842855" lon="7.9360483"><ele>347.5</ele><time>2026-04-18T13:31:55.916Z</time></trkpt><trkpt lat="44.84285" lon="7.93583"><ele>348.0</ele><time>2026-04-18T13:31:56.917Z</time></trkpt><trkpt lat="44.8428433" lon="7.9356333"><ele>348.5</ele><time>2026-04-18T13:31:57.917Z</time></trkpt><trkpt lat="44.8428433" lon="7.9354617"><ele>349.0</ele><time>2026-04-18T13:31:58.917Z</time></trkpt><trkpt lat="44.8428433" lon="7.9353033"><ele>349.0</ele><time>2026-04-18T13:31:59.917Z</time></trkpt><trkpt lat="44.8428417" lon="7.935175"><ele>349.0</ele><time>2026-04-18T13:32:00.916Z</time></trkpt><trkpt lat="44.8428367" lon="7.9350817"><ele>349.0</ele><time>2026-04-18T13:32:01.917Z</time></trkpt><trkpt lat="44.8428283" lon="7.9349817"><ele>349.0</ele><time>2026-04-18T13:32:03.917Z</time></trkpt><trkpt lat="44.8428917" lon="7.9349517"><ele>349.0</ele><time>2026-04-18T13:32:10.917Z</time></trkpt><trkpt lat="44.8430117" lon="7.93497"><ele>349.0</ele><time>2026-04-18T13:32:12.917Z</time></trkpt><trkpt lat="44.8430867" lon="7.9349733"><ele>348.5</ele><time>2026-04-18T13:32:13.917Z</time></trkpt><trkpt lat="44.8431617" lon="7.9349783"><ele>348.0</ele><time>2026-04-18T13:32:14.917Z</time></trkpt><trkpt lat="44.8432417" lon="7.9349833"><ele>347.5</ele><time>2026-04-18T13:32:15.917Z</time></trkpt><trkpt lat="44.84332" lon="7.9349817"><ele>347.0</ele><time>2026-04-18T13:32:16.917Z</time></trkpt><trkpt lat="44.843405" lon="7.9349883"><ele>346.5</ele><time>2026-04-18T13:32:17.916Z</time></trkpt><trkpt lat="44.8434917" lon="7.9349983"><ele>346.0</ele><time>2026-04-18T13:32:18.917Z</time></trkpt><trkpt lat="44.84357" lon="7.9350033"><ele>346.0</ele><time>2026-04-18T13:32:19.917Z</time></trkpt><trkpt lat="44.843655" lon="7.9349983"><ele>346.0</ele><time>2026-04-18T13:32:20.916Z</time></trkpt><trkpt lat="44.8437383" lon="7.93498"><ele>346.0</ele><time>2026-04-18T13:32:21.917Z</time></trkpt><trkpt lat="44.843815" lon="7.9349667"><ele>346.0</ele><time>2026-04-18T13:32:22.917Z</time></trkpt><trkpt lat="44.8438983" lon="7.9349533"><ele>346.0</ele><time>2026-04-18T13:32:23.916Z</time></trkpt><trkpt lat="44.8439817" lon="7.9349567"><ele>346.0</ele><time>2026-04-18T13:32:24.917Z</time></trkpt><trkpt lat="44.844065" lon="7.9349783"><ele>346.0</ele><time>2026-04-18T13:32:25.916Z</time></trkpt><trkpt lat="44.844145" lon="7.93501"><ele>346.0</ele><time>2026-04-18T13:32:26.917Z</time></trkpt><trkpt lat="44.844215" lon="7.935025"><ele>346.0</ele><time>2026-04-18T13:32:27.917Z</time></trkpt><trkpt lat="44.84428" lon="7.9350333"><ele>346.0</ele><time>2026-04-18T13:32:28.916Z</time></trkpt><trkpt lat="44.8443967" lon="7.9350217"><ele>346.0</ele><time>2026-04-18T13:32:30.917Z</time></trkpt><trkpt lat="44.8445283" lon="7.9349567"><ele>346.66666666666663</ele><time>2026-04-18T13:32:32.917Z</time></trkpt><trkpt lat="44.8446117" lon="7.9349233"><ele>347.3333333333333</ele><time>2026-04-18T13:32:33.917Z</time></trkpt><trkpt lat="44.8446967" lon="7.9349"><ele>348.0</ele><time>2026-04-18T13:32:34.917Z</time></trkpt><trkpt lat="44.8447733" lon="7.9348917"><ele>348.6666666666667</ele><time>2026-04-18T13:32:35.916Z</time></trkpt><trkpt lat="44.8448367" lon="7.934895"><ele>349.33333333333337</ele><time>2026-04-18T13:32:36.917Z</time></trkpt><trkpt lat="44.8449367" lon="7.9348933"><ele>350.0</ele><time>2026-04-18T13:32:38.917Z</time></trkpt><trkpt lat="44.8450483" lon="7.9348667"><ele>350.0</ele><time>2026-04-18T13:32:40.917Z</time></trkpt><trkpt lat="44.8451183" lon="7.9348167"><ele>350.0</ele><time>2026-04-18T13:32:41.916Z</time></trkpt><trkpt lat="44.845185" lon="7.934765"><ele>350.0</ele><time>2026-04-18T13:32:42.917Z</time></trkpt><trkpt lat="44.845255" lon="7.9347233"><ele>350.0</ele><time>2026-04-18T13:32:43.917Z</time></trkpt><trkpt lat="44.8453367" lon="7.9346817"><ele>350.0</ele><time>2026-04-18T13:32:44.916Z</time></trkpt><trkpt lat="44.8454083" lon="7.9346533"><ele>350.0</ele><time>2026-04-18T13:32:45.917Z</time></trkpt><trkpt lat="44.8454817" lon="7.9346333"><ele>348.83333333333337</ele><time>2026-04-18T13:32:46.917Z</time></trkpt><trkpt lat="44.8455467" lon="7.9346483"><ele>347.6666666666667</ele><time>2026-04-18T13:32:47.917Z</time></trkpt><trkpt lat="44.8456567" lon="7.9347367"><ele>346.5</ele><time>2026-04-18T13:32:49.917Z</time></trkpt><trkpt lat="44.8457117" lon="7.9347833"><ele>345.3333333333333</ele><time>2026-04-18T13:32:50.917Z</time></trkpt><trkpt lat="44.84578" lon="7.9348933"><ele>344.16666666666663</ele><time>2026-04-18T13:32:52.917Z</time></trkpt><trkpt lat="44.84582" lon="7.9349817"><ele>343.0</ele><time>2026-04-18T13:32:53.916Z</time></trkpt><trkpt lat="44.8458783" lon="7.93508"><ele>342.79999999999995</ele><time>2026-04-18T13:32:54.917Z</time></trkpt><trkpt lat="44.8459517" lon="7.935185"><ele>342.6</ele><time>2026-04-18T13:32:55.917Z</time></trkpt><trkpt lat="44.8460183" lon="7.9352733"><ele>342.4</ele><time>2026-04-18T13:32:56.917Z</time></trkpt><trkpt lat="44.8460783" lon="7.9353483"><ele>342.20000000000005</ele><time>2026-04-18T13:32:57.916Z</time></trkpt><trkpt lat="44.8461683" lon="7.935465"><ele>342.0</ele><time>2026-04-18T13:32:59.917Z</time></trkpt><trkpt lat="44.8462233" lon="7.93556"><ele>342.0</ele><time>2026-04-18T13:33:01.917Z</time></trkpt><trkpt lat="44.84618" lon="7.9354883"><ele>342.0</ele><time>2026-04-18T13:33:12.917Z</time></trkpt><trkpt lat="44.8461133" lon="7.9354"><ele>342.0</ele><time>2026-04-18T13:33:15.916Z</time></trkpt><trkpt lat="44.8461333" lon="7.9355217"><ele>342.0</ele><time>2026-04-18T13:33:21.917Z</time></trkpt><trkpt lat="44.8461483" lon="7.9356217"><ele>342.0</ele><time>2026-04-18T13:33:23.917Z</time></trkpt><trkpt lat="44.8461033" lon="7.9357767"><ele>342.0</ele><time>2026-04-18T13:33:25.916Z</time></trkpt><trkpt lat="44.84607" lon="7.9358733"><ele>341.6666666666667</ele><time>2026-04-18T13:33:26.917Z</time></trkpt><trkpt lat="44.8460317" lon="7.93597"><ele>341.3333333333333</ele><time>2026-04-18T13:33:27.917Z</time></trkpt><trkpt lat="44.8460017" lon="7.9360533"><ele>341.0</ele><time>2026-04-18T13:33:28.917Z</time></trkpt><trkpt lat="44.8459767" lon="7.9361417"><ele>340.66666666666663</ele><time>2026-04-18T13:33:29.917Z</time></trkpt><trkpt lat="44.845955" lon="7.93632"><ele>340.3333333333333</ele><time>2026-04-18T13:33:31.917Z</time></trkpt><trkpt lat="44.845955" lon="7.93643"><ele>340.0</ele><time>2026-04-18T13:33:32.916Z</time></trkpt><trkpt lat="44.8459617" lon="7.9365533"><ele>340.0</ele><time>2026-04-18T13:33:33.917Z</time></trkpt><trkpt lat="44.84597" lon="7.9366617"><ele>340.0</ele><time>2026-04-18T13:33:34.916Z</time></trkpt><trkpt lat="44.8459733" lon="7.9367633"><ele>340.0</ele><time>2026-04-18T13:33:35.916Z</time></trkpt><trkpt lat="44.8459717" lon="7.93686"><ele>340.0</ele><time>2026-04-18T13:33:36.915Z</time></trkpt><trkpt lat="44.8459717" lon="7.9370133"><ele>340.0</ele><time>2026-04-18T13:33:38.915Z</time></trkpt><trkpt lat="44.84601" lon="7.937185"><ele>338.3333333333333</ele><time>2026-04-18T13:33:40.915Z</time></trkpt><trkpt lat="44.84602" lon="7.93729"><ele>336.66666666666663</ele><time>2026-04-18T13:33:41.916Z</time></trkpt><trkpt lat="44.84602" lon="7.937405"><ele>335.0</ele><time>2026-04-18T13:33:42.915Z</time></trkpt><trkpt lat="44.8460233" lon="7.93752"><ele>333.3333333333333</ele><time>2026-04-18T13:33:43.916Z</time></trkpt><trkpt lat="44.8460383" lon="7.9376217"><ele>331.6666666666667</ele><time>2026-04-18T13:33:44.916Z</time></trkpt><trkpt lat="44.8460567" lon="7.9377183"><ele>330.0</ele><time>2026-04-18T13:33:45.915Z</time></trkpt><trkpt lat="44.8460633" lon="7.9378517"><ele>329.8333333333333</ele><time>2026-04-18T13:33:47.915Z</time></trkpt><trkpt lat="44.846025" lon="7.937935"><ele>329.6666666666667</ele><time>2026-04-18T13:33:49.916Z</time></trkpt><trkpt lat="44.84594" lon="7.9379967"><ele>329.5</ele><time>2026-04-18T13:33:51.916Z</time></trkpt><trkpt lat="44.8458783" lon="7.93803"><ele>329.33333333333337</ele><time>2026-04-18T13:33:52.916Z</time></trkpt><trkpt lat="44.8458017" lon="7.9380833"><ele>329.1666666666667</ele><time>2026-04-18T13:33:53.915Z</time></trkpt><trkpt lat="44.8457267" lon="7.9381567"><ele>329.0</ele><time>2026-04-18T13:33:54.915Z</time></trkpt><trkpt lat="44.8456583" lon="7.9382267"><ele>329.0</ele><time>2026-04-18T13:33:55.915Z</time></trkpt><trkpt lat="44.8456117" lon="7.9382933"><ele>329.0</ele><time>2026-04-18T13:33:56.916Z</time></trkpt><trkpt lat="44.8455717" lon="7.93837"><ele>329.0</ele><time>2026-04-18T13:33:57.916Z</time></trkpt><trkpt lat="44.845545" lon="7.9384683"><ele>329.0</ele><time>2026-04-18T13:33:58.916Z</time></trkpt><trkpt lat="44.845515" lon="7.938585"><ele>329.0</ele><time>2026-04-18T13:33:59.916Z</time></trkpt><trkpt lat="44.8454983" lon="7.9387217"><ele>329.0</ele><time>2026-04-18T13:34:00.916Z</time></trkpt><trkpt lat="44.8454917" lon="7.9388467"><ele>329.83333333333337</ele><time>2026-04-18T13:34:01.916Z</time></trkpt><trkpt lat="44.8455" lon="7.9389617"><ele>330.6666666666667</ele><time>2026-04-18T13:34:02.915Z</time></trkpt><trkpt lat="44.845535" lon="7.9390617"><ele>331.5</ele><time>2026-04-18T13:34:03.916Z</time></trkpt><trkpt lat="44.8455867" lon="7.93912"><ele>332.3333333333333</ele><time>2026-04-18T13:34:04.916Z</time></trkpt><trkpt lat="44.845645" lon="7.9392483"><ele>333.16666666666663</ele><time>2026-04-18T13:34:06.915Z</time></trkpt><trkpt lat="44.8456633" lon="7.93935"><ele>334.0</ele><time>2026-04-18T13:34:07.916Z</time></trkpt><trkpt lat="44.8456917" lon="7.9394617"><ele>335.2</ele><time>2026-04-18T13:34:08.915Z</time></trkpt><trkpt lat="44.8457417" lon="7.9395717"><ele>336.4</ele><time>2026-04-18T13:34:09.916Z</time></trkpt><trkpt lat="44.84579" lon="7.9396667"><ele>337.6</ele><time>2026-04-18T13:34:10.916Z</time></trkpt><trkpt lat="44.8458433" lon="7.9397267"><ele>338.8</ele><time>2026-04-18T13:34:11.915Z</time></trkpt><trkpt lat="44.8459533" lon="7.939725"><ele>340.0</ele><time>2026-04-18T13:34:13.915Z</time></trkpt><trkpt lat="44.8460333" lon="7.9396383"><ele>340.8</ele><time>2026-04-18T13:34:15.915Z</time></trkpt><trkpt lat="44.8460733" lon="7.9394767"><ele>341.6</ele><time>2026-04-18T13:34:17.915Z</time></trkpt><trkpt lat="44.8461233" lon="7.9393267"><ele>342.4</ele><time>2026-04-18T13:34:19.916Z</time></trkpt><trkpt lat="44.846205" lon="7.9392367"><ele>343.2</ele><time>2026-04-18T13:34:21.916Z</time></trkpt><trkpt lat="44.846235" lon="7.9393517"><ele>344.0</ele><time>2026-04-18T13:34:24.916Z</time></trkpt><trkpt lat="44.84627" lon="7.9394617"><ele>344.0</ele><time>2026-04-18T13:34:26.916Z</time></trkpt><trkpt lat="44.846365" lon="7.9395617"><ele>344.0</ele><time>2026-04-18T13:34:28.916Z</time></trkpt><trkpt lat="44.8464167" lon="7.9396133"><ele>344.0</ele><time>2026-04-18T13:34:29.916Z</time></trkpt><trkpt lat="44.8464967" lon="7.939765"><ele>344.0</ele><time>2026-04-18T13:34:31.915Z</time></trkpt><trkpt lat="44.8465167" lon="7.93987"><ele>344.0</ele><time>2026-04-18T13:34:32.916Z</time></trkpt><trkpt lat="44.8465317" lon="7.9399933"><ele>344.0</ele><time>2026-04-18T13:34:33.916Z</time></trkpt><trkpt lat="44.8465233" lon="7.9401267"><ele>344.0</ele><time>2026-04-18T13:34:34.916Z</time></trkpt><trkpt lat="44.8465167" lon="7.9402633"><ele>344.0</ele><time>2026-04-18T13:34:35.916Z</time></trkpt><trkpt lat="44.8465033" lon="7.9403567"><ele>344.0</ele><time>2026-04-18T13:34:36.916Z</time></trkpt><trkpt lat="44.8466283" lon="7.9403067"><ele>344.0</ele><time>2026-04-18T13:34:41.915Z</time></trkpt><trkpt lat="44.8467183" lon="7.9402"><ele>343.6666666666667</ele><time>2026-04-18T13:34:42.916Z</time></trkpt><trkpt lat="44.846805" lon="7.9400967"><ele>343.33333333333337</ele><time>2026-04-18T13:34:43.916Z</time></trkpt><trkpt lat="44.8468817" lon="7.9400117"><ele>343.0</ele><time>2026-04-18T13:34:44.916Z</time></trkpt><trkpt lat="44.8469483" lon="7.9399567"><ele>342.6666666666667</ele><time>2026-04-18T13:34:45.916Z</time></trkpt><trkpt lat="44.847015" lon="7.93992"><ele>342.3333333333333</ele><time>2026-04-18T13:34:46.916Z</time></trkpt><trkpt lat="44.8470783" lon="7.9398883"><ele>342.0</ele><time>2026-04-18T13:34:47.915Z</time></trkpt><trkpt lat="44.8471533" lon="7.9398583"><ele>342.0</ele><time>2026-04-18T13:34:48.915Z</time></trkpt><trkpt lat="44.8472317" lon="7.939825"><ele>342.0</ele><time>2026-04-18T13:34:49.916Z</time></trkpt><trkpt lat="44.8472967" lon="7.9397967"><ele>342.0</ele><time>2026-04-18T13:34:50.916Z</time></trkpt><trkpt lat="44.847355" lon="7.9397517"><ele>342.0</ele><time>2026-04-18T13:34:51.915Z</time></trkpt><trkpt lat="44.847405" lon="7.9396833"><ele>342.0</ele><time>2026-04-18T13:34:52.916Z</time></trkpt><trkpt lat="44.847445" lon="7.9395917"><ele>342.0</ele><time>2026-04-18T13:34:53.915Z</time></trkpt><trkpt lat="44.8474933" lon="7.9394783"><ele>342.0</ele><time>2026-04-18T13:34:54.916Z</time></trkpt><trkpt lat="44.8475517" lon="7.9393633"><ele>342.0</ele><time>2026-04-18T13:34:55.916Z</time></trkpt><trkpt lat="44.8476167" lon="7.9392567"><ele>342.0</ele><time>2026-04-18T13:34:56.916Z</time></trkpt><trkpt lat="44.8476833" lon="7.9391567"><ele>342.0</ele><time>2026-04-18T13:34:57.916Z</time></trkpt><trkpt lat="44.84773" lon="7.9390383"><ele>342.0</ele><time>2026-04-18T13:34:58.915Z</time></trkpt><trkpt lat="44.8477667" lon="7.93892"><ele>340.6</ele><time>2026-04-18T13:34:59.916Z</time></trkpt><trkpt lat="44.8477967" lon="7.938825"><ele>339.20000000000005</ele><time>2026-04-18T13:35:00.915Z</time></trkpt><trkpt lat="44.84787" lon="7.938725"><ele>337.8</ele><time>2026-04-18T13:35:02.915Z</time></trkpt><trkpt lat="44.8479867" lon="7.9387267"><ele>336.4</ele><time>2026-04-18T13:35:04.916Z</time></trkpt><trkpt lat="44.8480733" lon="7.9387483"><ele>335.0</ele><time>2026-04-18T13:35:05.916Z</time></trkpt><trkpt lat="44.848155" lon="7.93878"><ele>335.0</ele><time>2026-04-18T13:35:06.915Z</time></trkpt><trkpt lat="44.8482267" lon="7.93882"><ele>335.0</ele><time>2026-04-18T13:35:07.915Z</time></trkpt><trkpt lat="44.848295" lon="7.93885"><ele>335.0</ele><time>2026-04-18T13:35:08.916Z</time></trkpt><trkpt lat="44.8483467" lon="7.9389567"><ele>335.0</ele><time>2026-04-18T13:35:10.916Z</time></trkpt><trkpt lat="44.8483533" lon="7.9390517"><ele>335.0</ele><time>2026-04-18T13:35:11.916Z</time></trkpt><trkpt lat="44.8483617" lon="7.939155"><ele>335.0</ele><time>2026-04-18T13:35:12.915Z</time></trkpt><trkpt lat="44.8483917" lon="7.9392633"><ele>334.2</ele><time>2026-04-18T13:35:13.916Z</time></trkpt><trkpt lat="44.84843" lon="7.93936"><ele>333.4</ele><time>2026-04-18T13:35:14.916Z</time></trkpt><trkpt lat="44.848455" lon="7.93945"><ele>332.6</ele><time>2026-04-18T13:35:15.916Z</time></trkpt><trkpt lat="44.8485333" lon="7.9395533"><ele>331.8</ele><time>2026-04-18T13:35:17.915Z</time></trkpt><trkpt lat="44.8486683" lon="7.9395633"><ele>331.0</ele><time>2026-04-18T13:35:19.916Z</time></trkpt><trkpt lat="44.848765" lon="7.9395283"><ele>328.8333333333333</ele><time>2026-04-18T13:35:20.916Z</time></trkpt><trkpt lat="44.8488533" lon="7.93949"><ele>326.66666666666663</ele><time>2026-04-18T13:35:21.916Z</time></trkpt><trkpt lat="44.84895" lon="7.9394483"><ele>324.5</ele><time>2026-04-18T13:35:22.916Z</time></trkpt><trkpt lat="44.8490267" lon="7.9393917"><ele>322.3333333333333</ele><time>2026-04-18T13:35:23.916Z</time></trkpt><trkpt lat="44.8490917" lon="7.9393517"><ele>320.1666666666667</ele><time>2026-04-18T13:35:24.915Z</time></trkpt><trkpt lat="44.8491517" lon="7.9393167"><ele>318.0</ele><time>2026-04-18T13:35:25.915Z</time></trkpt><trkpt lat="44.8492167" lon="7.9392983"><ele>318.0</ele><time>2026-04-18T13:35:26.916Z</time></trkpt><trkpt lat="44.849285" lon="7.939295"><ele>318.0</ele><time>2026-04-18T13:35:27.916Z</time></trkpt><trkpt lat="44.8493617" lon="7.93929"><ele>318.0</ele><time>2026-04-18T13:35:28.916Z</time></trkpt><trkpt lat="44.8494417" lon="7.9392767"><ele>318.0</ele><time>2026-04-18T13:35:29.915Z</time></trkpt><trkpt lat="44.8495217" lon="7.9392367"><ele>318.0</ele><time>2026-04-18T13:35:30.916Z</time></trkpt><trkpt lat="44.849595" lon="7.9391967"><ele>318.0</ele><time>2026-04-18T13:35:31.915Z</time></trkpt><trkpt lat="44.8496783" lon="7.9391783"><ele>318.0</ele><time>2026-04-18T13:35:32.915Z</time></trkpt><trkpt lat="44.8497567" lon="7.9391817"><ele>318.0</ele><time>2026-04-18T13:35:33.916Z</time></trkpt><trkpt lat="44.8498533" lon="7.9391783"><ele>318.0</ele><time>2026-04-18T13:35:35.916Z</time></trkpt><trkpt lat="44.8498383" lon="7.939065"><ele>318.0</ele><time>2026-04-18T13:35:39.916Z</time></trkpt><trkpt lat="44.8497917" lon="7.9389917"><ele>318.0</ele><time>2026-04-18T13:35:42.916Z</time></trkpt><trkpt lat="44.84977" lon="7.9389033"><ele>318.0</ele><time>2026-04-18T13:35:45.916Z</time></trkpt><trkpt lat="44.8498" lon="7.9387883"><ele>318.0</ele><time>2026-04-18T13:35:48.916Z</time></trkpt><trkpt lat="44.8498333" lon="7.9386867"><ele>318.0</ele><time>2026-04-18T13:35:50.916Z</time></trkpt><trkpt lat="44.849805" lon="7.9385967"><ele>318.0</ele><time>2026-04-18T13:35:52.916Z</time></trkpt><trkpt lat="44.8497267" lon="7.9384917"><ele>318.0</ele><time>2026-04-18T13:35:54.915Z</time></trkpt><trkpt lat="44.8496783" lon="7.9384283"><ele>318.0</ele><time>2026-04-18T13:35:55.916Z</time></trkpt><trkpt lat="44.849605" lon="7.9383133"><ele>318.0</ele><time>2026-04-18T13:35:57.915Z</time></trkpt><trkpt lat="44.8495117" lon="7.9381933"><ele>318.8</ele><time>2026-04-18T13:35:59.916Z</time></trkpt><trkpt lat="44.8494433" lon="7.9380983"><ele>319.6</ele><time>2026-04-18T13:36:01.916Z</time></trkpt><trkpt lat="44.849455" lon="7.9379917"><ele>320.40000000000003</ele><time>2026-04-18T13:36:04.916Z</time></trkpt><trkpt lat="44.8495117" lon="7.9379433"><ele>321.20000000000005</ele><time>2026-04-18T13:36:06.916Z</time></trkpt><trkpt lat="44.849595" lon="7.9378933"><ele>322.0</ele><time>2026-04-18T13:36:08.916Z</time></trkpt><trkpt lat="44.8497017" lon="7.9378017"><ele>322.0</ele><time>2026-04-18T13:36:10.916Z</time></trkpt><trkpt lat="44.84977" lon="7.9377483"><ele>322.0</ele><time>2026-04-18T13:36:11.916Z</time></trkpt><trkpt lat="44.8498383" lon="7.937695"><ele>322.0</ele><time>2026-04-18T13:36:12.915Z</time></trkpt><trkpt lat="44.84989" lon="7.937635"><ele>322.0</ele><time>2026-04-18T13:36:13.916Z</time></trkpt><trkpt lat="44.8499483" lon="7.937505"><ele>322.0</ele><time>2026-04-18T13:36:15.916Z</time></trkpt><trkpt lat="44.84993" lon="7.9373867"><ele>322.0</ele><time>2026-04-18T13:36:18.916Z</time></trkpt><trkpt lat="44.8498833" lon="7.9372817"><ele>323.66666666666663</ele><time>2026-04-18T13:36:20.915Z</time></trkpt><trkpt lat="44.84985" lon="7.9372017"><ele>325.3333333333333</ele><time>2026-04-18T13:36:21.916Z</time></trkpt><trkpt lat="44.849805" lon="7.9370967"><ele>327.0</ele><time>2026-04-18T13:36:22.916Z</time></trkpt><trkpt lat="44.8497583" lon="7.9369917"><ele>328.6666666666667</ele><time>2026-04-18T13:36:23.916Z</time></trkpt><trkpt lat="44.8497133" lon="7.9368917"><ele>330.33333333333337</ele><time>2026-04-18T13:36:24.915Z</time></trkpt><trkpt lat="44.849655" lon="7.9367817"><ele>332.0</ele><time>2026-04-18T13:36:25.916Z</time></trkpt><trkpt lat="44.8495967" lon="7.9366733"><ele>332.33333333333337</ele><time>2026-04-18T13:36:26.915Z</time></trkpt><trkpt lat="44.8495533" lon="7.9365667"><ele>332.6666666666667</ele><time>2026-04-18T13:36:27.916Z</time></trkpt><trkpt lat="44.84951" lon="7.936455"><ele>333.0</ele><time>2026-04-18T13:36:28.916Z</time></trkpt><trkpt lat="44.84947" lon="7.9363367"><ele>333.3333333333333</ele><time>2026-04-18T13:36:29.916Z</time></trkpt><trkpt lat="44.8494367" lon="7.9362417"><ele>333.66666666666663</ele><time>2026-04-18T13:36:30.916Z</time></trkpt><trkpt lat="44.84942" lon="7.9361417"><ele>334.0</ele><time>2026-04-18T13:36:31.916Z</time></trkpt><trkpt lat="44.849405" lon="7.9360133"><ele>334.5</ele><time>2026-04-18T13:36:32.916Z</time></trkpt><trkpt lat="44.849405" lon="7.93588"><ele>335.0</ele><time>2026-04-18T13:36:33.916Z</time></trkpt><trkpt lat="44.8494067" lon="7.9357483"><ele>335.5</ele><time>2026-04-18T13:36:34.916Z</time></trkpt><trkpt lat="44.8493983" lon="7.9356367"><ele>336.0</ele><time>2026-04-18T13:36:35.916Z</time></trkpt><trkpt lat="44.8494" lon="7.935505"><ele>336.5</ele><time>2026-04-18T13:36:37.916Z</time></trkpt><trkpt lat="44.8494317" lon="7.9354267"><ele>337.0</ele><time>2026-04-18T13:36:39.916Z</time></trkpt><trkpt lat="44.8495283" lon="7.9353317"><ele>337.0</ele><time>2026-04-18T13:36:41.915Z</time></trkpt><trkpt lat="44.849625" lon="7.93522"><ele>337.0</ele><time>2026-04-18T13:36:43.916Z</time></trkpt><trkpt lat="44.8496717" lon="7.9351417"><ele>337.0</ele><time>2026-04-18T13:36:44.915Z</time></trkpt><trkpt lat="44.8497167" lon="7.9350667"><ele>337.0</ele><time>2026-04-18T13:36:45.916Z</time></trkpt><trkpt lat="44.849775" lon="7.9349983"><ele>337.0</ele><time>2026-04-18T13:36:46.916Z</time></trkpt><trkpt lat="44.8498467" lon="7.9349433"><ele>337.0</ele><time>2026-04-18T13:36:47.916Z</time></trkpt><trkpt lat="44.849925" lon="7.9348967"><ele>337.40000000000003</ele><time>2026-04-18T13:36:48.916Z</time></trkpt><trkpt lat="44.8500233" lon="7.9348683"><ele>337.8</ele><time>2026-04-18T13:36:49.916Z</time></trkpt><trkpt lat="44.8501467" lon="7.9348483"><ele>338.2</ele><time>2026-04-18T13:36:50.916Z</time></trkpt><trkpt lat="44.850245" lon="7.9348333"><ele>338.6</ele><time>2026-04-18T13:36:51.916Z</time></trkpt><trkpt lat="44.8503383" lon="7.9348167"><ele>339.0</ele><time>2026-04-18T13:36:52.916Z</time></trkpt><trkpt lat="44.850405" lon="7.9347933"><ele>339.0</ele><time>2026-04-18T13:36:53.915Z</time></trkpt><trkpt lat="44.8504667" lon="7.934655"><ele>339.0</ele><time>2026-04-18T13:36:55.916Z</time></trkpt><trkpt lat="44.8504783" lon="7.9345317"><ele>339.0</ele><time>2026-04-18T13:36:56.916Z</time></trkpt><trkpt lat="44.8504833" lon="7.9343967"><ele>339.0</ele><time>2026-04-18T13:36:57.916Z</time></trkpt><trkpt lat="44.8504883" lon="7.9342717"><ele>339.0</ele><time>2026-04-18T13:36:58.916Z</time></trkpt><trkpt lat="44.8504983" lon="7.9341533"><ele>338.5</ele><time>2026-04-18T13:36:59.916Z</time></trkpt><trkpt lat="44.8505217" lon="7.9340417"><ele>338.0</ele><time>2026-04-18T13:37:00.916Z</time></trkpt><trkpt lat="44.8505683" lon="7.9339383"><ele>337.5</ele><time>2026-04-18T13:37:01.916Z</time></trkpt><trkpt lat="44.8506133" lon="7.933845"><ele>337.0</ele><time>2026-04-18T13:37:02.915Z</time></trkpt><trkpt lat="44.8506517" lon="7.93377"><ele>336.5</ele><time>2026-04-18T13:37:03.916Z</time></trkpt><trkpt lat="44.8507033" lon="7.9336567"><ele>336.0</ele><time>2026-04-18T13:37:05.916Z</time></trkpt><trkpt lat="44.8506767" lon="7.93357"><ele>336.0</ele><time>2026-04-18T13:37:08.915Z</time></trkpt><trkpt lat="44.85063" lon="7.933505"><ele>336.0</ele><time>2026-04-18T13:37:10.916Z</time></trkpt><trkpt lat="44.850585" lon="7.9334217"><ele>336.0</ele><time>2026-04-18T13:37:12.916Z</time></trkpt><trkpt lat="44.8505433" lon="7.93332"><ele>336.0</ele><time>2026-04-18T13:37:14.915Z</time></trkpt><trkpt lat="44.8505133" lon="7.9332067"><ele>336.0</ele><time>2026-04-18T13:37:16.916Z</time></trkpt><trkpt lat="44.8504667" lon="7.9330967"><ele>336.0</ele><time>2026-04-18T13:37:18.915Z</time></trkpt><trkpt lat="44.85042" lon="7.9329633"><ele>335.4</ele><time>2026-04-18T13:37:20.916Z</time></trkpt><trkpt lat="44.8503983" lon="7.9328117"><ele>334.8</ele><time>2026-04-18T13:37:22.916Z</time></trkpt><trkpt lat="44.850345" lon="7.9326683"><ele>334.2</ele><time>2026-04-18T13:37:24.915Z</time></trkpt><trkpt lat="44.8502767" lon="7.93253"><ele>333.59999999999997</ele><time>2026-04-18T13:37:26.916Z</time></trkpt><trkpt lat="44.8502467" lon="7.9324383"><ele>333.0</ele><time>2026-04-18T13:37:27.916Z</time></trkpt><trkpt lat="44.8502033" lon="7.93235"><ele>332.5</ele><time>2026-04-18T13:37:28.916Z</time></trkpt><trkpt lat="44.8501533" lon="7.9322683"><ele>332.0</ele><time>2026-04-18T13:37:29.916Z</time></trkpt><trkpt lat="44.8501033" lon="7.9322017"><ele>331.5</ele><time>2026-04-18T13:37:30.915Z</time></trkpt><trkpt lat="44.8500517" lon="7.9321433"><ele>331.0</ele><time>2026-04-18T13:37:31.916Z</time></trkpt><trkpt lat="44.8499467" lon="7.93206"><ele>330.5</ele><time>2026-04-18T13:37:33.915Z</time></trkpt><trkpt lat="44.849855" lon="7.9319783"><ele>330.0</ele><time>2026-04-18T13:37:35.916Z</time></trkpt><trkpt lat="44.84978" lon="7.9319383"><ele>329.6</ele><time>2026-04-18T13:37:36.916Z</time></trkpt><trkpt lat="44.8497033" lon="7.9319"><ele>329.2</ele><time>2026-04-18T13:37:37.915Z</time></trkpt><trkpt lat="44.8496183" lon="7.9318583"><ele>328.79999999999995</ele><time>2026-04-18T13:37:38.916Z</time></trkpt><trkpt lat="44.8495283" lon="7.93181"><ele>328.4</ele><time>2026-04-18T13:37:39.916Z</time></trkpt><trkpt lat="44.849435" lon="7.9317617"><ele>328.0</ele><time>2026-04-18T13:37:40.915Z</time></trkpt><trkpt lat="44.84934" lon="7.9317133"><ele>325.59999999999997</ele><time>2026-04-18T13:37:41.916Z</time></trkpt><trkpt lat="44.84924" lon="7.9316483"><ele>323.2</ele><time>2026-04-18T13:37:42.915Z</time></trkpt><trkpt lat="44.84915" lon="7.9315917"><ele>320.8</ele><time>2026-04-18T13:37:43.916Z</time></trkpt><trkpt lat="44.8490683" lon="7.9315333"><ele>318.4</ele><time>2026-04-18T13:37:44.916Z</time></trkpt><trkpt lat="44.8489933" lon="7.9314733"><ele>316.0</ele><time>2026-04-18T13:37:45.916Z</time></trkpt><trkpt lat="44.84894" lon="7.9314233"><ele>316.0</ele><time>2026-04-18T13:37:46.916Z</time></trkpt><trkpt lat="44.8488817" lon="7.9313183"><ele>316.0</ele><time>2026-04-18T13:37:48.916Z</time></trkpt><trkpt lat="44.8488967" lon="7.9311717"><ele>316.0</ele><time>2026-04-18T13:37:50.916Z</time></trkpt><trkpt lat="44.8489117" lon="7.9310533"><ele>316.0</ele><time>2026-04-18T13:37:51.916Z</time></trkpt><trkpt lat="44.848925" lon="7.930915"><ele>316.0</ele><time>2026-04-18T13:37:52.916Z</time></trkpt><trkpt lat="44.8489483" lon="7.9307617"><ele>316.40000000000003</ele><time>2026-04-18T13:37:53.916Z</time></trkpt><trkpt lat="44.8489667" lon="7.93064"><ele>316.8</ele><time>2026-04-18T13:37:54.916Z</time></trkpt><trkpt lat="44.8489667" lon="7.9305367"><ele>317.20000000000005</ele><time>2026-04-18T13:37:55.916Z</time></trkpt><trkpt lat="44.8489617" lon="7.930375"><ele>317.6</ele><time>2026-04-18T13:37:57.915Z</time></trkpt><trkpt lat="44.8489567" lon="7.9302083"><ele>318.0</ele><time>2026-04-18T13:37:59.916Z</time></trkpt><trkpt lat="44.8489283" lon="7.9301067"><ele>317.6</ele><time>2026-04-18T13:38:00.916Z</time></trkpt><trkpt lat="44.8489" lon="7.9299917"><ele>317.20000000000005</ele><time>2026-04-18T13:38:01.916Z</time></trkpt><trkpt lat="44.848875" lon="7.9298883"><ele>316.8</ele><time>2026-04-18T13:38:02.916Z</time></trkpt><trkpt lat="44.8488617" lon="7.929735"><ele>316.40000000000003</ele><time>2026-04-18T13:38:04.916Z</time></trkpt><trkpt lat="44.8489383" lon="7.9295917"><ele>316.0</ele><time>2026-04-18T13:38:06.915Z</time></trkpt><trkpt lat="44.8489883" lon="7.9294533"><ele>316.0</ele><time>2026-04-18T13:38:08.915Z</time></trkpt><trkpt lat="44.8489917" lon="7.9292967"><ele>316.0</ele><time>2026-04-18T13:38:10.915Z</time></trkpt><trkpt lat="44.84898" lon="7.9291283"><ele>316.0</ele><time>2026-04-18T13:38:12.916Z</time></trkpt><trkpt lat="44.8489617" lon="7.9290217"><ele>316.0</ele><time>2026-04-18T13:38:13.916Z</time></trkpt><trkpt lat="44.8489583" lon="7.9289133"><ele>316.0</ele><time>2026-04-18T13:38:14.916Z</time></trkpt><trkpt lat="44.8489733" lon="7.9288083"><ele>316.0</ele><time>2026-04-18T13:38:15.916Z</time></trkpt><trkpt lat="44.8489917" lon="7.928715"><ele>316.0</ele><time>2026-04-18T13:38:16.916Z</time></trkpt><trkpt lat="44.8489933" lon="7.928565"><ele>316.0</ele><time>2026-04-18T13:38:18.916Z</time></trkpt><trkpt lat="44.8489733" lon="7.9284733"><ele>316.0</ele><time>2026-04-18T13:38:19.915Z</time></trkpt><trkpt lat="44.848925" lon="7.9283733"><ele>316.0</ele><time>2026-04-18T13:38:20.916Z</time></trkpt><trkpt lat="44.8488717" lon="7.9282767"><ele>316.0</ele><time>2026-04-18T13:38:21.916Z</time></trkpt><trkpt lat="44.8488233" lon="7.9281867"><ele>316.0</ele><time>2026-04-18T13:38:22.916Z</time></trkpt><trkpt lat="44.8487817" lon="7.9280983"><ele>316.0</ele><time>2026-04-18T13:38:23.916Z</time></trkpt><trkpt lat="44.8487517" lon="7.92799"><ele>316.0</ele><time>2026-04-18T13:38:24.915Z</time></trkpt><trkpt lat="44.8487167" lon="7.9278683"><ele>316.0</ele><time>2026-04-18T13:38:25.916Z</time></trkpt><trkpt lat="44.8486967" lon="7.9277283"><ele>316.0</ele><time>2026-04-18T13:38:26.916Z</time></trkpt><trkpt lat="44.84867" lon="7.9276"><ele>316.0</ele><time>2026-04-18T13:38:27.916Z</time></trkpt><trkpt lat="44.8486117" lon="7.9274567"><ele>316.6</ele><time>2026-04-18T13:38:28.916Z</time></trkpt><trkpt lat="44.848545" lon="7.9273233"><ele>317.20000000000005</ele><time>2026-04-18T13:38:29.916Z</time></trkpt><trkpt lat="44.8484933" lon="7.927195"><ele>317.79999999999995</ele><time>2026-04-18T13:38:30.915Z</time></trkpt><trkpt lat="44.8484567" lon="7.9270817"><ele>318.4</ele><time>2026-04-18T13:38:31.916Z</time></trkpt><trkpt lat="44.8484317" lon="7.9269767"><ele>319.0</ele><time>2026-04-18T13:38:32.916Z</time></trkpt><trkpt lat="44.8484117" lon="7.9268783"><ele>317.2</ele><time>2026-04-18T13:38:33.916Z</time></trkpt><trkpt lat="44.8483717" lon="7.9267883"><ele>315.4</ele><time>2026-04-18T13:38:34.915Z</time></trkpt><trkpt lat="44.848315" lon="7.9266883"><ele>313.6</ele><time>2026-04-18T13:38:35.915Z</time></trkpt><trkpt lat="44.8482417" lon="7.9266017"><ele>311.8</ele><time>2026-04-18T13:38:36.916Z</time></trkpt><trkpt lat="44.8481517" lon="7.9265167"><ele>310.0</ele><time>2026-04-18T13:38:37.916Z</time></trkpt><trkpt lat="44.8480733" lon="7.9264467"><ele>309.3333333333333</ele><time>2026-04-18T13:38:38.916Z</time></trkpt><trkpt lat="44.848005" lon="7.9263733"><ele>308.66666666666663</ele><time>2026-04-18T13:38:39.916Z</time></trkpt><trkpt lat="44.84795" lon="7.926305"><ele>308.0</ele><time>2026-04-18T13:38:40.916Z</time></trkpt><trkpt lat="44.8478917" lon="7.92621"><ele>307.3333333333333</ele><time>2026-04-18T13:38:41.916Z</time></trkpt><trkpt lat="44.8478383" lon="7.9261267"><ele>306.6666666666667</ele><time>2026-04-18T13:38:42.916Z</time></trkpt><trkpt lat="44.847785" lon="7.926045"><ele>306.0</ele><time>2026-04-18T13:38:43.916Z</time></trkpt><trkpt lat="44.847735" lon="7.9259617"><ele>306.6666666666667</ele><time>2026-04-18T13:38:44.916Z</time></trkpt><trkpt lat="44.8476817" lon="7.925885"><ele>307.3333333333333</ele><time>2026-04-18T13:38:45.916Z</time></trkpt><trkpt lat="44.84763" lon="7.9257567"><ele>308.0</ele><time>2026-04-18T13:38:47.916Z</time></trkpt><trkpt lat="44.8476367" lon="7.925635"><ele>308.66666666666663</ele><time>2026-04-18T13:38:49.916Z</time></trkpt><trkpt lat="44.8476667" lon="7.9254767"><ele>309.3333333333333</ele><time>2026-04-18T13:38:51.915Z</time></trkpt><trkpt lat="44.8476767" lon="7.925385"><ele>310.0</ele><time>2026-04-18T13:38:52.916Z</time></trkpt><trkpt lat="44.8476783" lon="7.9252817"><ele>310.0</ele><time>2026-04-18T13:38:53.916Z</time></trkpt><trkpt lat="44.8476783" lon="7.9251817"><ele>310.0</ele><time>2026-04-18T13:38:54.916Z</time></trkpt><trkpt lat="44.84767" lon="7.92508"><ele>310.0</ele><time>2026-04-18T13:38:55.916Z</time></trkpt><trkpt lat="44.8476567" lon="7.9249883"><ele>310.0</ele><time>2026-04-18T13:38:56.915Z</time></trkpt><trkpt lat="44.8476417" lon="7.924835"><ele>310.0</ele><time>2026-04-18T13:38:58.916Z</time></trkpt><trkpt lat="44.8476267" lon="7.924745"><ele>310.0</ele><time>2026-04-18T13:38:59.915Z</time></trkpt><trkpt lat="44.84761" lon="7.924655"><ele>308.3333333333333</ele><time>2026-04-18T13:39:00.916Z</time></trkpt><trkpt lat="44.847595" lon="7.9245667"><ele>306.66666666666663</ele><time>2026-04-18T13:39:01.915Z</time></trkpt><trkpt lat="44.8475733" lon="7.9244683"><ele>305.0</ele><time>2026-04-18T13:39:02.916Z</time></trkpt><trkpt lat="44.8475483" lon="7.9243483"><ele>303.3333333333333</ele><time>2026-04-18T13:39:03.915Z</time></trkpt><trkpt lat="44.8475317" lon="7.924225"><ele>301.6666666666667</ele><time>2026-04-18T13:39:04.915Z</time></trkpt><trkpt lat="44.8475183" lon="7.9240933"><ele>300.0</ele><time>2026-04-18T13:39:05.916Z</time></trkpt><trkpt lat="44.8474983" lon="7.923975"><ele>299.99999999999994</ele><time>2026-04-18T13:39:06.915Z</time></trkpt><trkpt lat="44.8474817" lon="7.9238783"><ele>300.0</ele><time>2026-04-18T13:39:07.915Z</time></trkpt><trkpt lat="44.8474667" lon="7.923775"><ele>300.0</ele><time>2026-04-18T13:39:08.916Z</time></trkpt><trkpt lat="44.8474683" lon="7.9236817"><ele>300.0</ele><time>2026-04-18T13:39:09.916Z</time></trkpt><trkpt lat="44.8474933" lon="7.92359"><ele>300.0</ele><time>2026-04-18T13:39:10.916Z</time></trkpt><trkpt lat="44.8475267" lon="7.9234883"><ele>299.99999999999994</ele><time>2026-04-18T13:39:11.916Z</time></trkpt><trkpt lat="44.8475617" lon="7.923385"><ele>300.0</ele><time>2026-04-18T13:39:12.915Z</time></trkpt><trkpt lat="44.847595" lon="7.923295"><ele>303.3333333333333</ele><time>2026-04-18T13:39:13.915Z</time></trkpt><trkpt lat="44.8476333" lon="7.9232167"><ele>306.6666666666667</ele><time>2026-04-18T13:39:14.916Z</time></trkpt><trkpt lat="44.8476967" lon="7.9230667"><ele>310.0</ele><time>2026-04-18T13:39:16.916Z</time></trkpt><trkpt lat="44.8477317" lon="7.922985"><ele>313.33333333333337</ele><time>2026-04-18T13:39:17.916Z</time></trkpt><trkpt lat="44.847765" lon="7.922895"><ele>316.6666666666667</ele><time>2026-04-18T13:39:18.916Z</time></trkpt><trkpt lat="44.8478017" lon="7.9227967"><ele>320.0</ele><time>2026-04-18T13:39:19.916Z</time></trkpt><trkpt lat="44.847835" lon="7.9226933"><ele>320.0</ele><time>2026-04-18T13:39:20.915Z</time></trkpt><trkpt lat="44.84788" lon="7.9225983"><ele>320.0</ele><time>2026-04-18T13:39:21.915Z</time></trkpt><trkpt lat="44.8479183" lon="7.9224933"><ele>320.0</ele><time>2026-04-18T13:39:22.916Z</time></trkpt><trkpt lat="44.8479567" lon="7.9223967"><ele>320.0</ele><time>2026-04-18T13:39:23.916Z</time></trkpt><trkpt lat="44.8479933" lon="7.9222983"><ele>320.0</ele><time>2026-04-18T13:39:24.916Z</time></trkpt><trkpt lat="44.848025" lon="7.9222033"><ele>320.0</ele><time>2026-04-18T13:39:25.916Z</time></trkpt><trkpt lat="44.848045" lon="7.9221"><ele>318.7142857142857</ele><time>2026-04-18T13:39:26.915Z</time></trkpt><trkpt lat="44.8480683" lon="7.9219967"><ele>317.42857142857144</ele><time>2026-04-18T13:39:27.916Z</time></trkpt><trkpt lat="44.8480817" lon="7.9218933"><ele>316.1428571428571</ele><time>2026-04-18T13:39:28.916Z</time></trkpt><trkpt lat="44.8480883" lon="7.9217883"><ele>314.8571428571429</ele><time>2026-04-18T13:39:29.916Z</time></trkpt><trkpt lat="44.8481" lon="7.9216883"><ele>313.5714285714286</ele><time>2026-04-18T13:39:30.916Z</time></trkpt><trkpt lat="44.848105" lon="7.921595"><ele>312.2857142857143</ele><time>2026-04-18T13:39:31.916Z</time></trkpt><trkpt lat="44.8481217" lon="7.921505"><ele>311.0</ele><time>2026-04-18T13:39:32.915Z</time></trkpt><trkpt lat="44.8481533" lon="7.9214017"><ele>309.6666666666667</ele><time>2026-04-18T13:39:33.916Z</time></trkpt><trkpt lat="44.8481917" lon="7.9212783"><ele>308.33333333333337</ele><time>2026-04-18T13:39:34.915Z</time></trkpt><trkpt lat="44.8482283" lon="7.9211617"><ele>307.0</ele><time>2026-04-18T13:39:35.916Z</time></trkpt><trkpt lat="44.848255" lon="7.921055"><ele>305.6666666666667</ele><time>2026-04-18T13:39:36.916Z</time></trkpt><trkpt lat="44.8482783" lon="7.920955"><ele>304.3333333333333</ele><time>2026-04-18T13:39:37.916Z</time></trkpt><trkpt lat="44.8483067" lon="7.9208633"><ele>303.0</ele><time>2026-04-18T13:39:38.915Z</time></trkpt><trkpt lat="44.848375" lon="7.920715"><ele>302.8571428571429</ele><time>2026-04-18T13:39:40.916Z</time></trkpt><trkpt lat="44.84843" lon="7.9206517"><ele>302.7142857142857</ele><time>2026-04-18T13:39:41.915Z</time></trkpt><trkpt lat="44.8484933" lon="7.9206"><ele>302.57142857142856</ele><time>2026-04-18T13:39:42.916Z</time></trkpt><trkpt lat="44.8485583" lon="7.9205517"><ele>302.42857142857144</ele><time>2026-04-18T13:39:43.916Z</time></trkpt><trkpt lat="44.8486217" lon="7.9204967"><ele>302.2857142857143</ele><time>2026-04-18T13:39:44.916Z</time></trkpt><trkpt lat="44.84868" lon="7.9204483"><ele>302.14285714285717</ele><time>2026-04-18T13:39:45.916Z</time></trkpt><trkpt lat="44.8487417" lon="7.9203817"><ele>302.0</ele><time>2026-04-18T13:39:46.915Z</time></trkpt><trkpt lat="44.8487983" lon="7.9203083"><ele>302.00000000000006</ele><time>2026-04-18T13:39:47.916Z</time></trkpt><trkpt lat="44.8488567" lon="7.9202483"><ele>302.0</ele><time>2026-04-18T13:39:48.916Z</time></trkpt><trkpt lat="44.8489167" lon="7.9202017"><ele>302.0</ele><time>2026-04-18T13:39:49.916Z</time></trkpt><trkpt lat="44.848975" lon="7.920165"><ele>302.0</ele><time>2026-04-18T13:39:50.916Z</time></trkpt><trkpt lat="44.84905" lon="7.9201317"><ele>302.0</ele><time>2026-04-18T13:39:51.916Z</time></trkpt><trkpt lat="44.8491283" lon="7.9201167"><ele>302.00000000000006</ele><time>2026-04-18T13:39:52.916Z</time></trkpt><trkpt lat="44.8492017" lon="7.9201017"><ele>302.0</ele><time>2026-04-18T13:39:53.916Z</time></trkpt><trkpt lat="44.84927" lon="7.9201017"><ele>299.8</ele><time>2026-04-18T13:39:54.915Z</time></trkpt><trkpt lat="44.8493333" lon="7.92013"><ele>297.6</ele><time>2026-04-18T13:39:55.916Z</time></trkpt><trkpt lat="44.8494317" lon="7.9202283"><ele>295.40000000000003</ele><time>2026-04-18T13:39:57.916Z</time></trkpt><trkpt lat="44.8494733" lon="7.9203917"><ele>293.2</ele><time>2026-04-18T13:39:59.915Z</time></trkpt><trkpt lat="44.8494667" lon="7.9204817"><ele>291.0</ele><time>2026-04-18T13:40:00.916Z</time></trkpt><trkpt lat="44.8494183" lon="7.9206417"><ele>291.0</ele><time>2026-04-18T13:40:02.916Z</time></trkpt><trkpt lat="44.8493467" lon="7.9207833"><ele>291.0</ele><time>2026-04-18T13:40:04.916Z</time></trkpt><trkpt lat="44.8493083" lon="7.9208583"><ele>291.0</ele><time>2026-04-18T13:40:05.916Z</time></trkpt><trkpt lat="44.8492467" lon="7.9209783"><ele>291.0</ele><time>2026-04-18T13:40:07.916Z</time></trkpt><trkpt lat="44.8491933" lon="7.9210733"><ele>291.0</ele><time>2026-04-18T13:40:09.916Z</time></trkpt><trkpt lat="44.8491583" lon="7.9211817"><ele>293.8333333333333</ele><time>2026-04-18T13:40:11.916Z</time></trkpt><trkpt lat="44.8491783" lon="7.92127"><ele>296.6666666666667</ele><time>2026-04-18T13:40:13.916Z</time></trkpt><trkpt lat="44.8492633" lon="7.921305"><ele>299.5</ele><time>2026-04-18T13:40:15.916Z</time></trkpt><trkpt lat="44.8493417" lon="7.9212883"><ele>302.33333333333337</ele><time>2026-04-18T13:40:16.916Z</time></trkpt><trkpt lat="44.8494217" lon="7.9212583"><ele>305.1666666666667</ele><time>2026-04-18T13:40:17.916Z</time></trkpt><trkpt lat="44.8494967" lon="7.9212233"><ele>308.0</ele><time>2026-04-18T13:40:18.916Z</time></trkpt><trkpt lat="44.84957" lon="7.921195"><ele>308.0</ele><time>2026-04-18T13:40:19.916Z</time></trkpt><trkpt lat="44.8496417" lon="7.92116"><ele>308.0</ele><time>2026-04-18T13:40:20.915Z</time></trkpt><trkpt lat="44.8497083" lon="7.92112"><ele>308.0</ele><time>2026-04-18T13:40:21.915Z</time></trkpt><trkpt lat="44.8498117" lon="7.9210483"><ele>308.0</ele><time>2026-04-18T13:40:23.915Z</time></trkpt><trkpt lat="44.8499217" lon="7.921"><ele>308.0</ele><time>2026-04-18T13:40:25.916Z</time></trkpt><trkpt lat="44.8500333" lon="7.92104"><ele>308.0</ele><time>2026-04-18T13:40:27.916Z</time></trkpt><trkpt lat="44.8500933" lon="7.9210883"><ele>308.0</ele><time>2026-04-18T13:40:28.915Z</time></trkpt><trkpt lat="44.850155" lon="7.9211433"><ele>308.0</ele><time>2026-04-18T13:40:29.916Z</time></trkpt><trkpt lat="44.85022" lon="7.9211917"><ele>308.0</ele><time>2026-04-18T13:40:30.916Z</time></trkpt><trkpt lat="44.8502767" lon="7.921235"><ele>308.0</ele><time>2026-04-18T13:40:31.915Z</time></trkpt><trkpt lat="44.8503817" lon="7.92132"><ele>308.0</ele><time>2026-04-18T13:40:33.915Z</time></trkpt><trkpt lat="44.85051" lon="7.9213983"><ele>306.7142857142857</ele><time>2026-04-18T13:40:35.916Z</time></trkpt><trkpt lat="44.8505733" lon="7.9214383"><ele>305.42857142857144</ele><time>2026-04-18T13:40:36.916Z</time></trkpt><trkpt lat="44.8506317" lon="7.9214867"><ele>304.1428571428571</ele><time>2026-04-18T13:40:37.916Z</time></trkpt><trkpt lat="44.850695" lon="7.9215417"><ele>302.8571428571429</ele><time>2026-04-18T13:40:38.916Z</time></trkpt><trkpt lat="44.8507633" lon="7.921585"><ele>301.57142857142856</ele><time>2026-04-18T13:40:39.915Z</time></trkpt><trkpt lat="44.8508333" lon="7.921595"><ele>300.2857142857143</ele><time>2026-04-18T13:40:40.916Z</time></trkpt><trkpt lat="44.8509117" lon="7.921615"><ele>299.0</ele><time>2026-04-18T13:40:41.915Z</time></trkpt><trkpt lat="44.8509883" lon="7.92165"><ele>298.6666666666667</ele><time>2026-04-18T13:40:42.916Z</time></trkpt><trkpt lat="44.851055" lon="7.9216817"><ele>298.33333333333337</ele><time>2026-04-18T13:40:43.916Z</time></trkpt><trkpt lat="44.85112" lon="7.921715"><ele>298.0</ele><time>2026-04-18T13:40:44.916Z</time></trkpt><trkpt lat="44.851185" lon="7.9217567"><ele>297.6666666666667</ele><time>2026-04-18T13:40:45.916Z</time></trkpt><trkpt lat="44.8512717" lon="7.9218633"><ele>297.3333333333333</ele><time>2026-04-18T13:40:47.916Z</time></trkpt><trkpt lat="44.851345" lon="7.9219233"><ele>297.0</ele><time>2026-04-18T13:40:49.915Z</time></trkpt><trkpt lat="44.8514317" lon="7.9219383"><ele>297.0</ele><time>2026-04-18T13:40:51.916Z</time></trkpt><trkpt lat="44.8515333" lon="7.9219467"><ele>297.0</ele><time>2026-04-18T13:40:53.916Z</time></trkpt><trkpt lat="44.8516067" lon="7.9219883"><ele>297.0</ele><time>2026-04-18T13:40:55.915Z</time></trkpt><trkpt lat="44.8516817" lon="7.92191"><ele>297.0</ele><time>2026-04-18T13:40:58.916Z</time></trkpt><trkpt lat="44.851745" lon="7.9217317"><ele>297.0</ele><time>2026-04-18T13:41:00.916Z</time></trkpt><trkpt lat="44.85178" lon="7.9216267"><ele>297.0</ele><time>2026-04-18T13:41:01.916Z</time></trkpt><trkpt lat="44.85181" lon="7.921525"><ele>297.0</ele><time>2026-04-18T13:41:02.916Z</time></trkpt><trkpt lat="44.8518167" lon="7.9213717"><ele>297.0</ele><time>2026-04-18T13:41:04.915Z</time></trkpt><trkpt lat="44.851775" lon="7.9212967"><ele>297.0</ele><time>2026-04-18T13:41:05.916Z</time></trkpt><trkpt lat="44.851715" lon="7.92122"><ele>297.0</ele><time>2026-04-18T13:41:06.916Z</time></trkpt><trkpt lat="44.8516567" lon="7.921145"><ele>297.0</ele><time>2026-04-18T13:41:07.916Z</time></trkpt><trkpt lat="44.8516017" lon="7.9210783"><ele>297.0</ele><time>2026-04-18T13:41:08.916Z</time></trkpt><trkpt lat="44.8515017" lon="7.9209833"><ele>297.0</ele><time>2026-04-18T13:41:10.916Z</time></trkpt><trkpt lat="44.8514383" lon="7.9209467"><ele>297.0</ele><time>2026-04-18T13:41:11.916Z</time></trkpt><trkpt lat="44.85137" lon="7.920925"><ele>297.0</ele><time>2026-04-18T13:41:12.916Z</time></trkpt><trkpt lat="44.8513033" lon="7.9208917"><ele>297.0</ele><time>2026-04-18T13:41:13.916Z</time></trkpt><trkpt lat="44.851235" lon="7.9208433"><ele>297.0</ele><time>2026-04-18T13:41:14.916Z</time></trkpt><trkpt lat="44.85117" lon="7.920785"><ele>297.6666666666667</ele><time>2026-04-18T13:41:15.916Z</time></trkpt><trkpt lat="44.8510933" lon="7.9207283"><ele>298.3333333333333</ele><time>2026-04-18T13:41:16.915Z</time></trkpt><trkpt lat="44.8510217" lon="7.9206717"><ele>299.0</ele><time>2026-04-18T13:41:17.916Z</time></trkpt><trkpt lat="44.85095" lon="7.9206033"><ele>299.66666666666663</ele><time>2026-04-18T13:41:18.916Z</time></trkpt><trkpt lat="44.850885" lon="7.92054"><ele>300.3333333333333</ele><time>2026-04-18T13:41:19.916Z</time></trkpt><trkpt lat="44.8508183" lon="7.9204783"><ele>301.0</ele><time>2026-04-18T13:41:20.916Z</time></trkpt><trkpt lat="44.8507567" lon="7.9204133"><ele>300.8333333333333</ele><time>2026-04-18T13:41:21.915Z</time></trkpt><trkpt lat="44.850695" lon="7.9203583"><ele>300.66666666666663</ele><time>2026-04-18T13:41:22.916Z</time></trkpt><trkpt lat="44.8506367" lon="7.92029"><ele>300.5</ele><time>2026-04-18T13:41:23.916Z</time></trkpt><trkpt lat="44.8505767" lon="7.9202217"><ele>300.3333333333333</ele><time>2026-04-18T13:41:24.915Z</time></trkpt><trkpt lat="44.8505233" lon="7.9201333"><ele>300.1666666666667</ele><time>2026-04-18T13:41:25.916Z</time></trkpt><trkpt lat="44.8504833" lon="7.920045"><ele>300.0</ele><time>2026-04-18T13:41:26.916Z</time></trkpt><trkpt lat="44.8504617" lon="7.9199383"><ele>299.99999999999994</ele><time>2026-04-18T13:41:27.916Z</time></trkpt><trkpt lat="44.8504317" lon="7.919845"><ele>300.0</ele><time>2026-04-18T13:41:28.915Z</time></trkpt><trkpt lat="44.8504217" lon="7.9197433"><ele>300.0</ele><time>2026-04-18T13:41:29.915Z</time></trkpt><trkpt lat="44.85042" lon="7.9196483"><ele>300.0</ele><time>2026-04-18T13:41:30.915Z</time></trkpt><trkpt lat="44.8504267" lon="7.91955"><ele>300.0</ele><time>2026-04-18T13:41:31.915Z</time></trkpt><trkpt lat="44.8504367" lon="7.9194483"><ele>299.99999999999994</ele><time>2026-04-18T13:41:32.915Z</time></trkpt><trkpt lat="44.8504633" lon="7.9193567"><ele>300.0</ele><time>2026-04-18T13:41:33.915Z</time></trkpt><trkpt lat="44.8504967" lon="7.9192667"><ele>300.5</ele><time>2026-04-18T13:41:34.916Z</time></trkpt><trkpt lat="44.8505317" lon="7.9191683"><ele>301.0</ele><time>2026-04-18T13:41:35.916Z</time></trkpt><trkpt lat="44.8505617" lon="7.9190533"><ele>301.5</ele><time>2026-04-18T13:41:36.916Z</time></trkpt><trkpt lat="44.8506033" lon="7.9189417"><ele>302.0</ele><time>2026-04-18T13:41:37.916Z</time></trkpt><trkpt lat="44.8506467" lon="7.9188333"><ele>302.5</ele><time>2026-04-18T13:41:38.916Z</time></trkpt><trkpt lat="44.8506967" lon="7.9187367"><ele>303.0</ele><time>2026-04-18T13:41:39.915Z</time></trkpt><trkpt lat="44.8507467" lon="7.91863"><ele>303.0</ele><time>2026-04-18T13:41:40.916Z</time></trkpt><trkpt lat="44.8507967" lon="7.9185233"><ele>303.0</ele><time>2026-04-18T13:41:41.916Z</time></trkpt><trkpt lat="44.8508433" lon="7.918405"><ele>303.0</ele><time>2026-04-18T13:41:42.915Z</time></trkpt><trkpt lat="44.850885" lon="7.9182933"><ele>303.0</ele><time>2026-04-18T13:41:43.915Z</time></trkpt><trkpt lat="44.8509283" lon="7.9181933"><ele>303.0</ele><time>2026-04-18T13:41:44.916Z</time></trkpt><trkpt lat="44.8509633" lon="7.9181"><ele>303.0</ele><time>2026-04-18T13:41:45.916Z</time></trkpt><trkpt lat="44.8510017" lon="7.9180033"><ele>303.0</ele><time>2026-04-18T13:41:46.915Z</time></trkpt><trkpt lat="44.8510483" lon="7.9179183"><ele>303.0</ele><time>2026-04-18T13:41:47.916Z</time></trkpt><trkpt lat="44.8510933" lon="7.917845"><ele>303.0</ele><time>2026-04-18T13:41:48.916Z</time></trkpt><trkpt lat="44.8511483" lon="7.917785"><ele>303.0</ele><time>2026-04-18T13:41:49.916Z</time></trkpt><trkpt lat="44.8512033" lon="7.91774"><ele>303.0</ele><time>2026-04-18T13:41:50.916Z</time></trkpt><trkpt lat="44.8513133" lon="7.9177083"><ele>303.0</ele><time>2026-04-18T13:41:52.916Z</time></trkpt><trkpt lat="44.8514217" lon="7.917765"><ele>303.0</ele><time>2026-04-18T13:41:54.916Z</time></trkpt><trkpt lat="44.8515367" lon="7.9178033"><ele>303.0</ele><time>2026-04-18T13:41:56.915Z</time></trkpt><trkpt lat="44.8516367" lon="7.9177833"><ele>303.0</ele><time>2026-04-18T13:41:58.916Z</time></trkpt><trkpt lat="44.8516933" lon="7.9176867"><ele>303.0</ele><time>2026-04-18T13:42:00.916Z</time></trkpt><trkpt lat="44.8517067" lon="7.9175483"><ele>303.0</ele><time>2026-04-18T13:42:02.916Z</time></trkpt><trkpt lat="44.8517" lon="7.9174583"><ele>301.8333333333333</ele><time>2026-04-18T13:42:03.916Z</time></trkpt><trkpt lat="44.8516717" lon="7.9173433"><ele>300.6666666666667</ele><time>2026-04-18T13:42:04.916Z</time></trkpt><trkpt lat="44.851635" lon="7.9172233"><ele>299.5</ele><time>2026-04-18T13:42:05.916Z</time></trkpt><trkpt lat="44.8515983" lon="7.9171083"><ele>298.33333333333337</ele><time>2026-04-18T13:42:06.916Z</time></trkpt><trkpt lat="44.8515683" lon="7.9169983"><ele>297.1666666666667</ele><time>2026-04-18T13:42:07.916Z</time></trkpt><trkpt lat="44.85156" lon="7.9168883"><ele>296.0</ele><time>2026-04-18T13:42:08.916Z</time></trkpt><trkpt lat="44.8515717" lon="7.9167783"><ele>296.0</ele><time>2026-04-18T13:42:09.916Z</time></trkpt><trkpt lat="44.8515883" lon="7.9166667"><ele>296.0</ele><time>2026-04-18T13:42:10.916Z</time></trkpt><trkpt lat="44.8516133" lon="7.916565"><ele>296.0</ele><time>2026-04-18T13:42:11.916Z</time></trkpt><trkpt lat="44.8516433" lon="7.916475"><ele>296.0</ele><time>2026-04-18T13:42:12.915Z</time></trkpt><trkpt lat="44.8516683" lon="7.9163833"><ele>296.0</ele><time>2026-04-18T13:42:13.916Z</time></trkpt><trkpt lat="44.8516933" lon="7.9162917"><ele>296.0</ele><time>2026-04-18T13:42:14.916Z</time></trkpt><trkpt lat="44.85172" lon="7.9161967"><ele>296.0</ele><time>2026-04-18T13:42:15.916Z</time></trkpt><trkpt lat="44.8517517" lon="7.9161183"><ele>297.1666666666667</ele><time>2026-04-18T13:42:16.916Z</time></trkpt><trkpt lat="44.8517967" lon="7.91605"><ele>298.33333333333337</ele><time>2026-04-18T13:42:17.916Z</time></trkpt><trkpt lat="44.8518517" lon="7.9159883"><ele>299.5</ele><time>2026-04-18T13:42:18.916Z</time></trkpt><trkpt lat="44.8519083" lon="7.9159383"><ele>300.6666666666667</ele><time>2026-04-18T13:42:19.916Z</time></trkpt><trkpt lat="44.85198" lon="7.9158633"><ele>301.8333333333333</ele><time>2026-04-18T13:42:20.915Z</time></trkpt><trkpt lat="44.8520467" lon="7.9157933"><ele>303.0</ele><time>2026-04-18T13:42:21.916Z</time></trkpt><trkpt lat="44.8521133" lon="7.9157233"><ele>303.0</ele><time>2026-04-18T13:42:22.915Z</time></trkpt><trkpt lat="44.8521817" lon="7.9156533"><ele>303.0</ele><time>2026-04-18T13:42:23.916Z</time></trkpt><trkpt lat="44.8522433" lon="7.9155767"><ele>303.0</ele><time>2026-04-18T13:42:24.916Z</time></trkpt><trkpt lat="44.8522983" lon="7.9154933"><ele>303.0</ele><time>2026-04-18T13:42:25.916Z</time></trkpt><trkpt lat="44.8523533" lon="7.9154083"><ele>303.0</ele><time>2026-04-18T13:42:26.916Z</time></trkpt><trkpt lat="44.8524117" lon="7.9153317"><ele>303.0</ele><time>2026-04-18T13:42:27.915Z</time></trkpt><trkpt lat="44.8524683" lon="7.9152533"><ele>303.0</ele><time>2026-04-18T13:42:28.916Z</time></trkpt><trkpt lat="44.8525167" lon="7.9151783"><ele>303.0</ele><time>2026-04-18T13:42:29.916Z</time></trkpt><trkpt lat="44.8525683" lon="7.9151017"><ele>303.0</ele><time>2026-04-18T13:42:30.916Z</time></trkpt><trkpt lat="44.8526117" lon="7.9150267"><ele>303.0</ele><time>2026-04-18T13:42:31.916Z</time></trkpt><trkpt lat="44.8526467" lon="7.914945"><ele>303.0</ele><time>2026-04-18T13:42:32.916Z</time></trkpt><trkpt lat="44.8526767" lon="7.9148567"><ele>303.0</ele><time>2026-04-18T13:42:33.916Z</time></trkpt><trkpt lat="44.8527117" lon="7.9147783"><ele>303.0</ele><time>2026-04-18T13:42:34.916Z</time></trkpt><trkpt lat="44.852755" lon="7.9147"><ele>302.8333333333333</ele><time>2026-04-18T13:42:35.916Z</time></trkpt><trkpt lat="44.852805" lon="7.9146"><ele>302.6666666666667</ele><time>2026-04-18T13:42:37.916Z</time></trkpt><trkpt lat="44.8528717" lon="7.9145283"><ele>302.5</ele><time>2026-04-18T13:42:40.916Z</time></trkpt><trkpt lat="44.85291" lon="7.9144283"><ele>302.33333333333337</ele><time>2026-04-18T13:42:42.915Z</time></trkpt><trkpt lat="44.8529617" lon="7.914355"><ele>302.1666666666667</ele><time>2026-04-18T13:42:43.915Z</time></trkpt><trkpt lat="44.8530183" lon="7.914265"><ele>302.0</ele><time>2026-04-18T13:42:44.916Z</time></trkpt><trkpt lat="44.8530667" lon="7.9141817"><ele>300.6</ele><time>2026-04-18T13:42:45.916Z</time></trkpt><trkpt lat="44.8531083" lon="7.91411"><ele>299.2</ele><time>2026-04-18T13:42:46.916Z</time></trkpt><trkpt lat="44.85316" lon="7.9139567"><ele>297.8</ele><time>2026-04-18T13:42:48.916Z</time></trkpt><trkpt lat="44.8531733" lon="7.9138567"><ele>296.4</ele><time>2026-04-18T13:42:49.916Z</time></trkpt><trkpt lat="44.8531833" lon="7.913725"><ele>295.0</ele><time>2026-04-18T13:42:50.916Z</time></trkpt><trkpt lat="44.8531867" lon="7.913565"><ele>294.6</ele><time>2026-04-18T13:42:51.915Z</time></trkpt><trkpt lat="44.8531783" lon="7.9134017"><ele>294.2</ele><time>2026-04-18T13:42:52.915Z</time></trkpt><trkpt lat="44.85318" lon="7.9132433"><ele>293.8</ele><time>2026-04-18T13:42:53.916Z</time></trkpt><trkpt lat="44.8531767" lon="7.9130933"><ele>293.4</ele><time>2026-04-18T13:42:54.916Z</time></trkpt><trkpt lat="44.853175" lon="7.9129567"><ele>293.0</ele><time>2026-04-18T13:42:55.916Z</time></trkpt><trkpt lat="44.8531767" lon="7.9128333"><ele>293.0</ele><time>2026-04-18T13:42:56.916Z</time></trkpt><trkpt lat="44.8531733" lon="7.9127267"><ele>293.0</ele><time>2026-04-18T13:42:57.915Z</time></trkpt><trkpt lat="44.853165" lon="7.9126283"><ele>293.0</ele><time>2026-04-18T13:42:58.916Z</time></trkpt><trkpt lat="44.853135" lon="7.9124617"><ele>293.0</ele><time>2026-04-18T13:43:00.915Z</time></trkpt><trkpt lat="44.8530783" lon="7.9123117"><ele>293.0</ele><time>2026-04-18T13:43:02.915Z</time></trkpt><trkpt lat="44.8530317" lon="7.9122317"><ele>292.85714285714283</ele><time>2026-04-18T13:43:03.916Z</time></trkpt><trkpt lat="44.8529683" lon="7.9121567"><ele>292.7142857142857</ele><time>2026-04-18T13:43:04.916Z</time></trkpt><trkpt lat="44.852895" lon="7.91209"><ele>292.57142857142856</ele><time>2026-04-18T13:43:05.916Z</time></trkpt><trkpt lat="44.8528267" lon="7.9120383"><ele>292.42857142857144</ele><time>2026-04-18T13:43:06.916Z</time></trkpt><trkpt lat="44.852765" lon="7.91201"><ele>292.2857142857143</ele><time>2026-04-18T13:43:07.916Z</time></trkpt><trkpt lat="44.8527017" lon="7.91199"><ele>292.1428571428571</ele><time>2026-04-18T13:43:08.916Z</time></trkpt><trkpt lat="44.852635" lon="7.9119783"><ele>292.0</ele><time>2026-04-18T13:43:09.915Z</time></trkpt><trkpt lat="44.85256" lon="7.911975"><ele>291.16666666666663</ele><time>2026-04-18T13:43:10.916Z</time></trkpt><trkpt lat="44.852485" lon="7.9119667"><ele>290.3333333333333</ele><time>2026-04-18T13:43:11.916Z</time></trkpt><trkpt lat="44.85241" lon="7.91195"><ele>289.5</ele><time>2026-04-18T13:43:12.916Z</time></trkpt><trkpt lat="44.8523367" lon="7.9119367"><ele>288.6666666666667</ele><time>2026-04-18T13:43:13.916Z</time></trkpt><trkpt lat="44.8522617" lon="7.9119217"><ele>287.83333333333337</ele><time>2026-04-18T13:43:14.915Z</time></trkpt><trkpt lat="44.85219" lon="7.9119083"><ele>287.0</ele><time>2026-04-18T13:43:15.915Z</time></trkpt><trkpt lat="44.85211" lon="7.9119"><ele>287.0</ele><time>2026-04-18T13:43:16.915Z</time></trkpt><trkpt lat="44.8520267" lon="7.911885"><ele>287.0</ele><time>2026-04-18T13:43:17.916Z</time></trkpt><trkpt lat="44.851945" lon="7.911865"><ele>287.0</ele><time>2026-04-18T13:43:18.916Z</time></trkpt><trkpt lat="44.8518583" lon="7.9118417"><ele>287.0</ele><time>2026-04-18T13:43:19.916Z</time></trkpt><trkpt lat="44.8517783" lon="7.9118183"><ele>287.0</ele><time>2026-04-18T13:43:20.916Z</time></trkpt><trkpt lat="44.8517017" lon="7.911805"><ele>287.0</ele><time>2026-04-18T13:43:21.916Z</time></trkpt><trkpt lat="44.851625" lon="7.911795"><ele>286.83333333333337</ele><time>2026-04-18T13:43:22.915Z</time></trkpt><trkpt lat="44.85154" lon="7.9117767"><ele>286.6666666666667</ele><time>2026-04-18T13:43:23.916Z</time></trkpt><trkpt lat="44.8514567" lon="7.91176"><ele>286.5</ele><time>2026-04-18T13:43:24.916Z</time></trkpt><trkpt lat="44.8513767" lon="7.9117433"><ele>286.3333333333333</ele><time>2026-04-18T13:43:25.916Z</time></trkpt><trkpt lat="44.8513033" lon="7.9117267"><ele>286.16666666666663</ele><time>2026-04-18T13:43:26.916Z</time></trkpt><trkpt lat="44.851236" lon="7.9117152"><ele>286.0</ele><time>2026-04-18T13:43:27.916Z</time></trkpt><trkpt lat="44.8511727" lon="7.9117045"><ele>284.0</ele><time>2026-04-18T13:43:28.916Z</time></trkpt><trkpt lat="44.8510601" lon="7.9116701"><ele>284.0</ele><time>2026-04-18T13:43:30.916Z</time></trkpt><trkpt lat="44.8509687" lon="7.9116078"><ele>284.0</ele><time>2026-04-18T13:43:32.916Z</time></trkpt><trkpt lat="44.8508832" lon="7.9116272"><ele>294.0</ele><time>2026-04-18T13:43:34.915Z</time></trkpt><trkpt lat="44.8508246" lon="7.911702"><ele>294.0</ele><time>2026-04-18T13:43:37.915Z</time></trkpt></trkseg></trk></gpx>